<?xml version="1.0" encoding="UTF-8" standalone="no" ?>
<gpx xmlns="http://www.topografix.com/GPX/1/1" xmlns:xsi="http://www.w3.org/2001/XMLSchema-instance" xsi:schemaLocation="http://www.topografix.com/GPX/1/1 http://www.topografix.com/GPX/1/1/gpx.xsd" version="1.1" creator="VisuGPX - https://www.visugpx.com">
  <metadata>
    <name>Trace TET 50% départ VARZAY</name>
  </metadata>
  <trk>
    <name><![CDATA[Trace TET 50% départ VARZAY_2]]></name>
    <trkseg>
      <trkpt lat="45.67537" lon="-0.73259">
        <ele>40.7</ele>
        <extensions>
          <visugpx:TrkExtension xmlns:visugpx="https://www.visugpx.com/editgpx/">
            <visugpx:node>3</visugpx:node>
            </visugpx:TrkExtension>
        </extensions>
      </trkpt>
      <trkpt lat="45.67537" lon="-0.73259">
        <ele>34.2</ele>
        <time>2021-11-12T08:47:18Z</time>
      </trkpt>
      <trkpt lat="45.67544" lon="-0.73289">
        <ele>35.9</ele>
        <time>2021-11-12T08:47:26Z</time>
      </trkpt>
      <trkpt lat="45.67538" lon="-0.73333">
        <ele>36.2</ele>
        <time>2021-11-12T08:47:30Z</time>
      </trkpt>
      <trkpt lat="45.67534" lon="-0.73371">
        <ele>36.4</ele>
        <time>2021-11-12T08:47:33Z</time>
      </trkpt>
      <trkpt lat="45.67531" lon="-0.73458">
        <ele>35.2</ele>
        <time>2021-11-12T08:47:40Z</time>
      </trkpt>
      <trkpt lat="45.67533" lon="-0.73601">
        <ele>36.7</ele>
        <time>2021-11-12T08:47:51Z</time>
      </trkpt>
      <trkpt lat="45.67531" lon="-0.73681">
        <ele>37.8</ele>
        <time>2021-11-12T08:47:57Z</time>
      </trkpt>
      <trkpt lat="45.67514" lon="-0.73769">
        <ele>39.6</ele>
        <time>2021-11-12T08:48:04Z</time>
      </trkpt>
      <trkpt lat="45.67513" lon="-0.73908">
        <ele>39.5</ele>
        <time>2021-11-12T08:48:14Z</time>
      </trkpt>
      <trkpt lat="45.67516" lon="-0.73949">
        <ele>40.9</ele>
        <time>2021-11-12T08:48:18Z</time>
      </trkpt>
      <trkpt lat="45.67522" lon="-0.73971">
        <ele>41.2</ele>
        <time>2021-11-12T08:48:21Z</time>
      </trkpt>
      <trkpt lat="45.67611" lon="-0.74166">
        <ele>42.1</ele>
        <time>2021-11-12T08:48:36Z</time>
      </trkpt>
      <trkpt lat="45.67675" lon="-0.74386">
        <ele>44.2</ele>
        <time>2021-11-12T08:48:51Z</time>
      </trkpt>
      <trkpt lat="45.67676" lon="-0.74411">
        <ele>43.8</ele>
        <time>2021-11-12T08:48:55Z</time>
      </trkpt>
      <trkpt lat="45.67677" lon="-0.74433">
        <ele>43.9</ele>
        <time>2021-11-12T08:48:58Z</time>
      </trkpt>
      <trkpt lat="45.67696" lon="-0.74444">
        <ele>43.2</ele>
        <time>2021-11-12T08:49:02Z</time>
      </trkpt>
      <trkpt lat="45.67736" lon="-0.74464">
        <ele>42.4</ele>
        <time>2021-11-12T08:49:06Z</time>
      </trkpt>
      <trkpt lat="45.6777" lon="-0.74529">
        <ele>43.2</ele>
        <time>2021-11-12T08:49:10Z</time>
      </trkpt>
      <trkpt lat="45.67803" lon="-0.74599">
        <ele>42.3</ele>
        <time>2021-11-12T08:49:14Z</time>
      </trkpt>
      <trkpt lat="45.67896" lon="-0.74659">
        <ele>41</ele>
        <time>2021-11-12T08:49:24Z</time>
      </trkpt>
      <trkpt lat="45.67937" lon="-0.74807">
        <ele>41.2</ele>
        <time>2021-11-12T08:49:39Z</time>
      </trkpt>
      <trkpt lat="45.67947" lon="-0.74849">
        <ele>41.6</ele>
        <time>2021-11-12T08:49:43Z</time>
      </trkpt>
      <trkpt lat="45.67954" lon="-0.74879">
        <ele>41.6</ele>
        <time>2021-11-12T08:49:46Z</time>
      </trkpt>
      <trkpt lat="45.67947" lon="-0.74956">
        <ele>40.2</ele>
        <time>2021-11-12T08:49:53Z</time>
      </trkpt>
      <trkpt lat="45.67948" lon="-0.75019">
        <ele>37.2</ele>
        <time>2021-11-12T08:50:00Z</time>
      </trkpt>
      <trkpt lat="45.67961" lon="-0.7505">
        <ele>37.5</ele>
        <time>2021-11-12T08:50:03Z</time>
      </trkpt>
      <trkpt lat="45.67997" lon="-0.75128">
        <ele>36.4</ele>
        <time>2021-11-12T08:50:10Z</time>
      </trkpt>
      <trkpt lat="45.68033" lon="-0.7521">
        <ele>37.2</ele>
        <time>2021-11-12T08:50:18Z</time>
      </trkpt>
      <trkpt lat="45.68031" lon="-0.7524">
        <ele>43</ele>
        <time>2021-11-12T08:50:23Z</time>
      </trkpt>
      <trkpt lat="45.67958" lon="-0.75381">
        <ele>45.4</ele>
        <time>2021-11-12T08:51:03Z</time>
      </trkpt>
      <trkpt lat="45.67939" lon="-0.75429">
        <ele>45.2</ele>
        <time>2021-11-12T08:51:15Z</time>
      </trkpt>
      <trkpt lat="45.67798" lon="-0.75602">
        <ele>45.5</ele>
        <time>2021-11-12T08:52:16Z</time>
      </trkpt>
      <trkpt lat="45.67939" lon="-0.75709">
        <ele>45</ele>
        <time>2021-11-12T08:53:08Z</time>
      </trkpt>
      <trkpt lat="45.67963" lon="-0.75742">
        <ele>37.2</ele>
        <time>2021-11-12T08:53:21Z</time>
      </trkpt>
      <trkpt lat="45.67964" lon="-0.75742">
        <ele>42</ele>
        <time>2021-11-12T09:04:27Z</time>
      </trkpt>
      <trkpt lat="45.68007" lon="-0.75767">
        <ele>37.6</ele>
        <time>2021-11-12T09:04:35Z</time>
      </trkpt>
      <trkpt lat="45.68071" lon="-0.75823">
        <ele>33.1</ele>
        <time>2021-11-12T09:04:43Z</time>
      </trkpt>
      <trkpt lat="45.68088" lon="-0.7584">
        <ele>33.4</ele>
        <time>2021-11-12T09:04:46Z</time>
      </trkpt>
      <trkpt lat="45.68116" lon="-0.75859">
        <ele>29.3</ele>
        <time>2021-11-12T09:04:53Z</time>
      </trkpt>
      <trkpt lat="45.68139" lon="-0.75878">
        <ele>25.3</ele>
        <time>2021-11-12T09:04:59Z</time>
      </trkpt>
      <trkpt lat="45.68187" lon="-0.75899">
        <ele>27.9</ele>
        <time>2021-11-12T09:05:07Z</time>
      </trkpt>
      <trkpt lat="45.68197" lon="-0.75903">
        <ele>27.6</ele>
        <time>2021-11-12T09:05:10Z</time>
      </trkpt>
      <trkpt lat="45.68222" lon="-0.75926">
        <ele>24.3</ele>
        <time>2021-11-12T09:05:17Z</time>
      </trkpt>
      <trkpt lat="45.68277" lon="-0.75971">
        <ele>22.7</ele>
        <time>2021-11-12T09:05:39Z</time>
      </trkpt>
      <trkpt lat="45.6828" lon="-0.75964">
        <ele>46.8</ele>
        <time>2021-11-12T09:05:44Z</time>
      </trkpt>
      <trkpt lat="45.68297" lon="-0.75978">
        <ele>46.4</ele>
        <time>2021-11-12T09:05:49Z</time>
      </trkpt>
      <trkpt lat="45.68333" lon="-0.76086">
        <ele>46.3</ele>
        <time>2021-11-12T09:06:12Z</time>
      </trkpt>
      <trkpt lat="45.68286" lon="-0.76157">
        <ele>46.3</ele>
        <time>2021-11-12T09:06:31Z</time>
      </trkpt>
      <trkpt lat="45.68248" lon="-0.76203">
        <ele>46.3</ele>
        <time>2021-11-12T09:06:47Z</time>
      </trkpt>
      <trkpt lat="45.681" lon="-0.76152">
        <ele>45.2</ele>
        <time>2021-11-12T09:07:39Z</time>
      </trkpt>
      <trkpt lat="45.68004" lon="-0.76118">
        <ele>45.6</ele>
        <time>2021-11-12T09:08:11Z</time>
      </trkpt>
      <trkpt lat="45.67986" lon="-0.76119">
        <ele>46.3</ele>
        <time>2021-11-12T09:08:17Z</time>
      </trkpt>
      <trkpt lat="45.67991" lon="-0.76324">
        <ele>46.4</ele>
        <time>2021-11-12T09:09:03Z</time>
      </trkpt>
      <trkpt lat="45.68003" lon="-0.765">
        <ele>47.1</ele>
        <time>2021-11-12T09:09:42Z</time>
      </trkpt>
      <trkpt lat="45.6805" lon="-0.76494">
        <ele>45.5</ele>
        <time>2021-11-12T09:09:57Z</time>
      </trkpt>
      <trkpt lat="45.68127" lon="-0.76501">
        <ele>45.3</ele>
        <time>2021-11-12T09:10:22Z</time>
      </trkpt>
      <trkpt lat="45.68147" lon="-0.76503">
        <ele>45.1</ele>
        <time>2021-11-12T09:10:28Z</time>
      </trkpt>
      <trkpt lat="45.68269" lon="-0.76618">
        <ele>44.3</ele>
        <time>2021-11-12T09:11:13Z</time>
      </trkpt>
      <trkpt lat="45.68235" lon="-0.76716">
        <ele>45.2</ele>
        <time>2021-11-12T09:11:36Z</time>
      </trkpt>
      <trkpt lat="45.68228" lon="-0.7675">
        <ele>41.8</ele>
        <time>2021-11-12T09:11:46Z</time>
      </trkpt>
      <trkpt lat="45.68226" lon="-0.76776">
        <ele>45.2</ele>
        <time>2021-11-12T09:11:52Z</time>
      </trkpt>
      <trkpt lat="45.68223" lon="-0.76793">
        <ele>46</ele>
        <time>2021-11-12T09:11:55Z</time>
      </trkpt>
      <trkpt lat="45.68222" lon="-0.7684">
        <ele>46.3</ele>
        <time>2021-11-12T09:12:03Z</time>
      </trkpt>
      <trkpt lat="45.6824" lon="-0.77063">
        <ele>46.9</ele>
        <time>2021-11-12T09:12:44Z</time>
      </trkpt>
      <trkpt lat="45.68248" lon="-0.77152">
        <ele>46.6</ele>
        <time>2021-11-12T09:13:00Z</time>
      </trkpt>
      <trkpt lat="45.68246" lon="-0.77165">
        <ele>46.5</ele>
        <time>2021-11-12T09:13:02Z</time>
      </trkpt>
      <trkpt lat="45.68222" lon="-0.77407">
        <ele>46.1</ele>
        <time>2021-11-12T09:13:44Z</time>
      </trkpt>
      <trkpt lat="45.68135" lon="-0.77623">
        <ele>45.8</ele>
        <time>2021-11-12T09:14:27Z</time>
      </trkpt>
      <trkpt lat="45.68117" lon="-0.7769">
        <ele>42.8</ele>
        <time>2021-11-12T09:14:41Z</time>
      </trkpt>
      <trkpt lat="45.68141" lon="-0.77702">
        <ele>41.2</ele>
        <time>2021-11-12T09:14:49Z</time>
      </trkpt>
      <trkpt lat="45.6816" lon="-0.77706">
        <ele>41.1</ele>
        <time>2021-11-12T09:14:52Z</time>
      </trkpt>
      <trkpt lat="45.68209" lon="-0.77717">
        <ele>44.2</ele>
        <time>2021-11-12T09:14:59Z</time>
      </trkpt>
      <trkpt lat="45.68239" lon="-0.77725">
        <ele>44.5</ele>
        <time>2021-11-12T09:15:03Z</time>
      </trkpt>
      <trkpt lat="45.683" lon="-0.77741">
        <ele>45.3</ele>
        <time>2021-11-12T09:15:10Z</time>
      </trkpt>
      <trkpt lat="45.68353" lon="-0.77787">
        <ele>41.2</ele>
        <time>2021-11-12T09:15:20Z</time>
      </trkpt>
      <trkpt lat="45.68423" lon="-0.77713">
        <ele>37.8</ele>
        <time>2021-11-12T09:15:38Z</time>
      </trkpt>
      <trkpt lat="45.68462" lon="-0.77716">
        <ele>84.2</ele>
        <time>2021-11-12T09:15:48Z</time>
      </trkpt>
      <trkpt lat="45.68479" lon="-0.77726">
        <ele>84.2</ele>
        <time>2021-11-12T09:15:51Z</time>
      </trkpt>
      <trkpt lat="45.6853" lon="-0.77756">
        <ele>84.2</ele>
        <time>2021-11-12T09:16:13Z</time>
      </trkpt>
      <trkpt lat="45.68531" lon="-0.77757">
        <ele>84.2</ele>
        <time>2021-11-12T09:16:23Z</time>
      </trkpt>
      <trkpt lat="45.68591" lon="-0.77801">
        <ele>84.3</ele>
        <time>2021-11-12T09:16:33Z</time>
      </trkpt>
      <trkpt lat="45.68679" lon="-0.77851">
        <ele>84.1</ele>
        <time>2021-11-12T09:16:47Z</time>
      </trkpt>
      <trkpt lat="45.68695" lon="-0.77999">
        <ele>84.1</ele>
        <time>2021-11-12T09:17:05Z</time>
      </trkpt>
      <trkpt lat="45.68727" lon="-0.78077">
        <ele>84.1</ele>
        <time>2021-11-12T09:17:15Z</time>
      </trkpt>
      <trkpt lat="45.68756" lon="-0.78125">
        <ele>35.2</ele>
        <time>2021-11-12T09:17:22Z</time>
      </trkpt>
      <trkpt lat="45.68779" lon="-0.78168">
        <ele>34.9</ele>
        <time>2021-11-12T09:17:30Z</time>
      </trkpt>
      <trkpt lat="45.68839" lon="-0.78176">
        <ele>36.1</ele>
        <time>2021-11-12T09:17:44Z</time>
      </trkpt>
      <trkpt lat="45.68883" lon="-0.78135">
        <ele>36.3</ele>
        <time>2021-11-12T09:17:51Z</time>
      </trkpt>
      <trkpt lat="45.68914" lon="-0.78105">
        <ele>33</ele>
        <time>2021-11-12T09:18:02Z</time>
      </trkpt>
      <trkpt lat="45.68977" lon="-0.78093">
        <ele>28.7</ele>
        <time>2021-11-12T09:18:17Z</time>
      </trkpt>
      <trkpt lat="45.68999" lon="-0.78074">
        <ele>25.3</ele>
        <time>2021-11-12T09:18:21Z</time>
      </trkpt>
      <trkpt lat="45.69043" lon="-0.78064">
        <ele>27.3</ele>
        <time>2021-11-12T09:18:28Z</time>
      </trkpt>
      <trkpt lat="45.69066" lon="-0.78062">
        <ele>27.4</ele>
        <time>2021-11-12T09:18:32Z</time>
      </trkpt>
      <trkpt lat="45.69164" lon="-0.78026">
        <ele>22</ele>
        <time>2021-11-12T09:18:46Z</time>
      </trkpt>
      <trkpt lat="45.69189" lon="-0.78013">
        <ele>21.4</ele>
        <time>2021-11-12T09:18:50Z</time>
      </trkpt>
      <trkpt lat="45.69203" lon="-0.78002">
        <ele>21.3</ele>
        <time>2021-11-12T09:18:53Z</time>
      </trkpt>
      <trkpt lat="45.69224" lon="-0.7799">
        <ele>22.1</ele>
        <time>2021-11-12T09:18:57Z</time>
      </trkpt>
      <trkpt lat="45.69245" lon="-0.77978">
        <ele>22.9</ele>
        <time>2021-11-12T09:19:01Z</time>
      </trkpt>
      <trkpt lat="45.69268" lon="-0.77997">
        <ele>26.4</ele>
        <time>2021-11-12T09:19:09Z</time>
      </trkpt>
      <trkpt lat="45.6931" lon="-0.78012">
        <ele>28.4</ele>
        <time>2021-11-12T09:19:21Z</time>
      </trkpt>
      <trkpt lat="45.69329" lon="-0.78011">
        <ele>23.9</ele>
        <time>2021-11-12T09:19:25Z</time>
      </trkpt>
      <trkpt lat="45.69344" lon="-0.7801">
        <ele>23.4</ele>
        <time>2021-11-12T09:19:28Z</time>
      </trkpt>
      <trkpt lat="45.69402" lon="-0.78021">
        <ele>27.7</ele>
        <time>2021-11-12T09:19:38Z</time>
      </trkpt>
      <trkpt lat="45.69437" lon="-0.77936">
        <ele>31.6</ele>
        <time>2021-11-12T09:19:49Z</time>
      </trkpt>
      <trkpt lat="45.69449" lon="-0.77876">
        <ele>31.4</ele>
        <time>2021-11-12T09:19:55Z</time>
      </trkpt>
      <trkpt lat="45.69492" lon="-0.77908">
        <ele>32.2</ele>
        <time>2021-11-12T09:20:05Z</time>
      </trkpt>
      <trkpt lat="45.69509" lon="-0.77925">
        <ele>29.2</ele>
        <time>2021-11-12T09:20:08Z</time>
      </trkpt>
      <trkpt lat="45.69549" lon="-0.77965">
        <ele>29.4</ele>
        <time>2021-11-12T09:20:15Z</time>
      </trkpt>
      <trkpt lat="45.6958" lon="-0.7799">
        <ele>33.4</ele>
        <time>2021-11-12T09:20:22Z</time>
      </trkpt>
      <trkpt lat="45.69577" lon="-0.77994">
        <ele>33.5</ele>
        <time>2021-11-12T09:20:23Z</time>
      </trkpt>
      <trkpt lat="45.69577" lon="-0.78025">
        <ele>33.7</ele>
        <time>2021-11-12T09:20:28Z</time>
      </trkpt>
      <trkpt lat="45.69577" lon="-0.78049">
        <ele>34</ele>
        <time>2021-11-12T09:20:32Z</time>
      </trkpt>
      <trkpt lat="45.6963" lon="-0.78277">
        <ele>30.9</ele>
        <time>2021-11-12T09:21:10Z</time>
      </trkpt>
      <trkpt lat="45.6966" lon="-0.78301">
        <ele>30.8</ele>
        <time>2021-11-12T09:21:14Z</time>
      </trkpt>
      <trkpt lat="45.69723" lon="-0.78338">
        <ele>30.9</ele>
        <time>2021-11-12T09:21:21Z</time>
      </trkpt>
      <trkpt lat="45.69758" lon="-0.78363">
        <ele>30.8</ele>
        <time>2021-11-12T09:21:28Z</time>
      </trkpt>
      <trkpt lat="45.69722" lon="-0.78557">
        <ele>30.9</ele>
        <time>2021-11-12T09:21:44Z</time>
      </trkpt>
      <trkpt lat="45.69703" lon="-0.78605">
        <ele>30.9</ele>
        <time>2021-11-12T09:21:47Z</time>
      </trkpt>
      <trkpt lat="45.69629" lon="-0.78771">
        <ele>32.5</ele>
        <time>2021-11-12T09:21:58Z</time>
      </trkpt>
      <trkpt lat="45.69559" lon="-0.78803">
        <ele>36.6</ele>
        <time>2021-11-12T09:22:05Z</time>
      </trkpt>
      <trkpt lat="45.69522" lon="-0.7881">
        <ele>35.4</ele>
        <time>2021-11-12T09:22:09Z</time>
      </trkpt>
      <trkpt lat="45.69501" lon="-0.7894">
        <ele>33.3</ele>
        <time>2021-11-12T09:22:23Z</time>
      </trkpt>
      <trkpt lat="45.69492" lon="-0.78987">
        <ele>30.9</ele>
        <time>2021-11-12T09:22:27Z</time>
      </trkpt>
      <trkpt lat="45.69484" lon="-0.79023">
        <ele>31.6</ele>
        <time>2021-11-12T09:22:30Z</time>
      </trkpt>
      <trkpt lat="45.69475" lon="-0.79063">
        <ele>30.3</ele>
        <time>2021-11-12T09:22:34Z</time>
      </trkpt>
      <trkpt lat="45.69403" lon="-0.79152">
        <ele>32.8</ele>
        <time>2021-11-12T09:22:46Z</time>
      </trkpt>
      <trkpt lat="45.69377" lon="-0.7917">
        <ele>33.9</ele>
        <time>2021-11-12T09:22:49Z</time>
      </trkpt>
      <trkpt lat="45.69281" lon="-0.79281">
        <ele>37.4</ele>
        <time>2021-11-12T09:23:04Z</time>
      </trkpt>
      <trkpt lat="45.69247" lon="-0.79368">
        <ele>34.1</ele>
        <time>2021-11-12T09:23:12Z</time>
      </trkpt>
      <trkpt lat="45.69233" lon="-0.79417">
        <ele>34.1</ele>
        <time>2021-11-12T09:23:16Z</time>
      </trkpt>
      <trkpt lat="45.69223" lon="-0.79497">
        <ele>35.5</ele>
        <time>2021-11-12T09:23:22Z</time>
      </trkpt>
      <trkpt lat="45.69199" lon="-0.79785">
        <ele>37</ele>
        <time>2021-11-12T09:23:38Z</time>
      </trkpt>
      <trkpt lat="45.69196" lon="-0.79866">
        <ele>37</ele>
        <time>2021-11-12T09:23:42Z</time>
      </trkpt>
      <trkpt lat="45.69108" lon="-0.80032">
        <ele>38.4</ele>
        <time>2021-11-12T09:23:53Z</time>
      </trkpt>
      <trkpt lat="45.68982" lon="-0.80255">
        <ele>40.4</ele>
        <time>2021-11-12T09:24:04Z</time>
      </trkpt>
      <trkpt lat="45.68929" lon="-0.80346">
        <ele>41</ele>
        <time>2021-11-12T09:24:14Z</time>
      </trkpt>
      <trkpt lat="45.68913" lon="-0.80408">
        <ele>40.8</ele>
        <time>2021-11-12T09:24:18Z</time>
      </trkpt>
      <trkpt lat="45.6887" lon="-0.80525">
        <ele>41.7</ele>
        <time>2021-11-12T09:24:30Z</time>
      </trkpt>
      <trkpt lat="45.68867" lon="-0.80571">
        <ele>42</ele>
        <time>2021-11-12T09:24:34Z</time>
      </trkpt>
      <trkpt lat="45.68842" lon="-0.80642">
        <ele>40.7</ele>
        <time>2021-11-12T09:24:40Z</time>
      </trkpt>
      <trkpt lat="45.68826" lon="-0.80725">
        <ele>39</ele>
        <time>2021-11-12T09:24:47Z</time>
      </trkpt>
      <trkpt lat="45.68817" lon="-0.80806">
        <ele>39.3</ele>
        <time>2021-11-12T09:24:54Z</time>
      </trkpt>
      <trkpt lat="45.68799" lon="-0.80891">
        <ele>38</ele>
        <time>2021-11-12T09:25:01Z</time>
      </trkpt>
      <trkpt lat="45.68768" lon="-0.80975">
        <ele>37.5</ele>
        <time>2021-11-12T09:25:08Z</time>
      </trkpt>
      <trkpt lat="45.68701" lon="-0.81141">
        <ele>35.7</ele>
        <time>2021-11-12T09:25:22Z</time>
      </trkpt>
      <trkpt lat="45.68671" lon="-0.81234">
        <ele>36.6</ele>
        <time>2021-11-12T09:25:32Z</time>
      </trkpt>
      <trkpt lat="45.68665" lon="-0.81275">
        <ele>34.9</ele>
        <time>2021-11-12T09:25:36Z</time>
      </trkpt>
      <trkpt lat="45.68656" lon="-0.81334">
        <ele>35.2</ele>
        <time>2021-11-12T09:25:40Z</time>
      </trkpt>
      <trkpt lat="45.68583" lon="-0.81436">
        <ele>34.8</ele>
        <time>2021-11-12T09:25:53Z</time>
      </trkpt>
      <trkpt lat="45.68501" lon="-0.8152">
        <ele>35</ele>
        <time>2021-11-12T09:26:04Z</time>
      </trkpt>
      <trkpt lat="45.68437" lon="-0.81556">
        <ele>35</ele>
        <time>2021-11-12T09:26:11Z</time>
      </trkpt>
      <trkpt lat="45.68365" lon="-0.81591">
        <ele>34</ele>
        <time>2021-11-12T09:26:22Z</time>
      </trkpt>
      <trkpt lat="45.68343" lon="-0.81721">
        <ele>32.8</ele>
        <time>2021-11-12T09:26:36Z</time>
      </trkpt>
      <trkpt lat="45.6829" lon="-0.81821">
        <ele>31.1</ele>
        <time>2021-11-12T09:26:44Z</time>
      </trkpt>
      <trkpt lat="45.68276" lon="-0.81854">
        <ele>32</ele>
        <time>2021-11-12T09:26:47Z</time>
      </trkpt>
      <trkpt lat="45.68256" lon="-0.81943">
        <ele>35</ele>
        <time>2021-11-12T09:26:54Z</time>
      </trkpt>
      <trkpt lat="45.68253" lon="-0.8208">
        <ele>35</ele>
        <time>2021-11-12T09:27:09Z</time>
      </trkpt>
      <trkpt lat="45.68218" lon="-0.82172">
        <ele>33.4</ele>
        <time>2021-11-12T09:27:20Z</time>
      </trkpt>
      <trkpt lat="45.68188" lon="-0.8221">
        <ele>33.9</ele>
        <time>2021-11-12T09:27:30Z</time>
      </trkpt>
      <trkpt lat="45.68096" lon="-0.82379">
        <ele>30.7</ele>
        <time>2021-11-12T09:27:52Z</time>
      </trkpt>
      <trkpt lat="45.68102" lon="-0.82434">
        <ele>28.7</ele>
        <time>2021-11-12T09:28:00Z</time>
      </trkpt>
      <trkpt lat="45.68108" lon="-0.82466">
        <ele>28.6</ele>
        <time>2021-11-12T09:28:04Z</time>
      </trkpt>
      <trkpt lat="45.68131" lon="-0.82565">
        <ele>29.3</ele>
        <time>2021-11-12T09:28:15Z</time>
      </trkpt>
      <trkpt lat="45.68109" lon="-0.82699">
        <ele>29.2</ele>
        <time>2021-11-12T09:28:33Z</time>
      </trkpt>
      <trkpt lat="45.68107" lon="-0.82735">
        <ele>27.6</ele>
        <time>2021-11-12T09:28:36Z</time>
      </trkpt>
      <trkpt lat="45.68093" lon="-0.82887">
        <ele>28.6</ele>
        <time>2021-11-12T09:28:48Z</time>
      </trkpt>
      <trkpt lat="45.68104" lon="-0.82965">
        <ele>30.3</ele>
        <time>2021-11-12T09:28:55Z</time>
      </trkpt>
      <trkpt lat="45.68123" lon="-0.83048">
        <ele>30.9</ele>
        <time>2021-11-12T09:29:02Z</time>
      </trkpt>
      <trkpt lat="45.68135" lon="-0.83209">
        <ele>29.5</ele>
        <time>2021-11-12T09:29:18Z</time>
      </trkpt>
      <trkpt lat="45.68141" lon="-0.83292">
        <ele>25</ele>
        <time>2021-11-12T09:29:26Z</time>
      </trkpt>
      <trkpt lat="45.6815" lon="-0.83368">
        <ele>23.4</ele>
        <time>2021-11-12T09:29:36Z</time>
      </trkpt>
      <trkpt lat="45.68127" lon="-0.83396">
        <ele>25.7</ele>
        <time>2021-11-12T09:29:43Z</time>
      </trkpt>
      <trkpt lat="45.68052" lon="-0.8343">
        <ele>23.2</ele>
        <time>2021-11-12T09:29:53Z</time>
      </trkpt>
      <trkpt lat="45.6801" lon="-0.83457">
        <ele>21.9</ele>
        <time>2021-11-12T09:30:00Z</time>
      </trkpt>
      <trkpt lat="45.67937" lon="-0.83505">
        <ele>18.3</ele>
        <time>2021-11-12T09:30:14Z</time>
      </trkpt>
      <trkpt lat="45.67913" lon="-0.83516">
        <ele>17.3</ele>
        <time>2021-11-12T09:30:18Z</time>
      </trkpt>
      <trkpt lat="45.67866" lon="-0.8353">
        <ele>19.5</ele>
        <time>2021-11-12T09:30:25Z</time>
      </trkpt>
      <trkpt lat="45.67843" lon="-0.83535">
        <ele>20</ele>
        <time>2021-11-12T09:30:29Z</time>
      </trkpt>
      <trkpt lat="45.67787" lon="-0.83538">
        <ele>21.8</ele>
        <time>2021-11-12T09:30:40Z</time>
      </trkpt>
      <trkpt lat="45.67752" lon="-0.83514">
        <ele>20.4</ele>
        <time>2021-11-12T09:30:44Z</time>
      </trkpt>
      <trkpt lat="45.67736" lon="-0.83503">
        <ele>22.4</ele>
        <time>2021-11-12T09:30:47Z</time>
      </trkpt>
      <trkpt lat="45.67722" lon="-0.83579">
        <ele>26.6</ele>
        <time>2021-11-12T09:30:58Z</time>
      </trkpt>
      <trkpt lat="45.67713" lon="-0.83609">
        <ele>26.5</ele>
        <time>2021-11-12T09:31:02Z</time>
      </trkpt>
      <trkpt lat="45.67703" lon="-0.83634">
        <ele>28.6</ele>
        <time>2021-11-12T09:31:05Z</time>
      </trkpt>
      <trkpt lat="45.67676" lon="-0.83687">
        <ele>29.5</ele>
        <time>2021-11-12T09:31:12Z</time>
      </trkpt>
      <trkpt lat="45.67659" lon="-0.83716">
        <ele>28.8</ele>
        <time>2021-11-12T09:31:16Z</time>
      </trkpt>
      <trkpt lat="45.6764" lon="-0.83818">
        <ele>22.4</ele>
        <time>2021-11-12T09:31:30Z</time>
      </trkpt>
      <trkpt lat="45.67638" lon="-0.8386">
        <ele>26.2</ele>
        <time>2021-11-12T09:31:34Z</time>
      </trkpt>
      <trkpt lat="45.67637" lon="-0.83933">
        <ele>24.3</ele>
        <time>2021-11-12T09:31:40Z</time>
      </trkpt>
      <trkpt lat="45.6764" lon="-0.83979">
        <ele>20.2</ele>
        <time>2021-11-12T09:31:44Z</time>
      </trkpt>
      <trkpt lat="45.67639" lon="-0.84009">
        <ele>20</ele>
        <time>2021-11-12T09:31:47Z</time>
      </trkpt>
      <trkpt lat="45.67621" lon="-0.84071">
        <ele>18.1</ele>
        <time>2021-11-12T09:31:54Z</time>
      </trkpt>
      <trkpt lat="45.67589" lon="-0.84194">
        <ele>19.1</ele>
        <time>2021-11-12T09:32:09Z</time>
      </trkpt>
      <trkpt lat="45.67589" lon="-0.84217">
        <ele>18.9</ele>
        <time>2021-11-12T09:32:12Z</time>
      </trkpt>
      <trkpt lat="45.6759" lon="-0.84246">
        <ele>18.5</ele>
        <time>2021-11-12T09:32:16Z</time>
      </trkpt>
      <trkpt lat="45.67576" lon="-0.84292">
        <ele>18.7</ele>
        <time>2021-11-12T09:32:22Z</time>
      </trkpt>
      <trkpt lat="45.67563" lon="-0.84325">
        <ele>20.5</ele>
        <time>2021-11-12T09:32:26Z</time>
      </trkpt>
      <trkpt lat="45.67534" lon="-0.84379">
        <ele>23.8</ele>
        <time>2021-11-12T09:32:34Z</time>
      </trkpt>
      <trkpt lat="45.67516" lon="-0.84407">
        <ele>22.9</ele>
        <time>2021-11-12T09:32:38Z</time>
      </trkpt>
      <trkpt lat="45.67498" lon="-0.8444">
        <ele>21.6</ele>
        <time>2021-11-12T09:32:42Z</time>
      </trkpt>
      <trkpt lat="45.67493" lon="-0.84482">
        <ele>18.2</ele>
        <time>2021-11-12T09:32:53Z</time>
      </trkpt>
      <trkpt lat="45.67545" lon="-0.84516">
        <ele>19.4</ele>
        <time>2021-11-12T09:33:06Z</time>
      </trkpt>
      <trkpt lat="45.67566" lon="-0.84518">
        <ele>19.6</ele>
        <time>2021-11-12T09:33:10Z</time>
      </trkpt>
      <trkpt lat="45.67584" lon="-0.84522">
        <ele>20.6</ele>
        <time>2021-11-12T09:33:13Z</time>
      </trkpt>
      <trkpt lat="45.67604" lon="-0.84527">
        <ele>20.7</ele>
        <time>2021-11-12T09:33:16Z</time>
      </trkpt>
      <trkpt lat="45.67626" lon="-0.84532">
        <ele>20.6</ele>
        <time>2021-11-12T09:33:20Z</time>
      </trkpt>
      <trkpt lat="45.67684" lon="-0.84589">
        <ele>24.2</ele>
        <time>2021-11-12T09:33:32Z</time>
      </trkpt>
      <trkpt lat="45.67706" lon="-0.84599">
        <ele>28.5</ele>
        <time>2021-11-12T09:33:36Z</time>
      </trkpt>
      <trkpt lat="45.67764" lon="-0.8466">
        <ele>30.4</ele>
        <time>2021-11-12T09:33:44Z</time>
      </trkpt>
      <trkpt lat="45.67812" lon="-0.84688">
        <ele>25.4</ele>
        <time>2021-11-12T09:33:50Z</time>
      </trkpt>
      <trkpt lat="45.67899" lon="-0.84726">
        <ele>25.3</ele>
        <time>2021-11-12T09:33:58Z</time>
      </trkpt>
      <trkpt lat="45.6794" lon="-0.84762">
        <ele>23.2</ele>
        <time>2021-11-12T09:34:02Z</time>
      </trkpt>
      <trkpt lat="45.67986" lon="-0.84893">
        <ele>27.3</ele>
        <time>2021-11-12T09:34:10Z</time>
      </trkpt>
      <trkpt lat="45.68047" lon="-0.84952">
        <ele>31.1</ele>
        <time>2021-11-12T09:34:17Z</time>
      </trkpt>
      <trkpt lat="45.6808" lon="-0.84984">
        <ele>32</ele>
        <time>2021-11-12T09:34:24Z</time>
      </trkpt>
      <trkpt lat="45.68117" lon="-0.84998">
        <ele>28.8</ele>
        <time>2021-11-12T09:34:28Z</time>
      </trkpt>
      <trkpt lat="45.68281" lon="-0.84882">
        <ele>28.2</ele>
        <time>2021-11-12T09:34:41Z</time>
      </trkpt>
      <trkpt lat="45.68387" lon="-0.84863">
        <ele>25.4</ele>
        <time>2021-11-12T09:34:48Z</time>
      </trkpt>
      <trkpt lat="45.68537" lon="-0.84848">
        <ele>23</ele>
        <time>2021-11-12T09:35:06Z</time>
      </trkpt>
      <trkpt lat="45.68538" lon="-0.84848">
        <ele>23.3</ele>
        <time>2021-11-12T09:35:13Z</time>
      </trkpt>
      <trkpt lat="45.68563" lon="-0.84853">
        <ele>23.5</ele>
        <time>2021-11-12T09:35:16Z</time>
      </trkpt>
      <trkpt lat="45.68648" lon="-0.84871">
        <ele>28.2</ele>
        <time>2021-11-12T09:35:24Z</time>
      </trkpt>
      <trkpt lat="45.68704" lon="-0.84883">
        <ele>27.8</ele>
        <time>2021-11-12T09:35:28Z</time>
      </trkpt>
      <trkpt lat="45.68766" lon="-0.84892">
        <ele>23</ele>
        <time>2021-11-12T09:35:32Z</time>
      </trkpt>
      <trkpt lat="45.6887" lon="-0.84824">
        <ele>20.8</ele>
        <time>2021-11-12T09:35:40Z</time>
      </trkpt>
      <trkpt lat="45.68991" lon="-0.84741">
        <ele>24.5</ele>
        <time>2021-11-12T09:35:50Z</time>
      </trkpt>
      <trkpt lat="45.69099" lon="-0.84657">
        <ele>23.6</ele>
        <time>2021-11-12T09:36:05Z</time>
      </trkpt>
      <trkpt lat="45.69164" lon="-0.84839">
        <ele>23.2</ele>
        <time>2021-11-12T09:36:19Z</time>
      </trkpt>
      <trkpt lat="45.69184" lon="-0.84873">
        <ele>23.7</ele>
        <time>2021-11-12T09:36:22Z</time>
      </trkpt>
      <trkpt lat="45.69261" lon="-0.84888">
        <ele>21.2</ele>
        <time>2021-11-12T09:36:32Z</time>
      </trkpt>
      <trkpt lat="45.69295" lon="-0.84865">
        <ele>18.7</ele>
        <time>2021-11-12T09:36:40Z</time>
      </trkpt>
      <trkpt lat="45.69328" lon="-0.84839">
        <ele>17.6</ele>
        <time>2021-11-12T09:36:44Z</time>
      </trkpt>
      <trkpt lat="45.69357" lon="-0.84797">
        <ele>17.3</ele>
        <time>2021-11-12T09:36:48Z</time>
      </trkpt>
      <trkpt lat="45.69412" lon="-0.84811">
        <ele>18.7</ele>
        <time>2021-11-12T09:36:56Z</time>
      </trkpt>
      <trkpt lat="45.69445" lon="-0.84843">
        <ele>19.2</ele>
        <time>2021-11-12T09:37:00Z</time>
      </trkpt>
      <trkpt lat="45.69604" lon="-0.85028">
        <ele>22</ele>
        <time>2021-11-12T09:37:16Z</time>
      </trkpt>
      <trkpt lat="45.69665" lon="-0.85072">
        <ele>18.9</ele>
        <time>2021-11-12T09:37:23Z</time>
      </trkpt>
      <trkpt lat="45.69717" lon="-0.85098">
        <ele>17.9</ele>
        <time>2021-11-12T09:37:30Z</time>
      </trkpt>
      <trkpt lat="45.69744" lon="-0.85114">
        <ele>17.9</ele>
        <time>2021-11-12T09:37:34Z</time>
      </trkpt>
      <trkpt lat="45.69792" lon="-0.8511">
        <ele>16.8</ele>
        <time>2021-11-12T09:37:41Z</time>
      </trkpt>
      <trkpt lat="45.69845" lon="-0.85221">
        <ele>17.2</ele>
        <time>2021-11-12T09:37:56Z</time>
      </trkpt>
      <trkpt lat="45.69905" lon="-0.85283">
        <ele>16.8</ele>
        <time>2021-11-12T09:38:07Z</time>
      </trkpt>
      <trkpt lat="45.69929" lon="-0.85302">
        <ele>18.9</ele>
        <time>2021-11-12T09:38:11Z</time>
      </trkpt>
      <trkpt lat="45.6995" lon="-0.8531">
        <ele>18.7</ele>
        <time>2021-11-12T09:38:14Z</time>
      </trkpt>
      <trkpt lat="45.70009" lon="-0.85319">
        <ele>19.1</ele>
        <time>2021-11-12T09:38:22Z</time>
      </trkpt>
      <trkpt lat="45.70058" lon="-0.85319">
        <ele>20.7</ele>
        <time>2021-11-12T09:38:28Z</time>
      </trkpt>
      <trkpt lat="45.70081" lon="-0.85331">
        <ele>20.6</ele>
        <time>2021-11-12T09:38:32Z</time>
      </trkpt>
      <trkpt lat="45.70074" lon="-0.85368">
        <ele>21.5</ele>
        <time>2021-11-12T09:38:40Z</time>
      </trkpt>
      <trkpt lat="45.7003" lon="-0.85437">
        <ele>21.9</ele>
        <time>2021-11-12T09:38:46Z</time>
      </trkpt>
      <trkpt lat="45.70005" lon="-0.85552">
        <ele>23.5</ele>
        <time>2021-11-12T09:38:53Z</time>
      </trkpt>
      <trkpt lat="45.70006" lon="-0.85625">
        <ele>24.8</ele>
        <time>2021-11-12T09:38:57Z</time>
      </trkpt>
      <trkpt lat="45.69994" lon="-0.85667">
        <ele>26.8</ele>
        <time>2021-11-12T09:39:00Z</time>
      </trkpt>
      <trkpt lat="45.69986" lon="-0.85694">
        <ele>26.5</ele>
        <time>2021-11-12T09:39:04Z</time>
      </trkpt>
      <trkpt lat="45.70075" lon="-0.85798">
        <ele>27.6</ele>
        <time>2021-11-12T09:39:15Z</time>
      </trkpt>
      <trkpt lat="45.70273" lon="-0.85945">
        <ele>29.1</ele>
        <time>2021-11-12T09:39:34Z</time>
      </trkpt>
      <trkpt lat="45.70314" lon="-0.85971">
        <ele>29.1</ele>
        <time>2021-11-12T09:39:38Z</time>
      </trkpt>
      <trkpt lat="45.70342" lon="-0.85988">
        <ele>28</ele>
        <time>2021-11-12T09:39:41Z</time>
      </trkpt>
      <trkpt lat="45.70399" lon="-0.86038">
        <ele>27.3</ele>
        <time>2021-11-12T09:39:48Z</time>
      </trkpt>
      <trkpt lat="45.70561" lon="-0.86166">
        <ele>25.5</ele>
        <time>2021-11-12T09:40:09Z</time>
      </trkpt>
      <trkpt lat="45.70628" lon="-0.86259">
        <ele>22</ele>
        <time>2021-11-12T09:40:20Z</time>
      </trkpt>
      <trkpt lat="45.70665" lon="-0.86328">
        <ele>18.7</ele>
        <time>2021-11-12T09:40:27Z</time>
      </trkpt>
      <trkpt lat="45.70696" lon="-0.86396">
        <ele>14.6</ele>
        <time>2021-11-12T09:40:34Z</time>
      </trkpt>
      <trkpt lat="45.70731" lon="-0.86459">
        <ele>11.2</ele>
        <time>2021-11-12T09:40:40Z</time>
      </trkpt>
      <trkpt lat="45.70776" lon="-0.8651">
        <ele>15.4</ele>
        <time>2021-11-12T09:40:47Z</time>
      </trkpt>
      <trkpt lat="45.70805" lon="-0.86544">
        <ele>18.7</ele>
        <time>2021-11-12T09:40:51Z</time>
      </trkpt>
      <trkpt lat="45.7085" lon="-0.86621">
        <ele>26</ele>
        <time>2021-11-12T09:40:58Z</time>
      </trkpt>
      <trkpt lat="45.70879" lon="-0.86648">
        <ele>29.1</ele>
        <time>2021-11-12T09:41:02Z</time>
      </trkpt>
      <trkpt lat="45.70906" lon="-0.86655">
        <ele>28.6</ele>
        <time>2021-11-12T09:41:05Z</time>
      </trkpt>
      <trkpt lat="45.71027" lon="-0.8673">
        <ele>24.5</ele>
        <time>2021-11-12T09:41:18Z</time>
      </trkpt>
      <trkpt lat="45.71065" lon="-0.86786">
        <ele>19.4</ele>
        <time>2021-11-12T09:41:24Z</time>
      </trkpt>
      <trkpt lat="45.71125" lon="-0.86848">
        <ele>14.6</ele>
        <time>2021-11-12T09:41:32Z</time>
      </trkpt>
      <trkpt lat="45.71169" lon="-0.86932">
        <ele>11.9</ele>
        <time>2021-11-12T09:41:40Z</time>
      </trkpt>
      <trkpt lat="45.71194" lon="-0.86968">
        <ele>12.7</ele>
        <time>2021-11-12T09:41:47Z</time>
      </trkpt>
      <trkpt lat="45.71196" lon="-0.86903">
        <ele>14.5</ele>
        <time>2021-11-12T09:41:54Z</time>
      </trkpt>
      <trkpt lat="45.71185" lon="-0.86736">
        <ele>14.2</ele>
        <time>2021-11-12T09:42:06Z</time>
      </trkpt>
      <trkpt lat="45.71151" lon="-0.8654">
        <ele>17.8</ele>
        <time>2021-11-12T09:42:26Z</time>
      </trkpt>
      <trkpt lat="45.71131" lon="-0.86507">
        <ele>18.6</ele>
        <time>2021-11-12T09:42:29Z</time>
      </trkpt>
      <trkpt lat="45.71113" lon="-0.86323">
        <ele>14.3</ele>
        <time>2021-11-12T09:42:44Z</time>
      </trkpt>
      <trkpt lat="45.71121" lon="-0.86294">
        <ele>14.7</ele>
        <time>2021-11-12T09:42:48Z</time>
      </trkpt>
      <trkpt lat="45.71154" lon="-0.86286">
        <ele>17.7</ele>
        <time>2021-11-12T09:42:56Z</time>
      </trkpt>
      <trkpt lat="45.71215" lon="-0.86295">
        <ele>19.1</ele>
        <time>2021-11-12T09:43:06Z</time>
      </trkpt>
      <trkpt lat="45.71244" lon="-0.86317">
        <ele>21.3</ele>
        <time>2021-11-12T09:43:10Z</time>
      </trkpt>
      <trkpt lat="45.71268" lon="-0.86335">
        <ele>20.9</ele>
        <time>2021-11-12T09:43:13Z</time>
      </trkpt>
      <trkpt lat="45.71304" lon="-0.86362">
        <ele>24.7</ele>
        <time>2021-11-12T09:43:19Z</time>
      </trkpt>
      <trkpt lat="45.71332" lon="-0.8638">
        <ele>27.1</ele>
        <time>2021-11-12T09:43:23Z</time>
      </trkpt>
      <trkpt lat="45.71372" lon="-0.86412">
        <ele>30.2</ele>
        <time>2021-11-12T09:43:30Z</time>
      </trkpt>
      <trkpt lat="45.71399" lon="-0.86422">
        <ele>32.4</ele>
        <time>2021-11-12T09:43:34Z</time>
      </trkpt>
      <trkpt lat="45.71455" lon="-0.86442">
        <ele>33.8</ele>
        <time>2021-11-12T09:43:41Z</time>
      </trkpt>
      <trkpt lat="45.71575" lon="-0.86478">
        <ele>30.6</ele>
        <time>2021-11-12T09:43:58Z</time>
      </trkpt>
      <trkpt lat="45.71705" lon="-0.86637">
        <ele>25</ele>
        <time>2021-11-12T09:44:09Z</time>
      </trkpt>
      <trkpt lat="45.71762" lon="-0.8675">
        <ele>23.9</ele>
        <time>2021-11-12T09:44:16Z</time>
      </trkpt>
      <trkpt lat="45.7178" lon="-0.86835">
        <ele>76.3</ele>
        <time>2021-11-12T09:44:30Z</time>
      </trkpt>
      <trkpt lat="45.71787" lon="-0.86866">
        <ele>76.3</ele>
        <time>2021-11-12T09:44:34Z</time>
      </trkpt>
      <trkpt lat="45.71794" lon="-0.86894">
        <ele>76.3</ele>
        <time>2021-11-12T09:44:37Z</time>
      </trkpt>
      <trkpt lat="45.71804" lon="-0.86957">
        <ele>76.3</ele>
        <time>2021-11-12T09:44:43Z</time>
      </trkpt>
      <trkpt lat="45.7179" lon="-0.87057">
        <ele>76.3</ele>
        <time>2021-11-12T09:44:51Z</time>
      </trkpt>
      <trkpt lat="45.7177" lon="-0.87144">
        <ele>76.4</ele>
        <time>2021-11-12T09:44:58Z</time>
      </trkpt>
      <trkpt lat="45.7177" lon="-0.87313">
        <ele>76.4</ele>
        <time>2021-11-12T09:45:13Z</time>
      </trkpt>
      <trkpt lat="45.71791" lon="-0.87499">
        <ele>25.6</ele>
        <time>2021-11-12T09:45:32Z</time>
      </trkpt>
      <trkpt lat="45.718" lon="-0.87526">
        <ele>26.3</ele>
        <time>2021-11-12T09:45:35Z</time>
      </trkpt>
      <trkpt lat="45.71932" lon="-0.87711">
        <ele>24.7</ele>
        <time>2021-11-12T09:46:00Z</time>
      </trkpt>
      <trkpt lat="45.71941" lon="-0.87745">
        <ele>21.4</ele>
        <time>2021-11-12T09:46:04Z</time>
      </trkpt>
      <trkpt lat="45.71948" lon="-0.87773">
        <ele>17.7</ele>
        <time>2021-11-12T09:46:07Z</time>
      </trkpt>
      <trkpt lat="45.71951" lon="-0.87809">
        <ele>14.1</ele>
        <time>2021-11-12T09:46:11Z</time>
      </trkpt>
      <trkpt lat="45.71966" lon="-0.87948">
        <ele>19.3</ele>
        <time>2021-11-12T09:46:24Z</time>
      </trkpt>
      <trkpt lat="45.71972" lon="-0.88034">
        <ele>22.8</ele>
        <time>2021-11-12T09:46:31Z</time>
      </trkpt>
      <trkpt lat="45.71976" lon="-0.88106">
        <ele>26</ele>
        <time>2021-11-12T09:46:39Z</time>
      </trkpt>
      <trkpt lat="45.71973" lon="-0.88116">
        <ele>25.9</ele>
        <time>2021-11-12T09:46:42Z</time>
      </trkpt>
      <trkpt lat="45.71913" lon="-0.88113">
        <ele>24.1</ele>
        <time>2021-11-12T09:46:49Z</time>
      </trkpt>
      <trkpt lat="45.71876" lon="-0.8811">
        <ele>20.7</ele>
        <time>2021-11-12T09:46:52Z</time>
      </trkpt>
      <trkpt lat="45.71824" lon="-0.88105">
        <ele>19.7</ele>
        <time>2021-11-12T09:46:56Z</time>
      </trkpt>
      <trkpt lat="45.71769" lon="-0.88078">
        <ele>18.3</ele>
        <time>2021-11-12T09:47:00Z</time>
      </trkpt>
      <trkpt lat="45.71683" lon="-0.88034">
        <ele>19.2</ele>
        <time>2021-11-12T09:47:08Z</time>
      </trkpt>
      <trkpt lat="45.71674" lon="-0.88032">
        <ele>20.4</ele>
        <time>2021-11-12T09:47:11Z</time>
      </trkpt>
      <trkpt lat="45.71669" lon="-0.88042">
        <ele>21.5</ele>
        <time>2021-11-12T09:47:14Z</time>
      </trkpt>
      <trkpt lat="45.71612" lon="-0.88161">
        <ele>22.6</ele>
        <time>2021-11-12T09:47:42Z</time>
      </trkpt>
      <trkpt lat="45.71641" lon="-0.88385">
        <ele>25.4</ele>
        <time>2021-11-12T09:47:58Z</time>
      </trkpt>
      <trkpt lat="45.71643" lon="-0.88402">
        <ele>25.5</ele>
        <time>2021-11-12T09:47:59Z</time>
      </trkpt>
      <trkpt lat="45.71634" lon="-0.8842">
        <ele>25.9</ele>
        <time>2021-11-12T09:48:01Z</time>
      </trkpt>
      <trkpt lat="45.71565" lon="-0.88527">
        <ele>26.3</ele>
        <time>2021-11-12T09:48:10Z</time>
      </trkpt>
      <trkpt lat="45.71556" lon="-0.88694">
        <ele>26.6</ele>
        <time>2021-11-12T09:48:19Z</time>
      </trkpt>
      <trkpt lat="45.71553" lon="-0.88846">
        <ele>28.1</ele>
        <time>2021-11-12T09:48:26Z</time>
      </trkpt>
      <trkpt lat="45.71555" lon="-0.88897">
        <ele>26.5</ele>
        <time>2021-11-12T09:48:33Z</time>
      </trkpt>
      <trkpt lat="45.71555" lon="-0.89204">
        <ele>23.4</ele>
        <time>2021-11-12T09:48:45Z</time>
      </trkpt>
      <trkpt lat="45.71556" lon="-0.8927">
        <ele>22.5</ele>
        <time>2021-11-12T09:48:49Z</time>
      </trkpt>
      <trkpt lat="45.71661" lon="-0.8942">
        <ele>20.2</ele>
        <time>2021-11-12T09:49:03Z</time>
      </trkpt>
      <trkpt lat="45.71702" lon="-0.89573">
        <ele>21.5</ele>
        <time>2021-11-12T09:49:10Z</time>
      </trkpt>
      <trkpt lat="45.71721" lon="-0.89679">
        <ele>24.5</ele>
        <time>2021-11-12T09:49:14Z</time>
      </trkpt>
      <trkpt lat="45.71743" lon="-0.89785">
        <ele>23.8</ele>
        <time>2021-11-12T09:49:18Z</time>
      </trkpt>
      <trkpt lat="45.7184" lon="-0.9018">
        <ele>22.1</ele>
        <time>2021-11-12T09:49:33Z</time>
      </trkpt>
      <trkpt lat="45.719" lon="-0.90458">
        <ele>20.8</ele>
        <time>2021-11-12T09:49:48Z</time>
      </trkpt>
      <trkpt lat="45.71899" lon="-0.90483">
        <ele>20.9</ele>
        <time>2021-11-12T09:49:51Z</time>
      </trkpt>
      <trkpt lat="45.71852" lon="-0.905">
        <ele>19.1</ele>
        <time>2021-11-12T09:50:05Z</time>
      </trkpt>
      <trkpt lat="45.71853" lon="-0.90501">
        <ele>19.3</ele>
        <time>2021-11-12T09:50:09Z</time>
      </trkpt>
      <trkpt lat="45.71784" lon="-0.90537">
        <ele>20.3</ele>
        <time>2021-11-12T10:21:51Z</time>
      </trkpt>
      <trkpt lat="45.71651" lon="-0.90625">
        <ele>20.2</ele>
        <time>2021-11-12T10:22:05Z</time>
      </trkpt>
      <trkpt lat="45.71583" lon="-0.90703">
        <ele>16.6</ele>
        <time>2021-11-12T10:22:13Z</time>
      </trkpt>
      <trkpt lat="45.71492" lon="-0.90749">
        <ele>12.8</ele>
        <time>2021-11-12T10:22:20Z</time>
      </trkpt>
      <trkpt lat="45.71414" lon="-0.90784">
        <ele>8.1</ele>
        <time>2021-11-12T10:22:27Z</time>
      </trkpt>
      <trkpt lat="45.71333" lon="-0.90816">
        <ele>3.6</ele>
        <time>2021-11-12T10:22:34Z</time>
      </trkpt>
      <trkpt lat="45.71301" lon="-0.90828">
        <ele>2</ele>
        <time>2021-11-12T10:22:37Z</time>
      </trkpt>
      <trkpt lat="45.71268" lon="-0.90851">
        <ele>5.5</ele>
        <time>2021-11-12T10:22:40Z</time>
      </trkpt>
      <trkpt lat="45.71229" lon="-0.90883">
        <ele>6.9</ele>
        <time>2021-11-12T10:22:44Z</time>
      </trkpt>
      <trkpt lat="45.71168" lon="-0.90929">
        <ele>7.6</ele>
        <time>2021-11-12T10:22:50Z</time>
      </trkpt>
      <trkpt lat="45.71136" lon="-0.90943">
        <ele>8.9</ele>
        <time>2021-11-12T10:22:53Z</time>
      </trkpt>
      <trkpt lat="45.71047" lon="-0.90983">
        <ele>11.9</ele>
        <time>2021-11-12T10:23:05Z</time>
      </trkpt>
      <trkpt lat="45.70977" lon="-0.91033">
        <ele>13.4</ele>
        <time>2021-11-12T10:23:13Z</time>
      </trkpt>
      <trkpt lat="45.70898" lon="-0.91098">
        <ele>12.3</ele>
        <time>2021-11-12T10:23:30Z</time>
      </trkpt>
      <trkpt lat="45.70898" lon="-0.91099">
        <ele>14.1</ele>
        <time>2021-11-12T10:23:33Z</time>
      </trkpt>
      <trkpt lat="45.7094" lon="-0.91183">
        <ele>12</ele>
        <time>2021-11-12T10:23:41Z</time>
      </trkpt>
      <trkpt lat="45.71134" lon="-0.9152">
        <ele>10.4</ele>
        <time>2021-11-12T10:23:55Z</time>
      </trkpt>
      <trkpt lat="45.71556" lon="-0.92266">
        <ele>7.5</ele>
        <time>2021-11-12T10:24:26Z</time>
      </trkpt>
      <trkpt lat="45.71828" lon="-0.92683">
        <ele>8.8</ele>
        <time>2021-11-12T10:24:47Z</time>
      </trkpt>
      <trkpt lat="45.71858" lon="-0.92726">
        <ele>8</ele>
        <time>2021-11-12T10:24:50Z</time>
      </trkpt>
      <trkpt lat="45.71896" lon="-0.92783">
        <ele>7.3</ele>
        <time>2021-11-12T10:24:54Z</time>
      </trkpt>
      <trkpt lat="45.71945" lon="-0.92881">
        <ele>6.3</ele>
        <time>2021-11-12T10:25:01Z</time>
      </trkpt>
      <trkpt lat="45.7196" lon="-0.92912">
        <ele>6</ele>
        <time>2021-11-12T10:25:04Z</time>
      </trkpt>
      <trkpt lat="45.71978" lon="-0.92949">
        <ele>4.1</ele>
        <time>2021-11-12T10:25:11Z</time>
      </trkpt>
      <trkpt lat="45.72" lon="-0.92929">
        <ele>6.4</ele>
        <time>2021-11-12T10:25:18Z</time>
      </trkpt>
      <trkpt lat="45.72019" lon="-0.92908">
        <ele>6.4</ele>
        <time>2021-11-12T10:25:21Z</time>
      </trkpt>
      <trkpt lat="45.72212" lon="-0.92676">
        <ele>6.7</ele>
        <time>2021-11-12T10:25:49Z</time>
      </trkpt>
      <trkpt lat="45.72283" lon="-0.92615">
        <ele>6.7</ele>
        <time>2021-11-12T10:26:00Z</time>
      </trkpt>
      <trkpt lat="45.72449" lon="-0.92468">
        <ele>7.8</ele>
        <time>2021-11-12T10:26:19Z</time>
      </trkpt>
      <trkpt lat="45.72486" lon="-0.9243">
        <ele>11.7</ele>
        <time>2021-11-12T10:26:26Z</time>
      </trkpt>
      <trkpt lat="45.72589" lon="-0.92315">
        <ele>14.1</ele>
        <time>2021-11-12T10:26:40Z</time>
      </trkpt>
      <trkpt lat="45.72665" lon="-0.92421">
        <ele>13.6</ele>
        <time>2021-11-12T10:26:54Z</time>
      </trkpt>
      <trkpt lat="45.72733" lon="-0.92573">
        <ele>9.5</ele>
        <time>2021-11-12T10:27:04Z</time>
      </trkpt>
      <trkpt lat="45.72759" lon="-0.92632">
        <ele>10.2</ele>
        <time>2021-11-12T10:27:08Z</time>
      </trkpt>
      <trkpt lat="45.72837" lon="-0.92809">
        <ele>6.2</ele>
        <time>2021-11-12T10:27:19Z</time>
      </trkpt>
      <trkpt lat="45.72854" lon="-0.92841">
        <ele>7.3</ele>
        <time>2021-11-12T10:27:23Z</time>
      </trkpt>
      <trkpt lat="45.7295" lon="-0.92775">
        <ele>6.3</ele>
        <time>2021-11-12T10:27:36Z</time>
      </trkpt>
      <trkpt lat="45.72969" lon="-0.92747">
        <ele>4.5</ele>
        <time>2021-11-12T10:27:39Z</time>
      </trkpt>
      <trkpt lat="45.72985" lon="-0.9273">
        <ele>4.5</ele>
        <time>2021-11-12T10:27:43Z</time>
      </trkpt>
      <trkpt lat="45.73005" lon="-0.9271">
        <ele>6.8</ele>
        <time>2021-11-12T10:27:49Z</time>
      </trkpt>
      <trkpt lat="45.73024" lon="-0.92721">
        <ele>6.9</ele>
        <time>2021-11-12T10:27:53Z</time>
      </trkpt>
      <trkpt lat="45.73125" lon="-0.92933">
        <ele>7.1</ele>
        <time>2021-11-12T10:28:07Z</time>
      </trkpt>
      <trkpt lat="45.73153" lon="-0.93017">
        <ele>8.7</ele>
        <time>2021-11-12T10:28:11Z</time>
      </trkpt>
      <trkpt lat="45.73183" lon="-0.93109">
        <ele>11.8</ele>
        <time>2021-11-12T10:28:15Z</time>
      </trkpt>
      <trkpt lat="45.7321" lon="-0.93207">
        <ele>11.4</ele>
        <time>2021-11-12T10:28:19Z</time>
      </trkpt>
      <trkpt lat="45.73234" lon="-0.93292">
        <ele>12.3</ele>
        <time>2021-11-12T10:28:23Z</time>
      </trkpt>
      <trkpt lat="45.73308" lon="-0.93511">
        <ele>12.7</ele>
        <time>2021-11-12T10:28:34Z</time>
      </trkpt>
      <trkpt lat="45.73315" lon="-0.93538">
        <ele>12.7</ele>
        <time>2021-11-12T10:28:37Z</time>
      </trkpt>
      <trkpt lat="45.73355" lon="-0.93509">
        <ele>14</ele>
        <time>2021-11-12T10:28:44Z</time>
      </trkpt>
      <trkpt lat="45.73441" lon="-0.93258">
        <ele>12.4</ele>
        <time>2021-11-12T10:28:55Z</time>
      </trkpt>
      <trkpt lat="45.73472" lon="-0.93093">
        <ele>11.6</ele>
        <time>2021-11-12T10:29:02Z</time>
      </trkpt>
      <trkpt lat="45.7352" lon="-0.93029">
        <ele>10.5</ele>
        <time>2021-11-12T10:29:15Z</time>
      </trkpt>
      <trkpt lat="45.73547" lon="-0.93053">
        <ele>12.1</ele>
        <time>2021-11-12T10:29:19Z</time>
      </trkpt>
      <trkpt lat="45.7358" lon="-0.93081">
        <ele>14</ele>
        <time>2021-11-12T10:29:23Z</time>
      </trkpt>
      <trkpt lat="45.73609" lon="-0.93099">
        <ele>14.3</ele>
        <time>2021-11-12T10:29:26Z</time>
      </trkpt>
      <trkpt lat="45.73717" lon="-0.93153">
        <ele>15.9</ele>
        <time>2021-11-12T10:29:37Z</time>
      </trkpt>
      <trkpt lat="45.73744" lon="-0.93166">
        <ele>15.7</ele>
        <time>2021-11-12T10:29:40Z</time>
      </trkpt>
      <trkpt lat="45.73888" lon="-0.93301">
        <ele>13.8</ele>
        <time>2021-11-12T10:30:01Z</time>
      </trkpt>
      <trkpt lat="45.73951" lon="-0.93363">
        <ele>62</ele>
        <time>2021-11-12T10:30:22Z</time>
      </trkpt>
      <trkpt lat="45.7396" lon="-0.93363">
        <ele>62.1</ele>
        <time>2021-11-12T10:30:26Z</time>
      </trkpt>
      <trkpt lat="45.73981" lon="-0.93353">
        <ele>62.2</ele>
        <time>2021-11-12T10:30:32Z</time>
      </trkpt>
      <trkpt lat="45.74102" lon="-0.93296">
        <ele>62.2</ele>
        <time>2021-11-12T10:30:53Z</time>
      </trkpt>
      <trkpt lat="45.74147" lon="-0.93262">
        <ele>62.2</ele>
        <time>2021-11-12T10:31:01Z</time>
      </trkpt>
      <trkpt lat="45.7417" lon="-0.93241">
        <ele>62.2</ele>
        <time>2021-11-12T10:31:05Z</time>
      </trkpt>
      <trkpt lat="45.74269" lon="-0.93261">
        <ele>9.3</ele>
        <time>2021-11-12T10:31:22Z</time>
      </trkpt>
      <trkpt lat="45.74321" lon="-0.93275">
        <ele>10.9</ele>
        <time>2021-11-12T10:31:30Z</time>
      </trkpt>
      <trkpt lat="45.7434" lon="-0.93281">
        <ele>10.2</ele>
        <time>2021-11-12T10:31:33Z</time>
      </trkpt>
      <trkpt lat="45.74468" lon="-0.93343">
        <ele>12.2</ele>
        <time>2021-11-12T10:31:57Z</time>
      </trkpt>
      <trkpt lat="45.74473" lon="-0.93345">
        <ele>12.3</ele>
        <time>2021-11-12T10:32:01Z</time>
      </trkpt>
      <trkpt lat="45.74495" lon="-0.93368">
        <ele>12.3</ele>
        <time>2021-11-12T10:32:07Z</time>
      </trkpt>
      <trkpt lat="45.74734" lon="-0.93599">
        <ele>12.2</ele>
        <time>2021-11-12T10:32:33Z</time>
      </trkpt>
      <trkpt lat="45.7477" lon="-0.93633">
        <ele>12.2</ele>
        <time>2021-11-12T10:32:37Z</time>
      </trkpt>
      <trkpt lat="45.74758" lon="-0.93729">
        <ele>12.3</ele>
        <time>2021-11-12T10:32:49Z</time>
      </trkpt>
      <trkpt lat="45.74724" lon="-0.93822">
        <ele>13.7</ele>
        <time>2021-11-12T10:33:00Z</time>
      </trkpt>
      <trkpt lat="45.74717" lon="-0.93862">
        <ele>11.5</ele>
        <time>2021-11-12T10:33:03Z</time>
      </trkpt>
      <trkpt lat="45.74708" lon="-0.93916">
        <ele>11.5</ele>
        <time>2021-11-12T10:33:07Z</time>
      </trkpt>
      <trkpt lat="45.747" lon="-0.93979">
        <ele>11.7</ele>
        <time>2021-11-12T10:33:13Z</time>
      </trkpt>
      <trkpt lat="45.74657" lon="-0.94145">
        <ele>13.1</ele>
        <time>2021-11-12T10:33:27Z</time>
      </trkpt>
      <trkpt lat="45.74629" lon="-0.94245">
        <ele>13.7</ele>
        <time>2021-11-12T10:33:38Z</time>
      </trkpt>
      <trkpt lat="45.74608" lon="-0.94354">
        <ele>16.4</ele>
        <time>2021-11-12T10:33:45Z</time>
      </trkpt>
      <trkpt lat="45.74583" lon="-0.94443">
        <ele>14.2</ele>
        <time>2021-11-12T10:33:53Z</time>
      </trkpt>
      <trkpt lat="45.7453" lon="-0.94572">
        <ele>12.8</ele>
        <time>2021-11-12T10:34:03Z</time>
      </trkpt>
      <trkpt lat="45.74466" lon="-0.94661">
        <ele>14.5</ele>
        <time>2021-11-12T10:34:10Z</time>
      </trkpt>
      <trkpt lat="45.7439" lon="-0.94766">
        <ele>15.6</ele>
        <time>2021-11-12T10:34:18Z</time>
      </trkpt>
      <trkpt lat="45.74376" lon="-0.94802">
        <ele>15.5</ele>
        <time>2021-11-12T10:34:21Z</time>
      </trkpt>
      <trkpt lat="45.74356" lon="-0.94845">
        <ele>14.8</ele>
        <time>2021-11-12T10:34:25Z</time>
      </trkpt>
      <trkpt lat="45.7431" lon="-0.94892">
        <ele>14.1</ele>
        <time>2021-11-12T10:34:30Z</time>
      </trkpt>
      <trkpt lat="45.74281" lon="-0.94901">
        <ele>13.5</ele>
        <time>2021-11-12T10:34:33Z</time>
      </trkpt>
      <trkpt lat="45.73925" lon="-0.95031">
        <ele>11.7</ele>
        <time>2021-11-12T10:35:04Z</time>
      </trkpt>
      <trkpt lat="45.73949" lon="-0.95064">
        <ele>14.8</ele>
        <time>2021-11-12T10:35:07Z</time>
      </trkpt>
      <trkpt lat="45.73978" lon="-0.95129">
        <ele>13.5</ele>
        <time>2021-11-12T10:35:11Z</time>
      </trkpt>
      <trkpt lat="45.74086" lon="-0.95365">
        <ele>9.8</ele>
        <time>2021-11-12T10:35:22Z</time>
      </trkpt>
      <trkpt lat="45.74116" lon="-0.95432">
        <ele>9.7</ele>
        <time>2021-11-12T10:35:25Z</time>
      </trkpt>
      <trkpt lat="45.74163" lon="-0.95528">
        <ele>9.9</ele>
        <time>2021-11-12T10:35:29Z</time>
      </trkpt>
      <trkpt lat="45.74243" lon="-0.95653">
        <ele>10.2</ele>
        <time>2021-11-12T10:35:35Z</time>
      </trkpt>
      <trkpt lat="45.7439" lon="-0.95871">
        <ele>10.8</ele>
        <time>2021-11-12T10:35:45Z</time>
      </trkpt>
      <trkpt lat="45.74528" lon="-0.96028">
        <ele>11.2</ele>
        <time>2021-11-12T10:35:57Z</time>
      </trkpt>
      <trkpt lat="45.74554" lon="-0.96063">
        <ele>10.6</ele>
        <time>2021-11-12T10:36:00Z</time>
      </trkpt>
      <trkpt lat="45.74615" lon="-0.96128">
        <ele>10.3</ele>
        <time>2021-11-12T10:36:04Z</time>
      </trkpt>
      <trkpt lat="45.7467" lon="-0.9617">
        <ele>10.5</ele>
        <time>2021-11-12T10:36:07Z</time>
      </trkpt>
      <trkpt lat="45.7474" lon="-0.96222">
        <ele>8.8</ele>
        <time>2021-11-12T10:36:14Z</time>
      </trkpt>
      <trkpt lat="45.7476" lon="-0.96247">
        <ele>8.7</ele>
        <time>2021-11-12T10:36:18Z</time>
      </trkpt>
      <trkpt lat="45.74682" lon="-0.96391">
        <ele>9.5</ele>
        <time>2021-11-12T10:36:29Z</time>
      </trkpt>
      <trkpt lat="45.74578" lon="-0.96513">
        <ele>9.3</ele>
        <time>2021-11-12T10:36:36Z</time>
      </trkpt>
      <trkpt lat="45.7449" lon="-0.96622">
        <ele>7.8</ele>
        <time>2021-11-12T10:36:43Z</time>
      </trkpt>
      <trkpt lat="45.74312" lon="-0.96666">
        <ele>5.3</ele>
        <time>2021-11-12T10:36:57Z</time>
      </trkpt>
      <trkpt lat="45.74204" lon="-0.9678">
        <ele>3.6</ele>
        <time>2021-11-12T10:37:07Z</time>
      </trkpt>
      <trkpt lat="45.74212" lon="-0.96794">
        <ele>3.9</ele>
        <time>2021-11-12T10:37:11Z</time>
      </trkpt>
      <trkpt lat="45.7424" lon="-0.96838">
        <ele>4</ele>
        <time>2021-11-12T10:37:17Z</time>
      </trkpt>
      <trkpt lat="45.74283" lon="-0.96918">
        <ele>7.1</ele>
        <time>2021-11-12T10:37:27Z</time>
      </trkpt>
      <trkpt lat="45.74366" lon="-0.97077">
        <ele>5.7</ele>
        <time>2021-11-12T10:37:43Z</time>
      </trkpt>
      <trkpt lat="45.74412" lon="-0.97171">
        <ele>3.7</ele>
        <time>2021-11-12T10:37:53Z</time>
      </trkpt>
      <trkpt lat="45.74432" lon="-0.97203">
        <ele>4.2</ele>
        <time>2021-11-12T10:37:57Z</time>
      </trkpt>
      <trkpt lat="45.74479" lon="-0.97286">
        <ele>5.9</ele>
        <time>2021-11-12T10:38:09Z</time>
      </trkpt>
      <trkpt lat="45.74518" lon="-0.97314">
        <ele>4.2</ele>
        <time>2021-11-12T10:38:19Z</time>
      </trkpt>
      <trkpt lat="45.74538" lon="-0.97351">
        <ele>2</ele>
        <time>2021-11-12T10:38:23Z</time>
      </trkpt>
      <trkpt lat="45.74558" lon="-0.97384">
        <ele>1.8</ele>
        <time>2021-11-12T10:38:27Z</time>
      </trkpt>
      <trkpt lat="45.74536" lon="-0.97465">
        <ele>3.2</ele>
        <time>2021-11-12T10:38:56Z</time>
      </trkpt>
      <trkpt lat="45.74558" lon="-0.97557">
        <ele>3.5</ele>
        <time>2021-11-12T10:39:30Z</time>
      </trkpt>
      <trkpt lat="45.74309" lon="-0.97527">
        <ele>2.3</ele>
        <time>2021-11-12T10:41:27Z</time>
      </trkpt>
      <trkpt lat="45.74266" lon="-0.97511">
        <ele>-0.8</ele>
        <time>2021-11-12T10:41:48Z</time>
      </trkpt>
      <trkpt lat="45.74203" lon="-0.97467">
        <ele>1</ele>
        <time>2021-11-12T10:41:52Z</time>
      </trkpt>
      <trkpt lat="45.74112" lon="-0.97448">
        <ele>2.4</ele>
        <time>2021-11-12T10:42:03Z</time>
      </trkpt>
      <trkpt lat="45.74013" lon="-0.9754">
        <ele>4.1</ele>
        <time>2021-11-12T10:42:13Z</time>
      </trkpt>
      <trkpt lat="45.73961" lon="-0.97582">
        <ele>2.6</ele>
        <time>2021-11-12T10:42:23Z</time>
      </trkpt>
      <trkpt lat="45.73957" lon="-0.97583">
        <ele>4.1</ele>
        <time>2021-11-12T10:42:29Z</time>
      </trkpt>
      <trkpt lat="45.73892" lon="-0.97593">
        <ele>1.9</ele>
        <time>2021-11-12T10:43:04Z</time>
      </trkpt>
      <trkpt lat="45.73734" lon="-0.97735">
        <ele>1.6</ele>
        <time>2021-11-12T10:43:18Z</time>
      </trkpt>
      <trkpt lat="45.73689" lon="-0.97789">
        <ele>2.2</ele>
        <time>2021-11-12T10:43:33Z</time>
      </trkpt>
      <trkpt lat="45.73709" lon="-0.97833">
        <ele>2.3</ele>
        <time>2021-11-12T10:43:37Z</time>
      </trkpt>
      <trkpt lat="45.73759" lon="-0.97946">
        <ele>2.3</ele>
        <time>2021-11-12T10:43:44Z</time>
      </trkpt>
      <trkpt lat="45.73908" lon="-0.98157">
        <ele>2.4</ele>
        <time>2021-11-12T10:43:57Z</time>
      </trkpt>
      <trkpt lat="45.74123" lon="-0.98427">
        <ele>2.4</ele>
        <time>2021-11-12T10:44:12Z</time>
      </trkpt>
      <trkpt lat="45.74175" lon="-0.98488">
        <ele>2.4</ele>
        <time>2021-11-12T10:44:24Z</time>
      </trkpt>
      <trkpt lat="45.74176" lon="-0.98489">
        <ele>-0.6</ele>
        <time>2021-11-12T10:44:31Z</time>
      </trkpt>
      <trkpt lat="45.74189" lon="-0.98513">
        <ele>3</ele>
        <time>2021-11-12T10:44:34Z</time>
      </trkpt>
      <trkpt lat="45.74334" lon="-0.98783">
        <ele>0.7</ele>
        <time>2021-11-12T10:44:49Z</time>
      </trkpt>
      <trkpt lat="45.7455" lon="-0.99177">
        <ele>3.8</ele>
        <time>2021-11-12T10:45:07Z</time>
      </trkpt>
      <trkpt lat="45.74588" lon="-0.9925">
        <ele>6.8</ele>
        <time>2021-11-12T10:45:18Z</time>
      </trkpt>
      <trkpt lat="45.74593" lon="-0.99407">
        <ele>6.4</ele>
        <time>2021-11-12T10:45:30Z</time>
      </trkpt>
      <trkpt lat="45.7462" lon="-0.99471">
        <ele>5.5</ele>
        <time>2021-11-12T10:45:34Z</time>
      </trkpt>
      <trkpt lat="45.74667" lon="-0.99593">
        <ele>3</ele>
        <time>2021-11-12T10:45:45Z</time>
      </trkpt>
      <trkpt lat="45.74676" lon="-0.99604">
        <ele>2.6</ele>
        <time>2021-11-12T10:45:49Z</time>
      </trkpt>
      <trkpt lat="45.74712" lon="-0.99681">
        <ele>1</ele>
        <time>2021-11-12T10:45:56Z</time>
      </trkpt>
      <trkpt lat="45.74667" lon="-0.99864">
        <ele>3.3</ele>
        <time>2021-11-12T10:46:10Z</time>
      </trkpt>
      <trkpt lat="45.74588" lon="-0.99942">
        <ele>2.3</ele>
        <time>2021-11-12T10:46:20Z</time>
      </trkpt>
      <trkpt lat="45.74602" lon="-1">
        <ele>3.3</ele>
        <time>2021-11-12T10:46:27Z</time>
      </trkpt>
      <trkpt lat="45.74629" lon="-1.00077">
        <ele>1.7</ele>
        <time>2021-11-12T10:46:34Z</time>
      </trkpt>
      <trkpt lat="45.74658" lon="-1.00126">
        <ele>2.9</ele>
        <time>2021-11-12T10:46:41Z</time>
      </trkpt>
      <trkpt lat="45.74665" lon="-1.00137">
        <ele>3.9</ele>
        <time>2021-11-12T10:46:45Z</time>
      </trkpt>
      <trkpt lat="45.74634" lon="-1.00194">
        <ele>1.5</ele>
        <time>2021-11-12T10:46:52Z</time>
      </trkpt>
      <trkpt lat="45.74603" lon="-1.00321">
        <ele>-0.2</ele>
        <time>2021-11-12T10:47:08Z</time>
      </trkpt>
      <trkpt lat="45.74686" lon="-1.00514">
        <ele>0.2</ele>
        <time>2021-11-12T10:47:22Z</time>
      </trkpt>
      <trkpt lat="45.74683" lon="-1.00688">
        <ele>0.1</ele>
        <time>2021-11-12T10:47:38Z</time>
      </trkpt>
      <trkpt lat="45.74727" lon="-1.00797">
        <ele>-0.6</ele>
        <time>2021-11-12T10:47:45Z</time>
      </trkpt>
      <trkpt lat="45.74836" lon="-1.01016">
        <ele>0.4</ele>
        <time>2021-11-12T10:47:58Z</time>
      </trkpt>
      <trkpt lat="45.74889" lon="-1.01029">
        <ele>-1.3</ele>
        <time>2021-11-12T10:48:05Z</time>
      </trkpt>
      <trkpt lat="45.7497" lon="-1.01051">
        <ele>-1.6</ele>
        <time>2021-11-12T10:48:13Z</time>
      </trkpt>
      <trkpt lat="45.75063" lon="-1.01059">
        <ele>-0.8</ele>
        <time>2021-11-12T10:48:20Z</time>
      </trkpt>
      <trkpt lat="45.75107" lon="-1.0097">
        <ele>-0.1</ele>
        <time>2021-11-12T10:48:32Z</time>
      </trkpt>
      <trkpt lat="45.75131" lon="-1.00946">
        <ele>0.1</ele>
        <time>2021-11-12T10:48:36Z</time>
      </trkpt>
      <trkpt lat="45.75165" lon="-1.00959">
        <ele>-1.3</ele>
        <time>2021-11-12T10:48:46Z</time>
      </trkpt>
      <trkpt lat="45.75285" lon="-1.01026">
        <ele>0.3</ele>
        <time>2021-11-12T10:49:00Z</time>
      </trkpt>
      <trkpt lat="45.75364" lon="-1.01127">
        <ele>0.2</ele>
        <time>2021-11-12T10:49:12Z</time>
      </trkpt>
      <trkpt lat="45.75377" lon="-1.01147">
        <ele>-0.4</ele>
        <time>2021-11-12T10:49:16Z</time>
      </trkpt>
      <trkpt lat="45.75416" lon="-1.01113">
        <ele>-1.6</ele>
        <time>2021-11-12T10:49:24Z</time>
      </trkpt>
      <trkpt lat="45.75449" lon="-1.01059">
        <ele>-0.3</ele>
        <time>2021-11-12T10:49:30Z</time>
      </trkpt>
      <trkpt lat="45.75482" lon="-1.01018">
        <ele>1.4</ele>
        <time>2021-11-12T10:49:34Z</time>
      </trkpt>
      <trkpt lat="45.75515" lon="-1.00978">
        <ele>-0.6</ele>
        <time>2021-11-12T10:49:38Z</time>
      </trkpt>
      <trkpt lat="45.75559" lon="-1.0083">
        <ele>-0.3</ele>
        <time>2021-11-12T10:49:52Z</time>
      </trkpt>
      <trkpt lat="45.75565" lon="-1.00793">
        <ele>0.1</ele>
        <time>2021-11-12T10:49:56Z</time>
      </trkpt>
      <trkpt lat="45.75652" lon="-1.00691">
        <ele>-0.7</ele>
        <time>2021-11-12T10:50:14Z</time>
      </trkpt>
      <trkpt lat="45.75675" lon="-1.00736">
        <ele>-1.3</ele>
        <time>2021-11-12T10:50:18Z</time>
      </trkpt>
      <trkpt lat="45.75692" lon="-1.00772">
        <ele>-0.1</ele>
        <time>2021-11-12T10:50:22Z</time>
      </trkpt>
      <trkpt lat="45.75822" lon="-1.00664">
        <ele>0.6</ele>
        <time>2021-11-12T10:50:34Z</time>
      </trkpt>
      <trkpt lat="45.76079" lon="-1.00629">
        <ele>-0.3</ele>
        <time>2021-11-12T10:50:50Z</time>
      </trkpt>
      <trkpt lat="45.76183" lon="-1.00686">
        <ele>-2</ele>
        <time>2021-11-12T10:50:57Z</time>
      </trkpt>
      <trkpt lat="45.76283" lon="-1.00674">
        <ele>-1.7</ele>
        <time>2021-11-12T10:51:04Z</time>
      </trkpt>
      <trkpt lat="45.76565" lon="-1.00532">
        <ele>-2.8</ele>
        <time>2021-11-12T10:51:26Z</time>
      </trkpt>
      <trkpt lat="45.76701" lon="-1.00466">
        <ele>-1.7</ele>
        <time>2021-11-12T10:51:37Z</time>
      </trkpt>
      <trkpt lat="45.76751" lon="-1.00375">
        <ele>-1.4</ele>
        <time>2021-11-12T10:51:44Z</time>
      </trkpt>
      <trkpt lat="45.76799" lon="-1.00264">
        <ele>-1</ele>
        <time>2021-11-12T10:51:51Z</time>
      </trkpt>
      <trkpt lat="45.76931" lon="-1.00186">
        <ele>1.8</ele>
        <time>2021-11-12T10:52:05Z</time>
      </trkpt>
      <trkpt lat="45.77009" lon="-1.00292">
        <ele>2.6</ele>
        <time>2021-11-12T10:52:16Z</time>
      </trkpt>
      <trkpt lat="45.77045" lon="-1.00356">
        <ele>2.4</ele>
        <time>2021-11-12T10:52:20Z</time>
      </trkpt>
      <trkpt lat="45.77161" lon="-1.00573">
        <ele>-0.1</ele>
        <time>2021-11-12T10:52:32Z</time>
      </trkpt>
      <trkpt lat="45.77212" lon="-1.00679">
        <ele>-1.3</ele>
        <time>2021-11-12T10:52:38Z</time>
      </trkpt>
      <trkpt lat="45.77267" lon="-1.00772">
        <ele>-3.9</ele>
        <time>2021-11-12T10:52:46Z</time>
      </trkpt>
      <trkpt lat="45.77326" lon="-1.00834">
        <ele>-4.5</ele>
        <time>2021-11-12T10:52:54Z</time>
      </trkpt>
      <trkpt lat="45.77356" lon="-1.00861">
        <ele>-3.4</ele>
        <time>2021-11-12T10:52:57Z</time>
      </trkpt>
      <trkpt lat="45.7746" lon="-1.01029">
        <ele>-2.6</ele>
        <time>2021-11-12T10:53:11Z</time>
      </trkpt>
      <trkpt lat="45.77557" lon="-1.01268">
        <ele>1.5</ele>
        <time>2021-11-12T10:53:24Z</time>
      </trkpt>
      <trkpt lat="45.77585" lon="-1.01332">
        <ele>0.8</ele>
        <time>2021-11-12T10:53:28Z</time>
      </trkpt>
      <trkpt lat="45.77603" lon="-1.01373">
        <ele>5</ele>
        <time>2021-11-12T10:53:32Z</time>
      </trkpt>
      <trkpt lat="45.77609" lon="-1.01386">
        <ele>5.1</ele>
        <time>2021-11-12T10:53:34Z</time>
      </trkpt>
      <trkpt lat="45.77643" lon="-1.01444">
        <ele>4.6</ele>
        <time>2021-11-12T10:53:42Z</time>
      </trkpt>
      <trkpt lat="45.77735" lon="-1.01591">
        <ele>3.7</ele>
        <time>2021-11-12T10:54:06Z</time>
      </trkpt>
      <trkpt lat="45.77748" lon="-1.01618">
        <ele>3.7</ele>
        <time>2021-11-12T10:54:10Z</time>
      </trkpt>
      <trkpt lat="45.77768" lon="-1.01659">
        <ele>1.9</ele>
        <time>2021-11-12T10:54:17Z</time>
      </trkpt>
      <trkpt lat="45.77786" lon="-1.01709">
        <ele>0.3</ele>
        <time>2021-11-12T10:54:20Z</time>
      </trkpt>
      <trkpt lat="45.77843" lon="-1.01864">
        <ele>-1.4</ele>
        <time>2021-11-12T10:54:27Z</time>
      </trkpt>
      <trkpt lat="45.77872" lon="-1.01953">
        <ele>-2</ele>
        <time>2021-11-12T10:54:31Z</time>
      </trkpt>
      <trkpt lat="45.77947" lon="-1.02068">
        <ele>-1.1</ele>
        <time>2021-11-12T10:54:37Z</time>
      </trkpt>
      <trkpt lat="45.77995" lon="-1.02144">
        <ele>0.6</ele>
        <time>2021-11-12T10:54:41Z</time>
      </trkpt>
      <trkpt lat="45.78051" lon="-1.02265">
        <ele>1</ele>
        <time>2021-11-12T10:54:47Z</time>
      </trkpt>
      <trkpt lat="45.78081" lon="-1.02333">
        <ele>0.2</ele>
        <time>2021-11-12T10:54:51Z</time>
      </trkpt>
      <trkpt lat="45.78077" lon="-1.02408">
        <ele>1.2</ele>
        <time>2021-11-12T10:55:03Z</time>
      </trkpt>
      <trkpt lat="45.78041" lon="-1.02442">
        <ele>0.3</ele>
        <time>2021-11-12T10:55:07Z</time>
      </trkpt>
      <trkpt lat="45.77969" lon="-1.02516">
        <ele>2.1</ele>
        <time>2021-11-12T10:55:17Z</time>
      </trkpt>
      <trkpt lat="45.77974" lon="-1.02567">
        <ele>1.3</ele>
        <time>2021-11-12T10:55:25Z</time>
      </trkpt>
      <trkpt lat="45.78014" lon="-1.02701">
        <ele>-2.4</ele>
        <time>2021-11-12T10:55:35Z</time>
      </trkpt>
      <trkpt lat="45.78025" lon="-1.02759">
        <ele>-1.4</ele>
        <time>2021-11-12T10:55:39Z</time>
      </trkpt>
      <trkpt lat="45.7805" lon="-1.02814">
        <ele>2.7</ele>
        <time>2021-11-12T10:55:46Z</time>
      </trkpt>
      <trkpt lat="45.78183" lon="-1.02831">
        <ele>1.2</ele>
        <time>2021-11-12T10:56:00Z</time>
      </trkpt>
      <trkpt lat="45.78212" lon="-1.02812">
        <ele>1.4</ele>
        <time>2021-11-12T10:56:03Z</time>
      </trkpt>
      <trkpt lat="45.7825" lon="-1.02767">
        <ele>1.1</ele>
        <time>2021-11-12T10:56:07Z</time>
      </trkpt>
      <trkpt lat="45.78303" lon="-1.027">
        <ele>2.8</ele>
        <time>2021-11-12T10:56:14Z</time>
      </trkpt>
      <trkpt lat="45.78321" lon="-1.02678">
        <ele>2.9</ele>
        <time>2021-11-12T10:56:18Z</time>
      </trkpt>
      <trkpt lat="45.78355" lon="-1.02711">
        <ele>0.9</ele>
        <time>2021-11-12T10:56:25Z</time>
      </trkpt>
      <trkpt lat="45.78451" lon="-1.02851">
        <ele>5</ele>
        <time>2021-11-12T10:56:33Z</time>
      </trkpt>
      <trkpt lat="45.78496" lon="-1.02885">
        <ele>3.8</ele>
        <time>2021-11-12T10:56:37Z</time>
      </trkpt>
      <trkpt lat="45.78536" lon="-1.02905">
        <ele>5.6</ele>
        <time>2021-11-12T10:56:40Z</time>
      </trkpt>
      <trkpt lat="45.78636" lon="-1.02965">
        <ele>4.1</ele>
        <time>2021-11-12T10:56:47Z</time>
      </trkpt>
      <trkpt lat="45.78698" lon="-1.03167">
        <ele>3</ele>
        <time>2021-11-12T10:56:58Z</time>
      </trkpt>
      <trkpt lat="45.78697" lon="-1.03272">
        <ele>2.8</ele>
        <time>2021-11-12T10:57:02Z</time>
      </trkpt>
      <trkpt lat="45.78727" lon="-1.03442">
        <ele>-1.2</ele>
        <time>2021-11-12T10:57:09Z</time>
      </trkpt>
      <trkpt lat="45.78745" lon="-1.03532">
        <ele>-1.3</ele>
        <time>2021-11-12T10:57:13Z</time>
      </trkpt>
      <trkpt lat="45.78766" lon="-1.03625">
        <ele>-2.1</ele>
        <time>2021-11-12T10:57:17Z</time>
      </trkpt>
      <trkpt lat="45.78787" lon="-1.03689">
        <ele>-2.1</ele>
        <time>2021-11-12T10:57:20Z</time>
      </trkpt>
      <trkpt lat="45.78835" lon="-1.03825">
        <ele>-3.3</ele>
        <time>2021-11-12T10:57:27Z</time>
      </trkpt>
      <trkpt lat="45.78879" lon="-1.04083">
        <ele>-0.3</ele>
        <time>2021-11-12T10:57:38Z</time>
      </trkpt>
      <trkpt lat="45.78907" lon="-1.04196">
        <ele>-0.8</ele>
        <time>2021-11-12T10:57:45Z</time>
      </trkpt>
      <trkpt lat="45.78904" lon="-1.04198">
        <ele>3.4</ele>
        <time>2021-11-12T10:57:46Z</time>
      </trkpt>
      <trkpt lat="45.78955" lon="-1.04321">
        <ele>1.7</ele>
        <time>2021-11-12T10:58:07Z</time>
      </trkpt>
      <trkpt lat="45.79" lon="-1.04404">
        <ele>-0.1</ele>
        <time>2021-11-12T10:58:11Z</time>
      </trkpt>
      <trkpt lat="45.791" lon="-1.04608">
        <ele>3.4</ele>
        <time>2021-11-12T10:58:21Z</time>
      </trkpt>
      <trkpt lat="45.79142" lon="-1.04687">
        <ele>3.7</ele>
        <time>2021-11-12T10:58:25Z</time>
      </trkpt>
      <trkpt lat="45.7918" lon="-1.04749">
        <ele>4.6</ele>
        <time>2021-11-12T10:58:28Z</time>
      </trkpt>
      <trkpt lat="45.79381" lon="-1.05026">
        <ele>8.1</ele>
        <time>2021-11-12T10:58:46Z</time>
      </trkpt>
      <trkpt lat="45.7942" lon="-1.0508">
        <ele>8.2</ele>
        <time>2021-11-12T10:58:50Z</time>
      </trkpt>
      <trkpt lat="45.79478" lon="-1.0516">
        <ele>6.3</ele>
        <time>2021-11-12T10:58:58Z</time>
      </trkpt>
      <trkpt lat="45.79504" lon="-1.05207">
        <ele>6.7</ele>
        <time>2021-11-12T10:59:02Z</time>
      </trkpt>
      <trkpt lat="45.79641" lon="-1.05279">
        <ele>9</ele>
        <time>2021-11-12T10:59:18Z</time>
      </trkpt>
      <trkpt lat="45.79655" lon="-1.05297">
        <ele>7.6</ele>
        <time>2021-11-12T10:59:21Z</time>
      </trkpt>
      <trkpt lat="45.79715" lon="-1.05221">
        <ele>6.9</ele>
        <time>2021-11-12T10:59:29Z</time>
      </trkpt>
      <trkpt lat="45.79798" lon="-1.05105">
        <ele>7.7</ele>
        <time>2021-11-12T10:59:39Z</time>
      </trkpt>
      <trkpt lat="45.79824" lon="-1.05041">
        <ele>7.8</ele>
        <time>2021-11-12T10:59:43Z</time>
      </trkpt>
      <trkpt lat="45.79878" lon="-1.04745">
        <ele>9.8</ele>
        <time>2021-11-12T11:00:02Z</time>
      </trkpt>
      <trkpt lat="45.79923" lon="-1.04663">
        <ele>11.5</ele>
        <time>2021-11-12T11:00:10Z</time>
      </trkpt>
      <trkpt lat="45.80006" lon="-1.0448">
        <ele>14.6</ele>
        <time>2021-11-12T11:00:21Z</time>
      </trkpt>
      <trkpt lat="45.80033" lon="-1.0442">
        <ele>14.8</ele>
        <time>2021-11-12T11:00:25Z</time>
      </trkpt>
      <trkpt lat="45.80182" lon="-1.04097">
        <ele>12.7</ele>
        <time>2021-11-12T11:00:49Z</time>
      </trkpt>
      <trkpt lat="45.80211" lon="-1.04026">
        <ele>12.3</ele>
        <time>2021-11-12T11:00:56Z</time>
      </trkpt>
      <trkpt lat="45.8025" lon="-1.04112">
        <ele>10</ele>
        <time>2021-11-12T11:01:07Z</time>
      </trkpt>
      <trkpt lat="45.80269" lon="-1.04161">
        <ele>10.5</ele>
        <time>2021-11-12T11:01:10Z</time>
      </trkpt>
      <trkpt lat="45.80293" lon="-1.04206">
        <ele>10.1</ele>
        <time>2021-11-12T11:01:13Z</time>
      </trkpt>
      <trkpt lat="45.80323" lon="-1.04268">
        <ele>10</ele>
        <time>2021-11-12T11:01:17Z</time>
      </trkpt>
      <trkpt lat="45.80467" lon="-1.04433">
        <ele>9</ele>
        <time>2021-11-12T11:01:31Z</time>
      </trkpt>
      <trkpt lat="45.80617" lon="-1.04653">
        <ele>10.8</ele>
        <time>2021-11-12T11:01:45Z</time>
      </trkpt>
      <trkpt lat="45.8066" lon="-1.0472">
        <ele>10</ele>
        <time>2021-11-12T11:01:49Z</time>
      </trkpt>
      <trkpt lat="45.80696" lon="-1.04757">
        <ele>9.9</ele>
        <time>2021-11-12T11:01:53Z</time>
      </trkpt>
      <trkpt lat="45.80729" lon="-1.04786">
        <ele>10.5</ele>
        <time>2021-11-12T11:01:56Z</time>
      </trkpt>
      <trkpt lat="45.80794" lon="-1.04944">
        <ele>5.9</ele>
        <time>2021-11-12T11:02:04Z</time>
      </trkpt>
      <trkpt lat="45.80901" lon="-1.05159">
        <ele>6.6</ele>
        <time>2021-11-12T11:02:15Z</time>
      </trkpt>
      <trkpt lat="45.8098" lon="-1.05286">
        <ele>5.4</ele>
        <time>2021-11-12T11:02:22Z</time>
      </trkpt>
      <trkpt lat="45.81096" lon="-1.0568">
        <ele>0.3</ele>
        <time>2021-11-12T11:02:41Z</time>
      </trkpt>
      <trkpt lat="45.8112" lon="-1.05734">
        <ele>0.2</ele>
        <time>2021-11-12T11:02:44Z</time>
      </trkpt>
      <trkpt lat="45.81215" lon="-1.05831">
        <ele>0.8</ele>
        <time>2021-11-12T11:02:55Z</time>
      </trkpt>
      <trkpt lat="45.81326" lon="-1.05849">
        <ele>4.6</ele>
        <time>2021-11-12T11:03:01Z</time>
      </trkpt>
      <trkpt lat="45.8137" lon="-1.05874">
        <ele>4.9</ele>
        <time>2021-11-12T11:03:04Z</time>
      </trkpt>
      <trkpt lat="45.81505" lon="-1.06029">
        <ele>8.6</ele>
        <time>2021-11-12T11:03:16Z</time>
      </trkpt>
      <trkpt lat="45.81598" lon="-1.06163">
        <ele>9.7</ele>
        <time>2021-11-12T11:03:24Z</time>
      </trkpt>
      <trkpt lat="45.81761" lon="-1.0638">
        <ele>5.9</ele>
        <time>2021-11-12T11:03:38Z</time>
      </trkpt>
      <trkpt lat="45.81813" lon="-1.06451">
        <ele>4.2</ele>
        <time>2021-11-12T11:03:42Z</time>
      </trkpt>
      <trkpt lat="45.81841" lon="-1.06508">
        <ele>5.2</ele>
        <time>2021-11-12T11:03:45Z</time>
      </trkpt>
      <trkpt lat="45.81849" lon="-1.06567">
        <ele>4.6</ele>
        <time>2021-11-12T11:03:48Z</time>
      </trkpt>
      <trkpt lat="45.8186" lon="-1.06648">
        <ele>5.5</ele>
        <time>2021-11-12T11:03:52Z</time>
      </trkpt>
      <trkpt lat="45.81926" lon="-1.06782">
        <ele>7.2</ele>
        <time>2021-11-12T11:03:59Z</time>
      </trkpt>
      <trkpt lat="45.82085" lon="-1.07023">
        <ele>5.4</ele>
        <time>2021-11-12T11:04:14Z</time>
      </trkpt>
      <trkpt lat="45.82133" lon="-1.07086">
        <ele>3.6</ele>
        <time>2021-11-12T11:04:18Z</time>
      </trkpt>
      <trkpt lat="45.82228" lon="-1.07175">
        <ele>6.6</ele>
        <time>2021-11-12T11:04:28Z</time>
      </trkpt>
      <trkpt lat="45.82256" lon="-1.07189">
        <ele>7.2</ele>
        <time>2021-11-12T11:04:38Z</time>
      </trkpt>
      <trkpt lat="45.82296" lon="-1.07228">
        <ele>7.2</ele>
        <time>2021-11-12T11:04:42Z</time>
      </trkpt>
      <trkpt lat="45.82408" lon="-1.07375">
        <ele>7.1</ele>
        <time>2021-11-12T11:04:53Z</time>
      </trkpt>
      <trkpt lat="45.82428" lon="-1.07429">
        <ele>7.1</ele>
        <time>2021-11-12T11:04:56Z</time>
      </trkpt>
      <trkpt lat="45.82532" lon="-1.07394">
        <ele>7.1</ele>
        <time>2021-11-12T11:05:07Z</time>
      </trkpt>
      <trkpt lat="45.8257" lon="-1.07339">
        <ele>7.1</ele>
        <time>2021-11-12T11:05:10Z</time>
      </trkpt>
      <trkpt lat="45.82608" lon="-1.07291">
        <ele>7</ele>
        <time>2021-11-12T11:05:14Z</time>
      </trkpt>
      <trkpt lat="45.82713" lon="-1.07386">
        <ele>7.3</ele>
        <time>2021-11-12T11:05:24Z</time>
      </trkpt>
      <trkpt lat="45.82753" lon="-1.07445">
        <ele>7.2</ele>
        <time>2021-11-12T11:05:31Z</time>
      </trkpt>
      <trkpt lat="45.82734" lon="-1.07477">
        <ele>3.5</ele>
        <time>2021-11-12T11:05:37Z</time>
      </trkpt>
      <trkpt lat="45.82689" lon="-1.07519">
        <ele>4.7</ele>
        <time>2021-11-12T11:05:41Z</time>
      </trkpt>
      <trkpt lat="45.82599" lon="-1.07609">
        <ele>6.1</ele>
        <time>2021-11-12T11:05:48Z</time>
      </trkpt>
      <trkpt lat="45.826" lon="-1.07771">
        <ele>7.2</ele>
        <time>2021-11-12T11:06:02Z</time>
      </trkpt>
      <trkpt lat="45.82643" lon="-1.07878">
        <ele>6.6</ele>
        <time>2021-11-12T11:06:06Z</time>
      </trkpt>
      <trkpt lat="45.82747" lon="-1.08132">
        <ele>3.3</ele>
        <time>2021-11-12T11:06:16Z</time>
      </trkpt>
      <trkpt lat="45.82795" lon="-1.08244">
        <ele>0.1</ele>
        <time>2021-11-12T11:06:24Z</time>
      </trkpt>
      <trkpt lat="45.8287" lon="-1.08353">
        <ele>1.5</ele>
        <time>2021-11-12T11:06:32Z</time>
      </trkpt>
      <trkpt lat="45.82911" lon="-1.08408">
        <ele>1.8</ele>
        <time>2021-11-12T11:06:36Z</time>
      </trkpt>
      <trkpt lat="45.82933" lon="-1.08439">
        <ele>1</ele>
        <time>2021-11-12T11:06:39Z</time>
      </trkpt>
      <trkpt lat="45.82947" lon="-1.08471">
        <ele>4.2</ele>
        <time>2021-11-12T11:06:42Z</time>
      </trkpt>
      <trkpt lat="45.82957" lon="-1.08493">
        <ele>3.2</ele>
        <time>2021-11-12T11:06:45Z</time>
      </trkpt>
      <trkpt lat="45.82999" lon="-1.08378">
        <ele>3.8</ele>
        <time>2021-11-12T11:06:56Z</time>
      </trkpt>
      <trkpt lat="45.83129" lon="-1.08034">
        <ele>6.3</ele>
        <time>2021-11-12T11:07:14Z</time>
      </trkpt>
      <trkpt lat="45.8316" lon="-1.07953">
        <ele>4.8</ele>
        <time>2021-11-12T11:07:21Z</time>
      </trkpt>
      <trkpt lat="45.83188" lon="-1.07953">
        <ele>1.8</ele>
        <time>2021-11-12T11:07:28Z</time>
      </trkpt>
      <trkpt lat="45.83252" lon="-1.0798">
        <ele>-2.9</ele>
        <time>2021-11-12T11:07:36Z</time>
      </trkpt>
      <trkpt lat="45.83356" lon="-1.08144">
        <ele>-0.2</ele>
        <time>2021-11-12T11:07:52Z</time>
      </trkpt>
      <trkpt lat="45.83484" lon="-1.08229">
        <ele>1.9</ele>
        <time>2021-11-12T11:08:04Z</time>
      </trkpt>
      <trkpt lat="45.83611" lon="-1.08321">
        <ele>2.3</ele>
        <time>2021-11-12T11:08:15Z</time>
      </trkpt>
      <trkpt lat="45.83749" lon="-1.0852">
        <ele>0.7</ele>
        <time>2021-11-12T11:08:37Z</time>
      </trkpt>
      <trkpt lat="45.83707" lon="-1.08573">
        <ele>4.1</ele>
        <time>2021-11-12T11:08:43Z</time>
      </trkpt>
      <trkpt lat="45.83689" lon="-1.08593">
        <ele>5.5</ele>
        <time>2021-11-12T11:08:46Z</time>
      </trkpt>
      <trkpt lat="45.83693" lon="-1.08661">
        <ele>9.1</ele>
        <time>2021-11-12T11:08:54Z</time>
      </trkpt>
      <trkpt lat="45.83698" lon="-1.08739">
        <ele>11</ele>
        <time>2021-11-12T11:09:00Z</time>
      </trkpt>
      <trkpt lat="45.83655" lon="-1.0882">
        <ele>11.6</ele>
        <time>2021-11-12T11:09:08Z</time>
      </trkpt>
      <trkpt lat="45.83639" lon="-1.08847">
        <ele>11.7</ele>
        <time>2021-11-12T11:09:12Z</time>
      </trkpt>
      <trkpt lat="45.8366" lon="-1.08905">
        <ele>14.9</ele>
        <time>2021-11-12T11:09:26Z</time>
      </trkpt>
      <trkpt lat="45.83787" lon="-1.08896">
        <ele>11.7</ele>
        <time>2021-11-12T11:09:37Z</time>
      </trkpt>
      <trkpt lat="45.83841" lon="-1.08976">
        <ele>10.8</ele>
        <time>2021-11-12T11:09:41Z</time>
      </trkpt>
      <trkpt lat="45.83884" lon="-1.09035">
        <ele>8</ele>
        <time>2021-11-12T11:09:44Z</time>
      </trkpt>
      <trkpt lat="45.83993" lon="-1.09047">
        <ele>3.9</ele>
        <time>2021-11-12T11:09:51Z</time>
      </trkpt>
      <trkpt lat="45.84039" lon="-1.08989">
        <ele>2.8</ele>
        <time>2021-11-12T11:09:55Z</time>
      </trkpt>
      <trkpt lat="45.84047" lon="-1.08928">
        <ele>-0.1</ele>
        <time>2021-11-12T11:09:58Z</time>
      </trkpt>
      <trkpt lat="45.8405" lon="-1.08732">
        <ele>-1.1</ele>
        <time>2021-11-12T11:10:08Z</time>
      </trkpt>
      <trkpt lat="45.84117" lon="-1.08665">
        <ele>-1.9</ele>
        <time>2021-11-12T11:10:12Z</time>
      </trkpt>
      <trkpt lat="45.84357" lon="-1.08417">
        <ele>0.1</ele>
        <time>2021-11-12T11:10:26Z</time>
      </trkpt>
      <trkpt lat="45.84495" lon="-1.08331">
        <ele>1.6</ele>
        <time>2021-11-12T11:10:34Z</time>
      </trkpt>
      <trkpt lat="45.84564" lon="-1.08291">
        <ele>0.9</ele>
        <time>2021-11-12T11:10:38Z</time>
      </trkpt>
      <trkpt lat="45.84729" lon="-1.08046">
        <ele>-0.2</ele>
        <time>2021-11-12T11:10:50Z</time>
      </trkpt>
      <trkpt lat="45.84833" lon="-1.07781">
        <ele>3.2</ele>
        <time>2021-11-12T11:11:05Z</time>
      </trkpt>
      <trkpt lat="45.8485" lon="-1.0774">
        <ele>3.7</ele>
        <time>2021-11-12T11:11:08Z</time>
      </trkpt>
      <trkpt lat="45.84916" lon="-1.07747">
        <ele>7.7</ele>
        <time>2021-11-12T11:11:15Z</time>
      </trkpt>
      <trkpt lat="45.84953" lon="-1.07766">
        <ele>7.2</ele>
        <time>2021-11-12T11:11:18Z</time>
      </trkpt>
      <trkpt lat="45.8506" lon="-1.07817">
        <ele>12.2</ele>
        <time>2021-11-12T11:11:28Z</time>
      </trkpt>
      <trkpt lat="45.85168" lon="-1.07866">
        <ele>8.7</ele>
        <time>2021-11-12T11:11:36Z</time>
      </trkpt>
      <trkpt lat="45.85271" lon="-1.07763">
        <ele>5.6</ele>
        <time>2021-11-12T11:11:47Z</time>
      </trkpt>
      <trkpt lat="45.85437" lon="-1.07807">
        <ele>4.1</ele>
        <time>2021-11-12T11:11:58Z</time>
      </trkpt>
      <trkpt lat="45.85665" lon="-1.07996">
        <ele>3.6</ele>
        <time>2021-11-12T11:12:13Z</time>
      </trkpt>
      <trkpt lat="45.85746" lon="-1.08018">
        <ele>2.4</ele>
        <time>2021-11-12T11:12:20Z</time>
      </trkpt>
      <trkpt lat="45.85822" lon="-1.07854">
        <ele>1.1</ele>
        <time>2021-11-12T11:12:28Z</time>
      </trkpt>
      <trkpt lat="45.86078" lon="-1.07715">
        <ele>0.2</ele>
        <time>2021-11-12T11:12:42Z</time>
      </trkpt>
      <trkpt lat="45.86299" lon="-1.07691">
        <ele>2.8</ele>
        <time>2021-11-12T11:12:54Z</time>
      </trkpt>
      <trkpt lat="45.86364" lon="-1.07638">
        <ele>2.8</ele>
        <time>2021-11-12T11:12:58Z</time>
      </trkpt>
      <trkpt lat="45.86417" lon="-1.07557">
        <ele>3.2</ele>
        <time>2021-11-12T11:13:02Z</time>
      </trkpt>
      <trkpt lat="45.8647" lon="-1.07475">
        <ele>3.6</ele>
        <time>2021-11-12T11:13:06Z</time>
      </trkpt>
      <trkpt lat="45.86515" lon="-1.07185">
        <ele>1.7</ele>
        <time>2021-11-12T11:13:20Z</time>
      </trkpt>
      <trkpt lat="45.86529" lon="-1.07099">
        <ele>1.2</ele>
        <time>2021-11-12T11:13:31Z</time>
      </trkpt>
      <trkpt lat="45.86566" lon="-1.07081">
        <ele>1.2</ele>
        <time>2021-11-12T11:13:35Z</time>
      </trkpt>
      <trkpt lat="45.86751" lon="-1.06988">
        <ele>2.3</ele>
        <time>2021-11-12T11:14:00Z</time>
      </trkpt>
      <trkpt lat="45.86802" lon="-1.06961">
        <ele>5.1</ele>
        <time>2021-11-12T11:14:08Z</time>
      </trkpt>
      <trkpt lat="45.86811" lon="-1.06943">
        <ele>4.8</ele>
        <time>2021-11-12T11:14:12Z</time>
      </trkpt>
      <trkpt lat="45.86821" lon="-1.06924">
        <ele>2.4</ele>
        <time>2021-11-12T11:14:15Z</time>
      </trkpt>
      <trkpt lat="45.86796" lon="-1.06797">
        <ele>-2.5</ele>
        <time>2021-11-12T11:14:26Z</time>
      </trkpt>
      <trkpt lat="45.86784" lon="-1.06742">
        <ele>0.9</ele>
        <time>2021-11-12T11:14:30Z</time>
      </trkpt>
      <trkpt lat="45.86903" lon="-1.06672">
        <ele>1</ele>
        <time>2021-11-12T11:14:40Z</time>
      </trkpt>
      <trkpt lat="45.86959" lon="-1.06664">
        <ele>2.6</ele>
        <time>2021-11-12T11:14:44Z</time>
      </trkpt>
      <trkpt lat="45.87014" lon="-1.0666">
        <ele>2</ele>
        <time>2021-11-12T11:14:48Z</time>
      </trkpt>
      <trkpt lat="45.87228" lon="-1.06649">
        <ele>3.4</ele>
        <time>2021-11-12T11:15:02Z</time>
      </trkpt>
      <trkpt lat="45.87265" lon="-1.06657">
        <ele>2.7</ele>
        <time>2021-11-12T11:15:16Z</time>
      </trkpt>
      <trkpt lat="45.87271" lon="-1.06675">
        <ele>2.7</ele>
        <time>2021-11-12T11:15:24Z</time>
      </trkpt>
      <trkpt lat="45.87278" lon="-1.06701">
        <ele>0.1</ele>
        <time>2021-11-12T11:16:11Z</time>
      </trkpt>
      <trkpt lat="45.873" lon="-1.06764">
        <ele>2.8</ele>
        <time>2021-11-12T11:16:28Z</time>
      </trkpt>
      <trkpt lat="45.87333" lon="-1.06852">
        <ele>1.6</ele>
        <time>2021-11-12T11:16:35Z</time>
      </trkpt>
      <trkpt lat="45.8735" lon="-1.06888">
        <ele>1.5</ele>
        <time>2021-11-12T11:16:38Z</time>
      </trkpt>
      <trkpt lat="45.87382" lon="-1.06934">
        <ele>1.5</ele>
        <time>2021-11-12T11:16:42Z</time>
      </trkpt>
      <trkpt lat="45.8764" lon="-1.07305">
        <ele>3.4</ele>
        <time>2021-11-12T11:17:13Z</time>
      </trkpt>
      <trkpt lat="45.877" lon="-1.07387">
        <ele>5.8</ele>
        <time>2021-11-12T11:17:24Z</time>
      </trkpt>
      <trkpt lat="45.87705" lon="-1.07408">
        <ele>5</ele>
        <time>2021-11-12T11:17:27Z</time>
      </trkpt>
      <trkpt lat="45.8771" lon="-1.07427">
        <ele>5</ele>
        <time>2021-11-12T11:17:31Z</time>
      </trkpt>
      <trkpt lat="45.87785" lon="-1.07509">
        <ele>3.2</ele>
        <time>2021-11-12T11:17:46Z</time>
      </trkpt>
      <trkpt lat="45.87817" lon="-1.075">
        <ele>4.4</ele>
        <time>2021-11-12T11:17:50Z</time>
      </trkpt>
      <trkpt lat="45.87851" lon="-1.07488">
        <ele>4.6</ele>
        <time>2021-11-12T11:17:54Z</time>
      </trkpt>
      <trkpt lat="45.8788" lon="-1.07481">
        <ele>4</ele>
        <time>2021-11-12T11:17:58Z</time>
      </trkpt>
      <trkpt lat="45.87902" lon="-1.07473">
        <ele>4.5</ele>
        <time>2021-11-12T11:18:01Z</time>
      </trkpt>
      <trkpt lat="45.87962" lon="-1.07454">
        <ele>3.3</ele>
        <time>2021-11-12T11:18:08Z</time>
      </trkpt>
      <trkpt lat="45.87997" lon="-1.07401">
        <ele>2.9</ele>
        <time>2021-11-12T11:18:15Z</time>
      </trkpt>
      <trkpt lat="45.88018" lon="-1.07321">
        <ele>2.7</ele>
        <time>2021-11-12T11:18:23Z</time>
      </trkpt>
      <trkpt lat="45.88023" lon="-1.07286">
        <ele>4</ele>
        <time>2021-11-12T11:18:26Z</time>
      </trkpt>
      <trkpt lat="45.88111" lon="-1.07176">
        <ele>2.5</ele>
        <time>2021-11-12T11:18:43Z</time>
      </trkpt>
      <trkpt lat="45.88133" lon="-1.07136">
        <ele>2.4</ele>
        <time>2021-11-12T11:18:47Z</time>
      </trkpt>
      <trkpt lat="45.88125" lon="-1.06972">
        <ele>-0.1</ele>
        <time>2021-11-12T11:19:01Z</time>
      </trkpt>
      <trkpt lat="45.88122" lon="-1.06939">
        <ele>2.7</ele>
        <time>2021-11-12T11:19:05Z</time>
      </trkpt>
      <trkpt lat="45.88211" lon="-1.06874">
        <ele>2</ele>
        <time>2021-11-12T11:19:20Z</time>
      </trkpt>
      <trkpt lat="45.88271" lon="-1.06875">
        <ele>5.1</ele>
        <time>2021-11-12T11:19:27Z</time>
      </trkpt>
      <trkpt lat="45.88338" lon="-1.06779">
        <ele>4.3</ele>
        <time>2021-11-12T11:19:41Z</time>
      </trkpt>
      <trkpt lat="45.88468" lon="-1.06729">
        <ele>3.5</ele>
        <time>2021-11-12T11:19:58Z</time>
      </trkpt>
      <trkpt lat="45.88548" lon="-1.0674">
        <ele>3.3</ele>
        <time>2021-11-12T11:20:06Z</time>
      </trkpt>
      <trkpt lat="45.88576" lon="-1.06751">
        <ele>2.5</ele>
        <time>2021-11-12T11:20:09Z</time>
      </trkpt>
      <trkpt lat="45.88646" lon="-1.06751">
        <ele>4.1</ele>
        <time>2021-11-12T11:20:16Z</time>
      </trkpt>
      <trkpt lat="45.88671" lon="-1.06751">
        <ele>2.9</ele>
        <time>2021-11-12T11:20:20Z</time>
      </trkpt>
      <trkpt lat="45.88684" lon="-1.06783">
        <ele>4.2</ele>
        <time>2021-11-12T11:20:36Z</time>
      </trkpt>
      <trkpt lat="45.88684" lon="-1.06788">
        <ele>4.8</ele>
        <time>2021-11-12T11:21:36Z</time>
      </trkpt>
      <trkpt lat="45.88681" lon="-1.06937">
        <ele>3.3</ele>
        <time>2021-11-12T11:21:47Z</time>
      </trkpt>
      <trkpt lat="45.88664" lon="-1.07373">
        <ele>3</ele>
        <time>2021-11-12T11:22:10Z</time>
      </trkpt>
      <trkpt lat="45.88653" lon="-1.07751">
        <ele>2.4</ele>
        <time>2021-11-12T11:22:32Z</time>
      </trkpt>
      <trkpt lat="45.88651" lon="-1.07816">
        <ele>4.2</ele>
        <time>2021-11-12T11:22:40Z</time>
      </trkpt>
      <trkpt lat="45.88652" lon="-1.07819">
        <ele>3.5</ele>
        <time>2021-11-12T11:22:47Z</time>
      </trkpt>
      <trkpt lat="45.88692" lon="-1.07802">
        <ele>4.1</ele>
        <time>2021-11-12T11:22:53Z</time>
      </trkpt>
      <trkpt lat="45.88827" lon="-1.07741">
        <ele>2.4</ele>
        <time>2021-11-12T11:23:04Z</time>
      </trkpt>
      <trkpt lat="45.88852" lon="-1.07728">
        <ele>1</ele>
        <time>2021-11-12T11:23:07Z</time>
      </trkpt>
      <trkpt lat="45.88928" lon="-1.07606">
        <ele>4.7</ele>
        <time>2021-11-12T11:23:18Z</time>
      </trkpt>
      <trkpt lat="45.89056" lon="-1.07511">
        <ele>2.9</ele>
        <time>2021-11-12T11:23:28Z</time>
      </trkpt>
      <trkpt lat="45.89106" lon="-1.07526">
        <ele>2.2</ele>
        <time>2021-11-12T11:23:32Z</time>
      </trkpt>
      <trkpt lat="45.89162" lon="-1.07545">
        <ele>2.5</ele>
        <time>2021-11-12T11:23:36Z</time>
      </trkpt>
      <trkpt lat="45.89261" lon="-1.07485">
        <ele>2.7</ele>
        <time>2021-11-12T11:23:43Z</time>
      </trkpt>
      <trkpt lat="45.89358" lon="-1.07424">
        <ele>2.4</ele>
        <time>2021-11-12T11:23:50Z</time>
      </trkpt>
      <trkpt lat="45.89396" lon="-1.07384">
        <ele>3.5</ele>
        <time>2021-11-12T11:23:54Z</time>
      </trkpt>
      <trkpt lat="45.89438" lon="-1.07339">
        <ele>3.5</ele>
        <time>2021-11-12T11:23:58Z</time>
      </trkpt>
      <trkpt lat="45.89489" lon="-1.07302">
        <ele>2.9</ele>
        <time>2021-11-12T11:24:01Z</time>
      </trkpt>
      <trkpt lat="45.89835" lon="-1.07072">
        <ele>1.8</ele>
        <time>2021-11-12T11:24:22Z</time>
      </trkpt>
      <trkpt lat="45.89881" lon="-1.07038">
        <ele>-1.9</ele>
        <time>2021-11-12T11:24:33Z</time>
      </trkpt>
      <trkpt lat="45.89919" lon="-1.07075">
        <ele>-0.3</ele>
        <time>2021-11-12T11:24:41Z</time>
      </trkpt>
      <trkpt lat="45.90051" lon="-1.07217">
        <ele>2.7</ele>
        <time>2021-11-12T11:24:52Z</time>
      </trkpt>
      <trkpt lat="45.90088" lon="-1.07251">
        <ele>2.4</ele>
        <time>2021-11-12T11:24:56Z</time>
      </trkpt>
      <trkpt lat="45.90214" lon="-1.07254">
        <ele>4.2</ele>
        <time>2021-11-12T11:25:04Z</time>
      </trkpt>
      <trkpt lat="45.90395" lon="-1.0727">
        <ele>4.3</ele>
        <time>2021-11-12T11:25:12Z</time>
      </trkpt>
      <trkpt lat="45.90697" lon="-1.07357">
        <ele>4.2</ele>
        <time>2021-11-12T11:25:30Z</time>
      </trkpt>
      <trkpt lat="45.90914" lon="-1.074">
        <ele>0.4</ele>
        <time>2021-11-12T11:25:44Z</time>
      </trkpt>
      <trkpt lat="45.90932" lon="-1.07395">
        <ele>0.4</ele>
        <time>2021-11-12T11:25:47Z</time>
      </trkpt>
      <trkpt lat="45.90999" lon="-1.07282">
        <ele>1.4</ele>
        <time>2021-11-12T11:26:05Z</time>
      </trkpt>
      <trkpt lat="45.91242" lon="-1.07108">
        <ele>3.7</ele>
        <time>2021-11-12T11:26:52Z</time>
      </trkpt>
      <trkpt lat="45.91337" lon="-1.07098">
        <ele>3.5</ele>
        <time>2021-11-12T11:27:06Z</time>
      </trkpt>
      <trkpt lat="45.91443" lon="-1.07088">
        <ele>2.9</ele>
        <time>2021-11-12T11:27:20Z</time>
      </trkpt>
      <trkpt lat="45.91493" lon="-1.07072">
        <ele>3.6</ele>
        <time>2021-11-12T11:27:27Z</time>
      </trkpt>
      <trkpt lat="45.9152" lon="-1.07062">
        <ele>3.4</ele>
        <time>2021-11-12T11:27:31Z</time>
      </trkpt>
      <trkpt lat="45.91633" lon="-1.07121">
        <ele>2.6</ele>
        <time>2021-11-12T11:27:50Z</time>
      </trkpt>
      <trkpt lat="45.91656" lon="-1.07123">
        <ele>4.9</ele>
        <time>2021-11-12T11:27:53Z</time>
      </trkpt>
      <trkpt lat="45.9171" lon="-1.07131">
        <ele>5.8</ele>
        <time>2021-11-12T11:28:01Z</time>
      </trkpt>
      <trkpt lat="45.91739" lon="-1.07147">
        <ele>5.2</ele>
        <time>2021-11-12T11:28:05Z</time>
      </trkpt>
      <trkpt lat="45.91768" lon="-1.07165">
        <ele>5.2</ele>
        <time>2021-11-12T11:28:09Z</time>
      </trkpt>
      <trkpt lat="45.91816" lon="-1.07141">
        <ele>2.1</ele>
        <time>2021-11-12T11:28:17Z</time>
      </trkpt>
      <trkpt lat="45.9186" lon="-1.07097">
        <ele>0.9</ele>
        <time>2021-11-12T11:28:25Z</time>
      </trkpt>
      <trkpt lat="45.91961" lon="-1.07173">
        <ele>1.5</ele>
        <time>2021-11-12T11:28:40Z</time>
      </trkpt>
      <trkpt lat="45.91988" lon="-1.07224">
        <ele>1.5</ele>
        <time>2021-11-12T11:28:43Z</time>
      </trkpt>
      <trkpt lat="45.92098" lon="-1.0732">
        <ele>4.4</ele>
        <time>2021-11-12T11:28:53Z</time>
      </trkpt>
      <trkpt lat="45.92149" lon="-1.0738">
        <ele>4</ele>
        <time>2021-11-12T11:29:09Z</time>
      </trkpt>
      <trkpt lat="45.9215" lon="-1.07382">
        <ele>3.8</ele>
        <time>2021-11-12T11:30:17Z</time>
      </trkpt>
      <trkpt lat="45.92152" lon="-1.07383">
        <ele>7.2</ele>
        <time>2021-11-12T11:36:41Z</time>
      </trkpt>
      <trkpt lat="45.92157" lon="-1.07378">
        <ele>5.7</ele>
        <time>2021-11-12T11:36:45Z</time>
      </trkpt>
      <trkpt lat="45.92167" lon="-1.07303">
        <ele>4.5</ele>
        <time>2021-11-12T11:36:52Z</time>
      </trkpt>
      <trkpt lat="45.9218" lon="-1.07191">
        <ele>3.1</ele>
        <time>2021-11-12T11:36:59Z</time>
      </trkpt>
      <trkpt lat="45.92188" lon="-1.07155">
        <ele>3.1</ele>
        <time>2021-11-12T11:37:03Z</time>
      </trkpt>
      <trkpt lat="45.92282" lon="-1.07125">
        <ele>5.4</ele>
        <time>2021-11-12T11:37:14Z</time>
      </trkpt>
      <trkpt lat="45.92315" lon="-1.07125">
        <ele>4.8</ele>
        <time>2021-11-12T11:37:17Z</time>
      </trkpt>
      <trkpt lat="45.92494" lon="-1.07125">
        <ele>6.8</ele>
        <time>2021-11-12T11:37:35Z</time>
      </trkpt>
      <trkpt lat="45.92574" lon="-1.07127">
        <ele>5.4</ele>
        <time>2021-11-12T11:37:43Z</time>
      </trkpt>
      <trkpt lat="45.92752" lon="-1.07174">
        <ele>4.2</ele>
        <time>2021-11-12T11:38:00Z</time>
      </trkpt>
      <trkpt lat="45.92866" lon="-1.07204">
        <ele>6.5</ele>
        <time>2021-11-12T11:38:11Z</time>
      </trkpt>
      <trkpt lat="45.93256" lon="-1.07306">
        <ele>4.9</ele>
        <time>2021-11-12T11:38:47Z</time>
      </trkpt>
      <trkpt lat="45.93299" lon="-1.07321">
        <ele>4.7</ele>
        <time>2021-11-12T11:38:51Z</time>
      </trkpt>
      <trkpt lat="45.93363" lon="-1.07414">
        <ele>4.3</ele>
        <time>2021-11-12T11:38:58Z</time>
      </trkpt>
      <trkpt lat="45.93394" lon="-1.07484">
        <ele>3.9</ele>
        <time>2021-11-12T11:39:02Z</time>
      </trkpt>
      <trkpt lat="45.93466" lon="-1.0762">
        <ele>4.7</ele>
        <time>2021-11-12T11:39:16Z</time>
      </trkpt>
      <trkpt lat="45.93736" lon="-1.07699">
        <ele>4.2</ele>
        <time>2021-11-12T11:39:34Z</time>
      </trkpt>
      <trkpt lat="45.93843" lon="-1.07664">
        <ele>3.2</ele>
        <time>2021-11-12T11:39:45Z</time>
      </trkpt>
      <trkpt lat="45.93889" lon="-1.07863">
        <ele>8.5</ele>
        <time>2021-11-12T11:40:00Z</time>
      </trkpt>
      <trkpt lat="45.93907" lon="-1.07949">
        <ele>7.5</ele>
        <time>2021-11-12T11:40:04Z</time>
      </trkpt>
      <trkpt lat="45.93932" lon="-1.08074">
        <ele>6.4</ele>
        <time>2021-11-12T11:40:10Z</time>
      </trkpt>
      <trkpt lat="45.93946" lon="-1.08165">
        <ele>6.5</ele>
        <time>2021-11-12T11:40:14Z</time>
      </trkpt>
      <trkpt lat="45.93949" lon="-1.08306">
        <ele>9.3</ele>
        <time>2021-11-12T11:40:21Z</time>
      </trkpt>
      <trkpt lat="45.93948" lon="-1.08373">
        <ele>8.3</ele>
        <time>2021-11-12T11:40:25Z</time>
      </trkpt>
      <trkpt lat="45.93959" lon="-1.08436">
        <ele>7.9</ele>
        <time>2021-11-12T11:40:29Z</time>
      </trkpt>
      <trkpt lat="45.93967" lon="-1.0847">
        <ele>10</ele>
        <time>2021-11-12T11:40:37Z</time>
      </trkpt>
      <trkpt lat="45.93978" lon="-1.08528">
        <ele>10.1</ele>
        <time>2021-11-12T11:40:41Z</time>
      </trkpt>
      <trkpt lat="45.94054" lon="-1.0882">
        <ele>11.6</ele>
        <time>2021-11-12T11:40:58Z</time>
      </trkpt>
      <trkpt lat="45.9407" lon="-1.08872">
        <ele>9.2</ele>
        <time>2021-11-12T11:41:01Z</time>
      </trkpt>
      <trkpt lat="45.94098" lon="-1.08946">
        <ele>8.3</ele>
        <time>2021-11-12T11:41:05Z</time>
      </trkpt>
      <trkpt lat="45.94122" lon="-1.09011">
        <ele>8.1</ele>
        <time>2021-11-12T11:41:09Z</time>
      </trkpt>
      <trkpt lat="45.94195" lon="-1.09264">
        <ele>8.5</ele>
        <time>2021-11-12T11:41:23Z</time>
      </trkpt>
      <trkpt lat="45.9424" lon="-1.09484">
        <ele>13.4</ele>
        <time>2021-11-12T11:41:35Z</time>
      </trkpt>
      <trkpt lat="45.9426" lon="-1.09552">
        <ele>15.9</ele>
        <time>2021-11-12T11:41:39Z</time>
      </trkpt>
      <trkpt lat="45.94269" lon="-1.09605">
        <ele>17.1</ele>
        <time>2021-11-12T11:41:42Z</time>
      </trkpt>
      <trkpt lat="45.94282" lon="-1.09672">
        <ele>13.9</ele>
        <time>2021-11-12T11:41:46Z</time>
      </trkpt>
      <trkpt lat="45.94302" lon="-1.09718">
        <ele>10.9</ele>
        <time>2021-11-12T11:41:49Z</time>
      </trkpt>
      <trkpt lat="45.94367" lon="-1.09764">
        <ele>6.8</ele>
        <time>2021-11-12T11:41:57Z</time>
      </trkpt>
      <trkpt lat="45.94428" lon="-1.09734">
        <ele>5.1</ele>
        <time>2021-11-12T11:42:01Z</time>
      </trkpt>
      <trkpt lat="45.94467" lon="-1.09716">
        <ele>5.1</ele>
        <time>2021-11-12T11:42:04Z</time>
      </trkpt>
      <trkpt lat="45.94516" lon="-1.09693">
        <ele>2.7</ele>
        <time>2021-11-12T11:42:08Z</time>
      </trkpt>
      <trkpt lat="45.94545" lon="-1.0966">
        <ele>2.9</ele>
        <time>2021-11-12T11:42:11Z</time>
      </trkpt>
      <trkpt lat="45.94636" lon="-1.09588">
        <ele>2.1</ele>
        <time>2021-11-12T11:42:26Z</time>
      </trkpt>
      <trkpt lat="45.94731" lon="-1.09621">
        <ele>1.5</ele>
        <time>2021-11-12T11:42:33Z</time>
      </trkpt>
      <trkpt lat="45.94777" lon="-1.0965">
        <ele>1.8</ele>
        <time>2021-11-12T11:42:37Z</time>
      </trkpt>
      <trkpt lat="45.94855" lon="-1.09564">
        <ele>3.1</ele>
        <time>2021-11-12T11:42:47Z</time>
      </trkpt>
      <trkpt lat="45.94859" lon="-1.09475">
        <ele>3.5</ele>
        <time>2021-11-12T11:42:55Z</time>
      </trkpt>
      <trkpt lat="45.94879" lon="-1.09081">
        <ele>4</ele>
        <time>2021-11-12T11:43:19Z</time>
      </trkpt>
      <trkpt lat="45.94888" lon="-1.08905">
        <ele>8.6</ele>
        <time>2021-11-12T11:43:29Z</time>
      </trkpt>
      <trkpt lat="45.94888" lon="-1.08837">
        <ele>8.6</ele>
        <time>2021-11-12T11:43:33Z</time>
      </trkpt>
      <trkpt lat="45.94887" lon="-1.08704">
        <ele>10.3</ele>
        <time>2021-11-12T11:43:41Z</time>
      </trkpt>
      <trkpt lat="45.94901" lon="-1.0864">
        <ele>8.4</ele>
        <time>2021-11-12T11:43:45Z</time>
      </trkpt>
      <trkpt lat="45.94915" lon="-1.08575">
        <ele>7.3</ele>
        <time>2021-11-12T11:43:49Z</time>
      </trkpt>
      <trkpt lat="45.94912" lon="-1.08451">
        <ele>5.4</ele>
        <time>2021-11-12T11:43:57Z</time>
      </trkpt>
      <trkpt lat="45.94909" lon="-1.08403">
        <ele>5.8</ele>
        <time>2021-11-12T11:44:01Z</time>
      </trkpt>
      <trkpt lat="45.949" lon="-1.083">
        <ele>5.2</ele>
        <time>2021-11-12T11:44:08Z</time>
      </trkpt>
      <trkpt lat="45.94906" lon="-1.08193">
        <ele>3.4</ele>
        <time>2021-11-12T11:44:15Z</time>
      </trkpt>
      <trkpt lat="45.94917" lon="-1.08094">
        <ele>2.4</ele>
        <time>2021-11-12T11:44:22Z</time>
      </trkpt>
      <trkpt lat="45.94917" lon="-1.0799">
        <ele>-0.2</ele>
        <time>2021-11-12T11:44:29Z</time>
      </trkpt>
      <trkpt lat="45.94911" lon="-1.07894">
        <ele>-1.1</ele>
        <time>2021-11-12T11:44:37Z</time>
      </trkpt>
      <trkpt lat="45.94893" lon="-1.07771">
        <ele>-0.4</ele>
        <time>2021-11-12T11:44:47Z</time>
      </trkpt>
      <trkpt lat="45.9488" lon="-1.07669">
        <ele>4.5</ele>
        <time>2021-11-12T11:44:55Z</time>
      </trkpt>
      <trkpt lat="45.94856" lon="-1.07464">
        <ele>6.5</ele>
        <time>2021-11-12T11:45:09Z</time>
      </trkpt>
      <trkpt lat="45.94812" lon="-1.07218">
        <ele>5.5</ele>
        <time>2021-11-12T11:45:26Z</time>
      </trkpt>
      <trkpt lat="45.94632" lon="-1.06999">
        <ele>4.9</ele>
        <time>2021-11-12T11:45:47Z</time>
      </trkpt>
      <trkpt lat="45.94575" lon="-1.06923">
        <ele>3.5</ele>
        <time>2021-11-12T11:46:01Z</time>
      </trkpt>
      <trkpt lat="45.94605" lon="-1.0682">
        <ele>2.7</ele>
        <time>2021-11-12T11:46:08Z</time>
      </trkpt>
      <trkpt lat="45.94656" lon="-1.0666">
        <ele>2</ele>
        <time>2021-11-12T11:46:19Z</time>
      </trkpt>
      <trkpt lat="45.94647" lon="-1.06538">
        <ele>4.5</ele>
        <time>2021-11-12T11:46:27Z</time>
      </trkpt>
      <trkpt lat="45.94627" lon="-1.06438">
        <ele>8</ele>
        <time>2021-11-12T11:46:34Z</time>
      </trkpt>
      <trkpt lat="45.9461" lon="-1.06324">
        <ele>8.5</ele>
        <time>2021-11-12T11:46:41Z</time>
      </trkpt>
      <trkpt lat="45.94534" lon="-1.06164">
        <ele>7.7</ele>
        <time>2021-11-12T11:46:52Z</time>
      </trkpt>
      <trkpt lat="45.94508" lon="-1.06124">
        <ele>7.1</ele>
        <time>2021-11-12T11:46:55Z</time>
      </trkpt>
      <trkpt lat="45.94483" lon="-1.06079">
        <ele>7</ele>
        <time>2021-11-12T11:46:59Z</time>
      </trkpt>
      <trkpt lat="45.94512" lon="-1.06028">
        <ele>5.8</ele>
        <time>2021-11-12T11:47:06Z</time>
      </trkpt>
      <trkpt lat="45.94578" lon="-1.05979">
        <ele>4.7</ele>
        <time>2021-11-12T11:47:13Z</time>
      </trkpt>
      <trkpt lat="45.94563" lon="-1.05883">
        <ele>2.6</ele>
        <time>2021-11-12T11:47:27Z</time>
      </trkpt>
      <trkpt lat="45.94607" lon="-1.05785">
        <ele>2.3</ele>
        <time>2021-11-12T11:47:39Z</time>
      </trkpt>
      <trkpt lat="45.94823" lon="-1.05531">
        <ele>0.5</ele>
        <time>2021-11-12T11:48:00Z</time>
      </trkpt>
      <trkpt lat="45.9496" lon="-1.05355">
        <ele>2.7</ele>
        <time>2021-11-12T11:48:21Z</time>
      </trkpt>
      <trkpt lat="45.94896" lon="-1.05296">
        <ele>1.9</ele>
        <time>2021-11-12T11:48:35Z</time>
      </trkpt>
      <trkpt lat="45.94887" lon="-1.05163">
        <ele>3.8</ele>
        <time>2021-11-12T11:48:46Z</time>
      </trkpt>
      <trkpt lat="45.94912" lon="-1.05131">
        <ele>6.2</ele>
        <time>2021-11-12T11:48:50Z</time>
      </trkpt>
      <trkpt lat="45.95041" lon="-1.04924">
        <ele>3.2</ele>
        <time>2021-11-12T11:49:10Z</time>
      </trkpt>
      <trkpt lat="45.95051" lon="-1.04747">
        <ele>1.5</ele>
        <time>2021-11-12T11:49:28Z</time>
      </trkpt>
      <trkpt lat="45.95085" lon="-1.04639">
        <ele>1.7</ele>
        <time>2021-11-12T11:49:46Z</time>
      </trkpt>
      <trkpt lat="45.95095" lon="-1.046">
        <ele>1</ele>
        <time>2021-11-12T11:49:50Z</time>
      </trkpt>
      <trkpt lat="45.95098" lon="-1.0453">
        <ele>2.3</ele>
        <time>2021-11-12T11:49:57Z</time>
      </trkpt>
      <trkpt lat="45.95098" lon="-1.04494">
        <ele>2.2</ele>
        <time>2021-11-12T11:50:00Z</time>
      </trkpt>
      <trkpt lat="45.95069" lon="-1.04391">
        <ele>3.2</ele>
        <time>2021-11-12T11:50:11Z</time>
      </trkpt>
      <trkpt lat="45.95015" lon="-1.04304">
        <ele>1.3</ele>
        <time>2021-11-12T11:50:21Z</time>
      </trkpt>
      <trkpt lat="45.95003" lon="-1.04285">
        <ele>2.1</ele>
        <time>2021-11-12T11:50:24Z</time>
      </trkpt>
      <trkpt lat="45.94995" lon="-1.04254">
        <ele>2.1</ele>
        <time>2021-11-12T11:50:28Z</time>
      </trkpt>
      <trkpt lat="45.95036" lon="-1.04142">
        <ele>4.9</ele>
        <time>2021-11-12T11:50:46Z</time>
      </trkpt>
      <trkpt lat="45.95235" lon="-1.04074">
        <ele>4.4</ele>
        <time>2021-11-12T11:51:01Z</time>
      </trkpt>
      <trkpt lat="45.95282" lon="-1.03893">
        <ele>3.8</ele>
        <time>2021-11-12T11:51:12Z</time>
      </trkpt>
      <trkpt lat="45.9533" lon="-1.0372">
        <ele>4.1</ele>
        <time>2021-11-12T11:51:20Z</time>
      </trkpt>
      <trkpt lat="45.95355" lon="-1.0367">
        <ele>3.5</ele>
        <time>2021-11-12T11:51:23Z</time>
      </trkpt>
      <trkpt lat="45.95364" lon="-1.03592">
        <ele>2.3</ele>
        <time>2021-11-12T11:51:30Z</time>
      </trkpt>
      <trkpt lat="45.95472" lon="-1.03477">
        <ele>1.8</ele>
        <time>2021-11-12T11:51:45Z</time>
      </trkpt>
      <trkpt lat="45.95487" lon="-1.0344">
        <ele>3.3</ele>
        <time>2021-11-12T11:51:48Z</time>
      </trkpt>
      <trkpt lat="45.95555" lon="-1.03386">
        <ele>5.2</ele>
        <time>2021-11-12T11:51:55Z</time>
      </trkpt>
      <trkpt lat="45.95587" lon="-1.03364">
        <ele>4.8</ele>
        <time>2021-11-12T11:51:58Z</time>
      </trkpt>
      <trkpt lat="45.95625" lon="-1.03334">
        <ele>5.3</ele>
        <time>2021-11-12T11:52:02Z</time>
      </trkpt>
      <trkpt lat="45.95657" lon="-1.0315">
        <ele>4.8</ele>
        <time>2021-11-12T11:52:17Z</time>
      </trkpt>
      <trkpt lat="45.95702" lon="-1.03096">
        <ele>4.8</ele>
        <time>2021-11-12T11:52:24Z</time>
      </trkpt>
      <trkpt lat="45.9573" lon="-1.03057">
        <ele>2.9</ele>
        <time>2021-11-12T11:52:28Z</time>
      </trkpt>
      <trkpt lat="45.95794" lon="-1.02996">
        <ele>1.3</ele>
        <time>2021-11-12T11:52:38Z</time>
      </trkpt>
      <trkpt lat="45.95843" lon="-1.02836">
        <ele>4.5</ele>
        <time>2021-11-12T11:52:49Z</time>
      </trkpt>
      <trkpt lat="45.95826" lon="-1.02701">
        <ele>2.7</ele>
        <time>2021-11-12T11:53:00Z</time>
      </trkpt>
      <trkpt lat="45.9579" lon="-1.02653">
        <ele>2.4</ele>
        <time>2021-11-12T11:53:04Z</time>
      </trkpt>
      <trkpt lat="45.95768" lon="-1.02627">
        <ele>3.3</ele>
        <time>2021-11-12T11:53:07Z</time>
      </trkpt>
      <trkpt lat="45.95718" lon="-1.02475">
        <ele>4.9</ele>
        <time>2021-11-12T11:53:15Z</time>
      </trkpt>
      <trkpt lat="45.957" lon="-1.02395">
        <ele>5.2</ele>
        <time>2021-11-12T11:53:19Z</time>
      </trkpt>
      <trkpt lat="45.95685" lon="-1.02342">
        <ele>3.7</ele>
        <time>2021-11-12T11:53:22Z</time>
      </trkpt>
      <trkpt lat="45.95677" lon="-1.023">
        <ele>3.6</ele>
        <time>2021-11-12T11:53:25Z</time>
      </trkpt>
      <trkpt lat="45.95691" lon="-1.02166">
        <ele>2.5</ele>
        <time>2021-11-12T11:53:33Z</time>
      </trkpt>
      <trkpt lat="45.95697" lon="-1.0202">
        <ele>2.3</ele>
        <time>2021-11-12T11:53:40Z</time>
      </trkpt>
      <trkpt lat="45.95615" lon="-1.01747">
        <ele>1.4</ele>
        <time>2021-11-12T11:53:55Z</time>
      </trkpt>
      <trkpt lat="45.9553" lon="-1.01653">
        <ele>2.8</ele>
        <time>2021-11-12T11:54:10Z</time>
      </trkpt>
      <trkpt lat="45.95531" lon="-1.01588">
        <ele>7.2</ele>
        <time>2021-11-12T11:54:14Z</time>
      </trkpt>
      <trkpt lat="45.95529" lon="-1.01525">
        <ele>6.2</ele>
        <time>2021-11-12T11:54:17Z</time>
      </trkpt>
      <trkpt lat="45.95495" lon="-1.01344">
        <ele>5.2</ele>
        <time>2021-11-12T11:54:25Z</time>
      </trkpt>
      <trkpt lat="45.95447" lon="-1.01175">
        <ele>3.6</ele>
        <time>2021-11-12T11:54:33Z</time>
      </trkpt>
      <trkpt lat="45.9543" lon="-1.01134">
        <ele>3.9</ele>
        <time>2021-11-12T11:54:36Z</time>
      </trkpt>
      <trkpt lat="45.95288" lon="-1.01065">
        <ele>3.1</ele>
        <time>2021-11-12T11:54:47Z</time>
      </trkpt>
      <trkpt lat="45.95119" lon="-1.01029">
        <ele>3.2</ele>
        <time>2021-11-12T11:54:59Z</time>
      </trkpt>
      <trkpt lat="45.95005" lon="-1.01081">
        <ele>1.6</ele>
        <time>2021-11-12T11:55:09Z</time>
      </trkpt>
      <trkpt lat="45.94901" lon="-1.01158">
        <ele>3.8</ele>
        <time>2021-11-12T11:55:17Z</time>
      </trkpt>
      <trkpt lat="45.94837" lon="-1.01206">
        <ele>3.6</ele>
        <time>2021-11-12T11:55:21Z</time>
      </trkpt>
      <trkpt lat="45.94793" lon="-1.01252">
        <ele>2.8</ele>
        <time>2021-11-12T11:55:24Z</time>
      </trkpt>
      <trkpt lat="45.947" lon="-1.01353">
        <ele>2.2</ele>
        <time>2021-11-12T11:55:31Z</time>
      </trkpt>
      <trkpt lat="45.94609" lon="-1.01517">
        <ele>1.5</ele>
        <time>2021-11-12T11:55:39Z</time>
      </trkpt>
      <trkpt lat="45.94573" lon="-1.01587">
        <ele>2.8</ele>
        <time>2021-11-12T11:55:43Z</time>
      </trkpt>
      <trkpt lat="45.94474" lon="-1.01706">
        <ele>3.9</ele>
        <time>2021-11-12T11:55:50Z</time>
      </trkpt>
      <trkpt lat="45.94299" lon="-1.01878">
        <ele>2.5</ele>
        <time>2021-11-12T11:56:04Z</time>
      </trkpt>
      <trkpt lat="45.94134" lon="-1.02042">
        <ele>3.7</ele>
        <time>2021-11-12T11:56:18Z</time>
      </trkpt>
      <trkpt lat="45.94048" lon="-1.02129">
        <ele>2.4</ele>
        <time>2021-11-12T11:56:25Z</time>
      </trkpt>
      <trkpt lat="45.93974" lon="-1.02063">
        <ele>3.3</ele>
        <time>2021-11-12T11:56:36Z</time>
      </trkpt>
      <trkpt lat="45.93891" lon="-1.02065">
        <ele>1.7</ele>
        <time>2021-11-12T11:56:44Z</time>
      </trkpt>
      <trkpt lat="45.93662" lon="-1.02253">
        <ele>0.7</ele>
        <time>2021-11-12T11:56:58Z</time>
      </trkpt>
      <trkpt lat="45.93521" lon="-1.02385">
        <ele>1.3</ele>
        <time>2021-11-12T11:57:09Z</time>
      </trkpt>
      <trkpt lat="45.93402" lon="-1.02458">
        <ele>2.1</ele>
        <time>2021-11-12T11:57:23Z</time>
      </trkpt>
      <trkpt lat="45.93363" lon="-1.02363">
        <ele>8.4</ele>
        <time>2021-11-12T11:57:37Z</time>
      </trkpt>
      <trkpt lat="45.9331" lon="-1.02249">
        <ele>12.1</ele>
        <time>2021-11-12T11:57:45Z</time>
      </trkpt>
      <trkpt lat="45.93215" lon="-1.0217">
        <ele>9.7</ele>
        <time>2021-11-12T11:57:55Z</time>
      </trkpt>
      <trkpt lat="45.9312" lon="-1.02137">
        <ele>11.8</ele>
        <time>2021-11-12T11:58:02Z</time>
      </trkpt>
      <trkpt lat="45.93039" lon="-1.02109">
        <ele>14.3</ele>
        <time>2021-11-12T11:58:09Z</time>
      </trkpt>
      <trkpt lat="45.92986" lon="-1.02058">
        <ele>17.3</ele>
        <time>2021-11-12T11:58:16Z</time>
      </trkpt>
      <trkpt lat="45.92953" lon="-1.02009">
        <ele>17.9</ele>
        <time>2021-11-12T11:58:20Z</time>
      </trkpt>
      <trkpt lat="45.92887" lon="-1.0195">
        <ele>19.3</ele>
        <time>2021-11-12T11:58:27Z</time>
      </trkpt>
      <trkpt lat="45.92822" lon="-1.01906">
        <ele>17.6</ele>
        <time>2021-11-12T11:58:35Z</time>
      </trkpt>
      <trkpt lat="45.92801" lon="-1.019">
        <ele>17.5</ele>
        <time>2021-11-12T11:58:39Z</time>
      </trkpt>
      <trkpt lat="45.92838" lon="-1.01861">
        <ele>18.3</ele>
        <time>2021-11-12T11:58:49Z</time>
      </trkpt>
      <trkpt lat="45.93035" lon="-1.01703">
        <ele>18.3</ele>
        <time>2021-11-12T11:59:06Z</time>
      </trkpt>
      <trkpt lat="45.93074" lon="-1.01656">
        <ele>17.2</ele>
        <time>2021-11-12T11:59:10Z</time>
      </trkpt>
      <trkpt lat="45.93107" lon="-1.0162">
        <ele>15.3</ele>
        <time>2021-11-12T11:59:14Z</time>
      </trkpt>
      <trkpt lat="45.93134" lon="-1.016">
        <ele>15</ele>
        <time>2021-11-12T11:59:17Z</time>
      </trkpt>
      <trkpt lat="45.93187" lon="-1.01561">
        <ele>10.8</ele>
        <time>2021-11-12T11:59:24Z</time>
      </trkpt>
      <trkpt lat="45.9323" lon="-1.01528">
        <ele>7</ele>
        <time>2021-11-12T11:59:30Z</time>
      </trkpt>
      <trkpt lat="45.93262" lon="-1.01502">
        <ele>3.6</ele>
        <time>2021-11-12T11:59:34Z</time>
      </trkpt>
      <trkpt lat="45.93263" lon="-1.0136">
        <ele>5.8</ele>
        <time>2021-11-12T11:59:49Z</time>
      </trkpt>
      <trkpt lat="45.93228" lon="-1.01287">
        <ele>5.4</ele>
        <time>2021-11-12T11:59:53Z</time>
      </trkpt>
      <trkpt lat="45.932" lon="-1.01229">
        <ele>6.5</ele>
        <time>2021-11-12T11:59:57Z</time>
      </trkpt>
      <trkpt lat="45.93051" lon="-1.01059">
        <ele>6.6</ele>
        <time>2021-11-12T12:00:10Z</time>
      </trkpt>
      <trkpt lat="45.92982" lon="-1.00957">
        <ele>4.7</ele>
        <time>2021-11-12T12:00:17Z</time>
      </trkpt>
      <trkpt lat="45.92956" lon="-1.0092">
        <ele>3.8</ele>
        <time>2021-11-12T12:00:21Z</time>
      </trkpt>
      <trkpt lat="45.92926" lon="-1.00902">
        <ele>3.3</ele>
        <time>2021-11-12T12:00:24Z</time>
      </trkpt>
      <trkpt lat="45.92886" lon="-1.00876">
        <ele>3.4</ele>
        <time>2021-11-12T12:00:28Z</time>
      </trkpt>
      <trkpt lat="45.92837" lon="-1.00797">
        <ele>3.4</ele>
        <time>2021-11-12T12:00:35Z</time>
      </trkpt>
      <trkpt lat="45.92811" lon="-1.00788">
        <ele>5</ele>
        <time>2021-11-12T12:00:42Z</time>
      </trkpt>
      <trkpt lat="45.92777" lon="-1.00781">
        <ele>7.3</ele>
        <time>2021-11-12T12:00:46Z</time>
      </trkpt>
      <trkpt lat="45.92747" lon="-1.00778">
        <ele>9.2</ele>
        <time>2021-11-12T12:00:49Z</time>
      </trkpt>
      <trkpt lat="45.92705" lon="-1.00823">
        <ele>12.8</ele>
        <time>2021-11-12T12:00:56Z</time>
      </trkpt>
      <trkpt lat="45.92684" lon="-1.0089">
        <ele>19</ele>
        <time>2021-11-12T12:01:03Z</time>
      </trkpt>
      <trkpt lat="45.92677" lon="-1.00925">
        <ele>22.3</ele>
        <time>2021-11-12T12:01:06Z</time>
      </trkpt>
      <trkpt lat="45.92669" lon="-1.00981">
        <ele>23.3</ele>
        <time>2021-11-12T12:01:10Z</time>
      </trkpt>
      <trkpt lat="45.92658" lon="-1.01047">
        <ele>63.7</ele>
        <time>2021-11-12T12:01:24Z</time>
      </trkpt>
      <trkpt lat="45.92654" lon="-1.01042">
        <ele>63.5</ele>
        <time>2021-11-12T12:01:28Z</time>
      </trkpt>
      <trkpt lat="45.92607" lon="-1.00915">
        <ele>63.6</ele>
        <time>2021-11-12T12:01:38Z</time>
      </trkpt>
      <trkpt lat="45.92582" lon="-1.00842">
        <ele>63.6</ele>
        <time>2021-11-12T12:01:45Z</time>
      </trkpt>
      <trkpt lat="45.92524" lon="-1.0079">
        <ele>63.6</ele>
        <time>2021-11-12T12:01:53Z</time>
      </trkpt>
      <trkpt lat="45.92473" lon="-1.00772">
        <ele>63.5</ele>
        <time>2021-11-12T12:02:01Z</time>
      </trkpt>
      <trkpt lat="45.92433" lon="-1.00676">
        <ele>63.6</ele>
        <time>2021-11-12T12:02:09Z</time>
      </trkpt>
      <trkpt lat="45.92406" lon="-1.00585">
        <ele>63.6</ele>
        <time>2021-11-12T12:02:16Z</time>
      </trkpt>
      <trkpt lat="45.9236" lon="-1.00501">
        <ele>63.7</ele>
        <time>2021-11-12T12:02:23Z</time>
      </trkpt>
      <trkpt lat="45.92309" lon="-1.00432">
        <ele>17.4</ele>
        <time>2021-11-12T12:02:29Z</time>
      </trkpt>
      <trkpt lat="45.92274" lon="-1.00389">
        <ele>17.1</ele>
        <time>2021-11-12T12:02:33Z</time>
      </trkpt>
      <trkpt lat="45.9212" lon="-1.003">
        <ele>16.4</ele>
        <time>2021-11-12T12:02:51Z</time>
      </trkpt>
      <trkpt lat="45.92063" lon="-1.00273">
        <ele>12.9</ele>
        <time>2021-11-12T12:02:55Z</time>
      </trkpt>
      <trkpt lat="45.91941" lon="-1.00212">
        <ele>10.2</ele>
        <time>2021-11-12T12:03:03Z</time>
      </trkpt>
      <trkpt lat="45.9186" lon="-1.00092">
        <ele>14.2</ele>
        <time>2021-11-12T12:03:10Z</time>
      </trkpt>
      <trkpt lat="45.91742" lon="-0.99865">
        <ele>16.6</ele>
        <time>2021-11-12T12:03:21Z</time>
      </trkpt>
      <trkpt lat="45.91712" lon="-0.99791">
        <ele>15.2</ele>
        <time>2021-11-12T12:03:24Z</time>
      </trkpt>
      <trkpt lat="45.91676" lon="-0.99692">
        <ele>12</ele>
        <time>2021-11-12T12:03:28Z</time>
      </trkpt>
      <trkpt lat="45.91648" lon="-0.99616">
        <ele>8.5</ele>
        <time>2021-11-12T12:03:31Z</time>
      </trkpt>
      <trkpt lat="45.91579" lon="-0.99427">
        <ele>7.6</ele>
        <time>2021-11-12T12:03:39Z</time>
      </trkpt>
      <trkpt lat="45.91512" lon="-0.99243">
        <ele>12.3</ele>
        <time>2021-11-12T12:03:47Z</time>
      </trkpt>
      <trkpt lat="45.91478" lon="-0.9915">
        <ele>12.5</ele>
        <time>2021-11-12T12:03:51Z</time>
      </trkpt>
      <trkpt lat="45.91275" lon="-0.98596">
        <ele>13.5</ele>
        <time>2021-11-12T12:04:14Z</time>
      </trkpt>
      <trkpt lat="45.91216" lon="-0.98435">
        <ele>10.7</ele>
        <time>2021-11-12T12:04:21Z</time>
      </trkpt>
      <trkpt lat="45.91177" lon="-0.98163">
        <ele>7.4</ele>
        <time>2021-11-12T12:04:32Z</time>
      </trkpt>
      <trkpt lat="45.91173" lon="-0.98031">
        <ele>10.4</ele>
        <time>2021-11-12T12:04:39Z</time>
      </trkpt>
      <trkpt lat="45.91061" lon="-0.97795">
        <ele>13.6</ele>
        <time>2021-11-12T12:04:55Z</time>
      </trkpt>
      <trkpt lat="45.90853" lon="-0.97441">
        <ele>16.6</ele>
        <time>2021-11-12T12:05:13Z</time>
      </trkpt>
      <trkpt lat="45.90756" lon="-0.9719">
        <ele>12.9</ele>
        <time>2021-11-12T12:05:27Z</time>
      </trkpt>
      <trkpt lat="45.90736" lon="-0.97136">
        <ele>14</ele>
        <time>2021-11-12T12:05:30Z</time>
      </trkpt>
      <trkpt lat="45.90646" lon="-0.96888">
        <ele>14.7</ele>
        <time>2021-11-12T12:05:47Z</time>
      </trkpt>
      <trkpt lat="45.90617" lon="-0.96785">
        <ele>14.6</ele>
        <time>2021-11-12T12:06:07Z</time>
      </trkpt>
      <trkpt lat="45.90613" lon="-0.96774">
        <ele>15.7</ele>
        <time>2021-11-12T12:06:15Z</time>
      </trkpt>
      <trkpt lat="45.90609" lon="-0.96762">
        <ele>17.6</ele>
        <time>2021-11-12T12:06:33Z</time>
        <extensions>
          <visugpx:TrkExtension xmlns:visugpx="https://www.visugpx.com/editgpx/">
            <visugpx:node>1</visugpx:node>
            </visugpx:TrkExtension>
        </extensions>
      </trkpt>
      <trkpt lat="45.90599" lon="-0.96738">
        <ele>15.4</ele>
      </trkpt>
      <trkpt lat="45.90596" lon="-0.9674">
        <ele>15.4</ele>
      </trkpt>
      <trkpt lat="45.90586" lon="-0.96739">
        <ele>15.7</ele>
      </trkpt>
      <trkpt lat="45.90578" lon="-0.9673">
        <ele>16</ele>
      </trkpt>
      <trkpt lat="45.90577" lon="-0.96727">
        <ele>16.2</ele>
      </trkpt>
      <trkpt lat="45.90576" lon="-0.96722">
        <ele>16.5</ele>
      </trkpt>
      <trkpt lat="45.90577" lon="-0.96717">
        <ele>16.3</ele>
      </trkpt>
      <trkpt lat="45.90577" lon="-0.96713">
        <ele>16.1</ele>
      </trkpt>
      <trkpt lat="45.90576" lon="-0.96707">
        <ele>15.6</ele>
      </trkpt>
      <trkpt lat="45.90571" lon="-0.96692">
        <ele>14.2</ele>
      </trkpt>
      <trkpt lat="45.9056" lon="-0.96668">
        <ele>13.8</ele>
      </trkpt>
      <trkpt lat="45.90539" lon="-0.96628">
        <ele>12.5</ele>
      </trkpt>
      <trkpt lat="45.90523" lon="-0.96597">
        <ele>14.7</ele>
      </trkpt>
      <trkpt lat="45.90511" lon="-0.96581">
        <ele>15</ele>
      </trkpt>
      <trkpt lat="45.90507" lon="-0.96578">
        <ele>15</ele>
      </trkpt>
      <trkpt lat="45.90504" lon="-0.96578">
        <ele>15</ele>
      </trkpt>
      <trkpt lat="45.90499" lon="-0.96576">
        <ele>14.9</ele>
      </trkpt>
      <trkpt lat="45.90495" lon="-0.96571">
        <ele>14.4</ele>
      </trkpt>
      <trkpt lat="45.90493" lon="-0.96567">
        <ele>14.1</ele>
      </trkpt>
      <trkpt lat="45.90492" lon="-0.96562">
        <ele>13.9</ele>
      </trkpt>
      <trkpt lat="45.90491" lon="-0.96556">
        <ele>13.7</ele>
      </trkpt>
      <trkpt lat="45.90494" lon="-0.96545">
        <ele>13.9</ele>
      </trkpt>
      <trkpt lat="45.90497" lon="-0.9654">
        <ele>14.1</ele>
      </trkpt>
      <trkpt lat="45.90474" lon="-0.96495">
        <ele>12.7</ele>
      </trkpt>
      <trkpt lat="45.90467" lon="-0.9648">
        <ele>12.2</ele>
      </trkpt>
      <trkpt lat="45.90455" lon="-0.96444">
        <ele>11.6</ele>
      </trkpt>
      <trkpt lat="45.90428" lon="-0.96351">
        <ele>11.4</ele>
      </trkpt>
      <trkpt lat="45.90417" lon="-0.96309">
        <ele>12</ele>
      </trkpt>
      <trkpt lat="45.9041" lon="-0.96258">
        <ele>11</ele>
      </trkpt>
      <trkpt lat="45.90403" lon="-0.96203">
        <ele>10.6</ele>
      </trkpt>
      <trkpt lat="45.90388" lon="-0.96146">
        <ele>12</ele>
      </trkpt>
      <trkpt lat="45.90371" lon="-0.96104">
        <ele>11.6</ele>
      </trkpt>
      <trkpt lat="45.90359" lon="-0.96086">
        <ele>11.9</ele>
      </trkpt>
      <trkpt lat="45.90347" lon="-0.96075">
        <ele>11.3</ele>
      </trkpt>
      <trkpt lat="45.90311" lon="-0.96054">
        <ele>11</ele>
      </trkpt>
      <trkpt lat="45.90299" lon="-0.96038">
        <ele>10.9</ele>
      </trkpt>
      <trkpt lat="45.90291" lon="-0.96021">
        <ele>10.9</ele>
      </trkpt>
      <trkpt lat="45.90287" lon="-0.96007">
        <ele>10.8</ele>
      </trkpt>
      <trkpt lat="45.90286" lon="-0.96001">
        <ele>10.7</ele>
      </trkpt>
      <trkpt lat="45.90286" lon="-0.95993">
        <ele>10.5</ele>
      </trkpt>
      <trkpt lat="45.90283" lon="-0.95993">
        <ele>10.6</ele>
      </trkpt>
      <trkpt lat="45.90278" lon="-0.95985">
        <ele>10.5</ele>
      </trkpt>
      <trkpt lat="45.90278" lon="-0.95981">
        <ele>10.3</ele>
      </trkpt>
      <trkpt lat="45.90247" lon="-0.95981">
        <ele>10</ele>
      </trkpt>
      <trkpt lat="45.90166" lon="-0.95983">
        <ele>11</ele>
      </trkpt>
      <trkpt lat="45.90132" lon="-0.95984">
        <ele>11.1</ele>
      </trkpt>
      <trkpt lat="45.90104" lon="-0.95986">
        <ele>11.6</ele>
      </trkpt>
      <trkpt lat="45.9007" lon="-0.95987">
        <ele>12.3</ele>
      </trkpt>
      <trkpt lat="45.90057" lon="-0.95988">
        <ele>12.5</ele>
      </trkpt>
      <trkpt lat="45.90034" lon="-0.95988">
        <ele>12.1</ele>
      </trkpt>
      <trkpt lat="45.89965" lon="-0.95991">
        <ele>12.3</ele>
      </trkpt>
      <trkpt lat="45.89899" lon="-0.95994">
        <ele>13</ele>
      </trkpt>
      <trkpt lat="45.89833" lon="-0.95995">
        <ele>13.2</ele>
      </trkpt>
      <trkpt lat="45.89792" lon="-0.95996">
        <ele>13.5</ele>
      </trkpt>
      <trkpt lat="45.89751" lon="-0.95998">
        <ele>14</ele>
      </trkpt>
      <trkpt lat="45.89719" lon="-0.95999">
        <ele>14</ele>
      </trkpt>
      <trkpt lat="45.8959" lon="-0.96005">
        <ele>14</ele>
      </trkpt>
      <trkpt lat="45.89467" lon="-0.96011">
        <ele>13</ele>
      </trkpt>
      <trkpt lat="45.89345" lon="-0.96014">
        <ele>12.5</ele>
      </trkpt>
      <trkpt lat="45.89336" lon="-0.96014">
        <ele>12.5</ele>
      </trkpt>
      <trkpt lat="45.89082" lon="-0.96024">
        <ele>11</ele>
      </trkpt>
      <trkpt lat="45.89056" lon="-0.96024">
        <ele>11</ele>
      </trkpt>
      <trkpt lat="45.88988" lon="-0.96027">
        <ele>12</ele>
      </trkpt>
      <trkpt lat="45.88791" lon="-0.96034">
        <ele>13</ele>
      </trkpt>
      <trkpt lat="45.88778" lon="-0.96037">
        <ele>13</ele>
      </trkpt>
      <trkpt lat="45.88769" lon="-0.96045">
        <ele>13.3</ele>
      </trkpt>
      <trkpt lat="45.88759" lon="-0.96037">
        <ele>13.7</ele>
      </trkpt>
      <trkpt lat="45.88748" lon="-0.96034">
        <ele>14</ele>
      </trkpt>
      <trkpt lat="45.88739" lon="-0.96036">
        <ele>14</ele>
      </trkpt>
      <trkpt lat="45.88702" lon="-0.96037">
        <ele>14.2</ele>
      </trkpt>
      <trkpt lat="45.88665" lon="-0.96034">
        <ele>14.8</ele>
      </trkpt>
      <trkpt lat="45.88624" lon="-0.96027">
        <ele>15</ele>
      </trkpt>
      <trkpt lat="45.88549" lon="-0.96027">
        <ele>15</ele>
      </trkpt>
      <trkpt lat="45.8851" lon="-0.96034">
        <ele>14.3</ele>
      </trkpt>
      <trkpt lat="45.8846" lon="-0.96048">
        <ele>14</ele>
      </trkpt>
      <trkpt lat="45.88349" lon="-0.96093">
        <ele>12.8</ele>
      </trkpt>
      <trkpt lat="45.8833" lon="-0.96087">
        <ele>12.9</ele>
      </trkpt>
      <trkpt lat="45.88288" lon="-0.96075">
        <ele>11.4</ele>
      </trkpt>
      <trkpt lat="45.88184" lon="-0.95999">
        <ele>10.6</ele>
      </trkpt>
      <trkpt lat="45.88105" lon="-0.95912">
        <ele>8</ele>
      </trkpt>
      <trkpt lat="45.88095" lon="-0.95905">
        <ele>8</ele>
      </trkpt>
      <trkpt lat="45.88085" lon="-0.95909">
        <ele>8</ele>
      </trkpt>
      <trkpt lat="45.88071" lon="-0.9594">
        <ele>8.4</ele>
      </trkpt>
      <trkpt lat="45.88017" lon="-0.96008">
        <ele>10.3</ele>
      </trkpt>
      <trkpt lat="45.87919" lon="-0.96086">
        <ele>11</ele>
      </trkpt>
      <trkpt lat="45.87864" lon="-0.96122">
        <ele>11.1</ele>
      </trkpt>
      <trkpt lat="45.87843" lon="-0.96138">
        <ele>11</ele>
      </trkpt>
      <trkpt lat="45.87838" lon="-0.96141">
        <ele>11</ele>
      </trkpt>
      <trkpt lat="45.87806" lon="-0.96167">
        <ele>11</ele>
      </trkpt>
      <trkpt lat="45.87776" lon="-0.96195">
        <ele>11</ele>
      </trkpt>
      <trkpt lat="45.8775" lon="-0.96222">
        <ele>11</ele>
      </trkpt>
      <trkpt lat="45.87734" lon="-0.96236">
        <ele>10.7</ele>
      </trkpt>
      <trkpt lat="45.87692" lon="-0.96268">
        <ele>9.9</ele>
      </trkpt>
      <trkpt lat="45.87679" lon="-0.96277">
        <ele>9.4</ele>
      </trkpt>
      <trkpt lat="45.87674" lon="-0.96281">
        <ele>9.3</ele>
      </trkpt>
      <trkpt lat="45.87658" lon="-0.96302">
        <ele>9.6</ele>
      </trkpt>
      <trkpt lat="45.87654" lon="-0.96308">
        <ele>9.6</ele>
      </trkpt>
      <trkpt lat="45.87651" lon="-0.9632">
        <ele>9.7</ele>
      </trkpt>
      <trkpt lat="45.87644" lon="-0.96358">
        <ele>10</ele>
      </trkpt>
      <trkpt lat="45.87606" lon="-0.96341">
        <ele>9.5</ele>
      </trkpt>
      <trkpt lat="45.87598" lon="-0.96338">
        <ele>8.4</ele>
      </trkpt>
      <trkpt lat="45.87584" lon="-0.96332">
        <ele>6</ele>
      </trkpt>
      <trkpt lat="45.87556" lon="-0.9632">
        <ele>7.9</ele>
      </trkpt>
      <trkpt lat="45.87546" lon="-0.96315">
        <ele>8.6</ele>
      </trkpt>
      <trkpt lat="45.87536" lon="-0.96311">
        <ele>8.9</ele>
      </trkpt>
      <trkpt lat="45.87534" lon="-0.9631">
        <ele>8.9</ele>
      </trkpt>
      <trkpt lat="45.87527" lon="-0.96307">
        <ele>9.1</ele>
      </trkpt>
      <trkpt lat="45.87514" lon="-0.96302">
        <ele>9.9</ele>
      </trkpt>
      <trkpt lat="45.87505" lon="-0.96297">
        <ele>10.6</ele>
      </trkpt>
      <trkpt lat="45.87501" lon="-0.96296">
        <ele>10.9</ele>
      </trkpt>
      <trkpt lat="45.87503" lon="-0.96292">
        <ele>10.7</ele>
      </trkpt>
      <trkpt lat="45.87511" lon="-0.96271">
        <ele>9.8</ele>
      </trkpt>
      <trkpt lat="45.87512" lon="-0.96267">
        <ele>9.7</ele>
      </trkpt>
      <trkpt lat="45.87519" lon="-0.96253">
        <ele>8.9</ele>
      </trkpt>
      <trkpt lat="45.87523" lon="-0.96238">
        <ele>8.9</ele>
      </trkpt>
      <trkpt lat="45.87528" lon="-0.96214">
        <ele>9.3</ele>
      </trkpt>
      <trkpt lat="45.87556" lon="-0.96068">
        <ele>8</ele>
      </trkpt>
      <trkpt lat="45.87571" lon="-0.95996">
        <ele>7.4</ele>
      </trkpt>
      <trkpt lat="45.87575" lon="-0.95968">
        <ele>7.3</ele>
      </trkpt>
      <trkpt lat="45.87577" lon="-0.95957">
        <ele>7.2</ele>
      </trkpt>
      <trkpt lat="45.87577" lon="-0.95943">
        <ele>7.2</ele>
      </trkpt>
      <trkpt lat="45.87574" lon="-0.95921">
        <ele>7.3</ele>
      </trkpt>
      <trkpt lat="45.8757" lon="-0.95911">
        <ele>7.4</ele>
      </trkpt>
      <trkpt lat="45.87555" lon="-0.95876">
        <ele>7.6</ele>
      </trkpt>
      <trkpt lat="45.87544" lon="-0.95848">
        <ele>7.8</ele>
      </trkpt>
      <trkpt lat="45.8753" lon="-0.95806">
        <ele>8.8</ele>
      </trkpt>
      <trkpt lat="45.87526" lon="-0.95787">
        <ele>9</ele>
      </trkpt>
      <trkpt lat="45.87524" lon="-0.95768">
        <ele>8.6</ele>
      </trkpt>
      <trkpt lat="45.87523" lon="-0.95761">
        <ele>8.4</ele>
      </trkpt>
      <trkpt lat="45.87522" lon="-0.95742">
        <ele>7.8</ele>
      </trkpt>
      <trkpt lat="45.87517" lon="-0.95679">
        <ele>6.8</ele>
      </trkpt>
      <trkpt lat="45.87515" lon="-0.95644">
        <ele>6.5</ele>
      </trkpt>
      <trkpt lat="45.87514" lon="-0.95617">
        <ele>7.3</ele>
      </trkpt>
      <trkpt lat="45.87515" lon="-0.95559">
        <ele>8.9</ele>
      </trkpt>
      <trkpt lat="45.8752" lon="-0.95472">
        <ele>10.3</ele>
      </trkpt>
      <trkpt lat="45.87519" lon="-0.9544">
        <ele>10.7</ele>
      </trkpt>
      <trkpt lat="45.8751" lon="-0.95412">
        <ele>11.7</ele>
      </trkpt>
      <trkpt lat="45.87492" lon="-0.95382">
        <ele>12.1</ele>
      </trkpt>
      <trkpt lat="45.87486" lon="-0.95375">
        <ele>12.3</ele>
      </trkpt>
      <trkpt lat="45.87482" lon="-0.95372">
        <ele>12.4</ele>
      </trkpt>
      <trkpt lat="45.8749" lon="-0.95334">
        <ele>12.4</ele>
      </trkpt>
      <trkpt lat="45.87499" lon="-0.95259">
        <ele>12</ele>
      </trkpt>
      <trkpt lat="45.87503" lon="-0.95098">
        <ele>11</ele>
      </trkpt>
      <trkpt lat="45.87505" lon="-0.95082">
        <ele>11</ele>
      </trkpt>
      <trkpt lat="45.87503" lon="-0.95081">
        <ele>10.9</ele>
      </trkpt>
      <trkpt lat="45.87499" lon="-0.95075">
        <ele>10.7</ele>
      </trkpt>
      <trkpt lat="45.87499" lon="-0.95071">
        <ele>10.6</ele>
      </trkpt>
      <trkpt lat="45.875" lon="-0.95067">
        <ele>10.4</ele>
      </trkpt>
      <trkpt lat="45.87485" lon="-0.95062">
        <ele>10.6</ele>
      </trkpt>
      <trkpt lat="45.8746" lon="-0.95056">
        <ele>10.6</ele>
      </trkpt>
      <trkpt lat="45.8745" lon="-0.95049">
        <ele>10.2</ele>
      </trkpt>
      <trkpt lat="45.87439" lon="-0.95035">
        <ele>9.9</ele>
      </trkpt>
      <trkpt lat="45.87384" lon="-0.94917">
        <ele>6.2</ele>
      </trkpt>
      <trkpt lat="45.87371" lon="-0.94897">
        <ele>6.6</ele>
      </trkpt>
      <trkpt lat="45.87358" lon="-0.9488">
        <ele>7.5</ele>
      </trkpt>
      <trkpt lat="45.87352" lon="-0.94872">
        <ele>7.9</ele>
      </trkpt>
      <trkpt lat="45.8733" lon="-0.94854">
        <ele>8.1</ele>
      </trkpt>
      <trkpt lat="45.87307" lon="-0.94845">
        <ele>8.9</ele>
      </trkpt>
      <trkpt lat="45.8728" lon="-0.94845">
        <ele>9.9</ele>
      </trkpt>
      <trkpt lat="45.87274" lon="-0.94845">
        <ele>10</ele>
      </trkpt>
      <trkpt lat="45.87249" lon="-0.94846">
        <ele>10</ele>
      </trkpt>
      <trkpt lat="45.8722" lon="-0.94844">
        <ele>10.4</ele>
      </trkpt>
      <trkpt lat="45.87215" lon="-0.94841">
        <ele>10.5</ele>
      </trkpt>
      <trkpt lat="45.87203" lon="-0.94819">
        <ele>10.7</ele>
      </trkpt>
      <trkpt lat="45.8719" lon="-0.94784">
        <ele>11</ele>
      </trkpt>
      <trkpt lat="45.87181" lon="-0.9475">
        <ele>11</ele>
      </trkpt>
      <trkpt lat="45.87175" lon="-0.94722">
        <ele>10.7</ele>
      </trkpt>
      <trkpt lat="45.87174" lon="-0.94694">
        <ele>10.7</ele>
      </trkpt>
      <trkpt lat="45.87178" lon="-0.94637">
        <ele>10.6</ele>
      </trkpt>
      <trkpt lat="45.87176" lon="-0.94614">
        <ele>10.7</ele>
      </trkpt>
      <trkpt lat="45.87154" lon="-0.94516">
        <ele>8.6</ele>
      </trkpt>
      <trkpt lat="45.87146" lon="-0.94454">
        <ele>6.9</ele>
      </trkpt>
      <trkpt lat="45.87138" lon="-0.94394">
        <ele>8</ele>
      </trkpt>
      <trkpt lat="45.87135" lon="-0.94336">
        <ele>9.9</ele>
      </trkpt>
      <trkpt lat="45.87137" lon="-0.9426">
        <ele>10.6</ele>
      </trkpt>
      <trkpt lat="45.87129" lon="-0.942">
        <ele>11.3</ele>
      </trkpt>
      <trkpt lat="45.87139" lon="-0.94111">
        <ele>13</ele>
      </trkpt>
      <trkpt lat="45.87137" lon="-0.94094">
        <ele>13</ele>
      </trkpt>
      <trkpt lat="45.87135" lon="-0.94071">
        <ele>13.4</ele>
      </trkpt>
      <trkpt lat="45.87134" lon="-0.94065">
        <ele>13.5</ele>
      </trkpt>
      <trkpt lat="45.87125" lon="-0.94031">
        <ele>13.5</ele>
      </trkpt>
      <trkpt lat="45.87089" lon="-0.93926">
        <ele>14</ele>
      </trkpt>
      <trkpt lat="45.87081" lon="-0.93887">
        <ele>14</ele>
      </trkpt>
      <trkpt lat="45.8708" lon="-0.93869">
        <ele>14.6</ele>
      </trkpt>
      <trkpt lat="45.87079" lon="-0.93864">
        <ele>14.7</ele>
      </trkpt>
      <trkpt lat="45.87062" lon="-0.93741">
        <ele>15.8</ele>
      </trkpt>
      <trkpt lat="45.87056" lon="-0.93716">
        <ele>16</ele>
      </trkpt>
      <trkpt lat="45.87048" lon="-0.93695">
        <ele>16</ele>
      </trkpt>
      <trkpt lat="45.86966" lon="-0.93519">
        <ele>17</ele>
      </trkpt>
      <trkpt lat="45.86957" lon="-0.93499">
        <ele>17</ele>
      </trkpt>
      <trkpt lat="45.86946" lon="-0.93435">
        <ele>17</ele>
      </trkpt>
      <trkpt lat="45.86918" lon="-0.93227">
        <ele>18</ele>
      </trkpt>
      <trkpt lat="45.86868" lon="-0.92871">
        <ele>16.5</ele>
      </trkpt>
      <trkpt lat="45.86857" lon="-0.92808">
        <ele>16.1</ele>
      </trkpt>
      <trkpt lat="45.86849" lon="-0.92781">
        <ele>16</ele>
      </trkpt>
      <trkpt lat="45.8666" lon="-0.9223">
        <ele>6.5</ele>
      </trkpt>
      <trkpt lat="45.86655" lon="-0.92214">
        <ele>6</ele>
      </trkpt>
      <trkpt lat="45.86652" lon="-0.92207">
        <ele>5.7</ele>
      </trkpt>
      <trkpt lat="45.86632" lon="-0.92147">
        <ele>5</ele>
      </trkpt>
      <trkpt lat="45.866" lon="-0.92056">
        <ele>10</ele>
      </trkpt>
      <trkpt lat="45.86585" lon="-0.92027">
        <ele>11.1</ele>
      </trkpt>
      <trkpt lat="45.86574" lon="-0.92006">
        <ele>13.5</ele>
      </trkpt>
      <trkpt lat="45.86556" lon="-0.91981">
        <ele>14.7</ele>
      </trkpt>
      <trkpt lat="45.86487" lon="-0.91879">
        <ele>18.2</ele>
      </trkpt>
      <trkpt lat="45.86351" lon="-0.91724">
        <ele>19.9</ele>
      </trkpt>
      <trkpt lat="45.86307" lon="-0.91675">
        <ele>20</ele>
      </trkpt>
      <trkpt lat="45.86073" lon="-0.91413">
        <ele>16.5</ele>
      </trkpt>
      <trkpt lat="45.86038" lon="-0.91375">
        <ele>16.1</ele>
      </trkpt>
      <trkpt lat="45.86026" lon="-0.91356">
        <ele>17</ele>
      </trkpt>
      <trkpt lat="45.86011" lon="-0.91326">
        <ele>17</ele>
      </trkpt>
      <trkpt lat="45.85918" lon="-0.91049">
        <ele>17.4</ele>
      </trkpt>
      <trkpt lat="45.85907" lon="-0.91018">
        <ele>16.1</ele>
      </trkpt>
      <trkpt lat="45.85902" lon="-0.91004">
        <ele>16.1</ele>
      </trkpt>
      <trkpt lat="45.8589" lon="-0.90977">
        <ele>16</ele>
      </trkpt>
      <trkpt lat="45.85875" lon="-0.90954">
        <ele>15.5</ele>
      </trkpt>
      <trkpt lat="45.85855" lon="-0.90919">
        <ele>15.8</ele>
      </trkpt>
      <trkpt lat="45.85846" lon="-0.90893">
        <ele>15.4</ele>
      </trkpt>
      <trkpt lat="45.85827" lon="-0.90812">
        <ele>14.5</ele>
      </trkpt>
      <trkpt lat="45.858" lon="-0.90723">
        <ele>13.4</ele>
      </trkpt>
      <trkpt lat="45.85743" lon="-0.90545">
        <ele>9.4</ele>
      </trkpt>
      <trkpt lat="45.85731" lon="-0.90502">
        <ele>8.1</ele>
      </trkpt>
      <trkpt lat="45.8573" lon="-0.90477">
        <ele>8</ele>
      </trkpt>
      <trkpt lat="45.85745" lon="-0.90412">
        <ele>7.7</ele>
      </trkpt>
      <trkpt lat="45.85748" lon="-0.90389">
        <ele>7</ele>
      </trkpt>
      <trkpt lat="45.85747" lon="-0.90362">
        <ele>7.7</ele>
      </trkpt>
      <trkpt lat="45.85748" lon="-0.90327">
        <ele>6.6</ele>
      </trkpt>
      <trkpt lat="45.85745" lon="-0.90298">
        <ele>5.4</ele>
      </trkpt>
      <trkpt lat="45.85742" lon="-0.90274">
        <ele>4.6</ele>
      </trkpt>
      <trkpt lat="45.8574" lon="-0.90269">
        <ele>4.4</ele>
      </trkpt>
      <trkpt lat="45.85734" lon="-0.90252">
        <ele>4</ele>
      </trkpt>
      <trkpt lat="45.85722" lon="-0.90234">
        <ele>4</ele>
      </trkpt>
      <trkpt lat="45.85703" lon="-0.90218">
        <ele>4</ele>
      </trkpt>
      <trkpt lat="45.856" lon="-0.9015">
        <ele>5.9</ele>
      </trkpt>
      <trkpt lat="45.85554" lon="-0.90121">
        <ele>9.4</ele>
      </trkpt>
      <trkpt lat="45.85513" lon="-0.90095">
        <ele>12.3</ele>
      </trkpt>
      <trkpt lat="45.85482" lon="-0.90077">
        <ele>14</ele>
      </trkpt>
      <trkpt lat="45.85434" lon="-0.90043">
        <ele>15.3</ele>
      </trkpt>
      <trkpt lat="45.85422" lon="-0.90032">
        <ele>15.2</ele>
      </trkpt>
      <trkpt lat="45.85411" lon="-0.90022">
        <ele>15.2</ele>
      </trkpt>
      <trkpt lat="45.85389" lon="-0.8999">
        <ele>15</ele>
      </trkpt>
      <trkpt lat="45.85377" lon="-0.89954">
        <ele>15.2</ele>
      </trkpt>
      <trkpt lat="45.85371" lon="-0.89896">
        <ele>16.3</ele>
      </trkpt>
      <trkpt lat="45.85367" lon="-0.89825">
        <ele>17</ele>
      </trkpt>
      <trkpt lat="45.85357" lon="-0.89684">
        <ele>18</ele>
      </trkpt>
      <trkpt lat="45.85344" lon="-0.89549">
        <ele>18</ele>
      </trkpt>
      <trkpt lat="45.8533" lon="-0.8951">
        <ele>17.9</ele>
      </trkpt>
      <trkpt lat="45.85324" lon="-0.89493">
        <ele>17.5</ele>
      </trkpt>
      <trkpt lat="45.85262" lon="-0.89396">
        <ele>15.4</ele>
      </trkpt>
      <trkpt lat="45.85218" lon="-0.89325">
        <ele>13.5</ele>
      </trkpt>
      <trkpt lat="45.85199" lon="-0.8928">
        <ele>12.2</ele>
      </trkpt>
      <trkpt lat="45.85188" lon="-0.89243">
        <ele>10.3</ele>
      </trkpt>
      <trkpt lat="45.8518" lon="-0.89206">
        <ele>9.2</ele>
      </trkpt>
      <trkpt lat="45.85173" lon="-0.89164">
        <ele>9.8</ele>
      </trkpt>
      <trkpt lat="45.85149" lon="-0.88917">
        <ele>19.6</ele>
      </trkpt>
      <trkpt lat="45.85149" lon="-0.8891">
        <ele>19.6</ele>
      </trkpt>
      <trkpt lat="45.85148" lon="-0.88903">
        <ele>19.7</ele>
      </trkpt>
      <trkpt lat="45.85123" lon="-0.8865">
        <ele>20.6</ele>
      </trkpt>
      <trkpt lat="45.85093" lon="-0.88573">
        <ele>20.4</ele>
      </trkpt>
      <trkpt lat="45.84975" lon="-0.88349">
        <ele>23.4</ele>
      </trkpt>
      <trkpt lat="45.84935" lon="-0.8829">
        <ele>25</ele>
      </trkpt>
      <trkpt lat="45.84886" lon="-0.88223">
        <ele>27</ele>
      </trkpt>
      <trkpt lat="45.84862" lon="-0.88184">
        <ele>27</ele>
      </trkpt>
      <trkpt lat="45.84844" lon="-0.8812">
        <ele>28</ele>
      </trkpt>
      <trkpt lat="45.84793" lon="-0.87944">
        <ele>29</ele>
      </trkpt>
      <trkpt lat="45.8474" lon="-0.87767">
        <ele>30</ele>
      </trkpt>
      <trkpt lat="45.84695" lon="-0.87606">
        <ele>31</ele>
      </trkpt>
      <trkpt lat="45.84655" lon="-0.87477">
        <ele>32</ele>
      </trkpt>
      <trkpt lat="45.84635" lon="-0.8739">
        <ele>32</ele>
      </trkpt>
      <trkpt lat="45.84626" lon="-0.87353">
        <ele>32</ele>
      </trkpt>
      <trkpt lat="45.84613" lon="-0.87287">
        <ele>31.4</ele>
      </trkpt>
      <trkpt lat="45.84587" lon="-0.87156">
        <ele>30</ele>
      </trkpt>
      <trkpt lat="45.84579" lon="-0.87114">
        <ele>29.2</ele>
      </trkpt>
      <trkpt lat="45.84573" lon="-0.87083">
        <ele>29</ele>
      </trkpt>
      <trkpt lat="45.8456" lon="-0.87049">
        <ele>29</ele>
      </trkpt>
      <trkpt lat="45.84518" lon="-0.86996">
        <ele>28</ele>
      </trkpt>
      <trkpt lat="45.84432" lon="-0.86898">
        <ele>28</ele>
      </trkpt>
      <trkpt lat="45.84403" lon="-0.86858">
        <ele>29</ele>
      </trkpt>
      <trkpt lat="45.84325" lon="-0.86737">
        <ele>30.1</ele>
      </trkpt>
      <trkpt lat="45.84291" lon="-0.86671">
        <ele>30.5</ele>
      </trkpt>
      <trkpt lat="45.84278" lon="-0.86641">
        <ele>30.9</ele>
      </trkpt>
      <trkpt lat="45.84266" lon="-0.86574">
        <ele>30</ele>
      </trkpt>
      <trkpt lat="45.84227" lon="-0.86329">
        <ele>29.7</ele>
      </trkpt>
      <trkpt lat="45.84218" lon="-0.86036">
        <ele>30</ele>
      </trkpt>
      <trkpt lat="45.84212" lon="-0.85903">
        <ele>29</ele>
      </trkpt>
      <trkpt lat="45.8421" lon="-0.85833">
        <ele>30</ele>
      </trkpt>
      <trkpt lat="45.84201" lon="-0.85579">
        <ele>31</ele>
      </trkpt>
      <trkpt lat="45.84194" lon="-0.85388">
        <ele>29</ele>
      </trkpt>
      <trkpt lat="45.84187" lon="-0.85272">
        <ele>29.2</ele>
      </trkpt>
      <trkpt lat="45.84182" lon="-0.85235">
        <ele>30.5</ele>
      </trkpt>
      <trkpt lat="45.84177" lon="-0.85194">
        <ele>31.4</ele>
      </trkpt>
      <trkpt lat="45.84117" lon="-0.84993">
        <ele>34</ele>
      </trkpt>
      <trkpt lat="45.8407" lon="-0.84841">
        <ele>35</ele>
      </trkpt>
      <trkpt lat="45.83998" lon="-0.84609">
        <ele>34</ele>
      </trkpt>
      <trkpt lat="45.83975" lon="-0.84544">
        <ele>32.6</ele>
      </trkpt>
      <trkpt lat="45.83945" lon="-0.84497">
        <ele>31.9</ele>
      </trkpt>
      <trkpt lat="45.83814" lon="-0.84319">
        <ele>32.4</ele>
      </trkpt>
      <trkpt lat="45.83716" lon="-0.84195">
        <ele>34</ele>
      </trkpt>
      <trkpt lat="45.83589" lon="-0.8401">
        <ele>33.4</ele>
      </trkpt>
      <trkpt lat="45.83524" lon="-0.83926">
        <ele>34</ele>
      </trkpt>
      <trkpt lat="45.83471" lon="-0.83852">
        <ele>35</ele>
      </trkpt>
      <trkpt lat="45.83485" lon="-0.83769">
        <ele>36</ele>
      </trkpt>
      <trkpt lat="45.83308" lon="-0.83614">
        <ele>35.9</ele>
      </trkpt>
      <trkpt lat="45.83186" lon="-0.83505">
        <ele>36.6</ele>
      </trkpt>
      <trkpt lat="45.83156" lon="-0.83474">
        <ele>36</ele>
      </trkpt>
      <trkpt lat="45.83135" lon="-0.83441">
        <ele>36.1</ele>
      </trkpt>
      <trkpt lat="45.83095" lon="-0.83382">
        <ele>37</ele>
      </trkpt>
      <trkpt lat="45.83054" lon="-0.83326">
        <ele>37</ele>
      </trkpt>
      <trkpt lat="45.83042" lon="-0.83302">
        <ele>37</ele>
      </trkpt>
      <trkpt lat="45.83031" lon="-0.8327">
        <ele>37</ele>
      </trkpt>
      <trkpt lat="45.83006" lon="-0.83235">
        <ele>37</ele>
      </trkpt>
      <trkpt lat="45.82963" lon="-0.83188">
        <ele>37</ele>
      </trkpt>
      <trkpt lat="45.82943" lon="-0.83182">
        <ele>37</ele>
      </trkpt>
      <trkpt lat="45.82923" lon="-0.832">
        <ele>36.4</ele>
      </trkpt>
      <trkpt lat="45.8291" lon="-0.8321">
        <ele>36.7</ele>
      </trkpt>
      <trkpt lat="45.82906" lon="-0.83188">
        <ele>36.5</ele>
      </trkpt>
      <trkpt lat="45.82809" lon="-0.83008">
        <ele>35.4</ele>
      </trkpt>
      <trkpt lat="45.82778" lon="-0.83049">
        <ele>36</ele>
      </trkpt>
      <trkpt lat="45.82762" lon="-0.83057">
        <ele>36</ele>
      </trkpt>
      <trkpt lat="45.82718" lon="-0.83051">
        <ele>36</ele>
      </trkpt>
      <trkpt lat="45.82594" lon="-0.83145">
        <ele>36.1</ele>
      </trkpt>
      <trkpt lat="45.82534" lon="-0.83206">
        <ele>37</ele>
      </trkpt>
      <trkpt lat="45.825" lon="-0.83234">
        <ele>37</ele>
      </trkpt>
      <trkpt lat="45.82467" lon="-0.83157">
        <ele>37</ele>
      </trkpt>
      <trkpt lat="45.82443" lon="-0.83062">
        <ele>37</ele>
      </trkpt>
      <trkpt lat="45.82438" lon="-0.83019">
        <ele>37</ele>
      </trkpt>
      <trkpt lat="45.82444" lon="-0.82901">
        <ele>36</ele>
      </trkpt>
      <trkpt lat="45.82436" lon="-0.82818">
        <ele>36</ele>
      </trkpt>
      <trkpt lat="45.82432" lon="-0.8271">
        <ele>37</ele>
      </trkpt>
      <trkpt lat="45.82442" lon="-0.82568">
        <ele>37.6</ele>
      </trkpt>
      <trkpt lat="45.82448" lon="-0.82403">
        <ele>38</ele>
      </trkpt>
      <trkpt lat="45.82446" lon="-0.82255">
        <ele>37</ele>
      </trkpt>
      <trkpt lat="45.82438" lon="-0.82185">
        <ele>37</ele>
      </trkpt>
      <trkpt lat="45.82436" lon="-0.82179">
        <ele>37</ele>
      </trkpt>
      <trkpt lat="45.82356" lon="-0.82157">
        <ele>36</ele>
      </trkpt>
      <trkpt lat="45.82299" lon="-0.82154">
        <ele>36</ele>
      </trkpt>
      <trkpt lat="45.82254" lon="-0.82115">
        <ele>35.9</ele>
      </trkpt>
      <trkpt lat="45.82167" lon="-0.82041">
        <ele>37</ele>
      </trkpt>
      <trkpt lat="45.82047" lon="-0.81946">
        <ele>38</ele>
      </trkpt>
      <trkpt lat="45.82016" lon="-0.81915">
        <ele>37</ele>
      </trkpt>
      <trkpt lat="45.81955" lon="-0.81848">
        <ele>36.4</ele>
      </trkpt>
      <trkpt lat="45.81903" lon="-0.81774">
        <ele>35</ele>
      </trkpt>
      <trkpt lat="45.81873" lon="-0.81726">
        <ele>34.5</ele>
      </trkpt>
      <trkpt lat="45.81855" lon="-0.81703">
        <ele>34</ele>
      </trkpt>
      <trkpt lat="45.81848" lon="-0.81697">
        <ele>34</ele>
      </trkpt>
      <trkpt lat="45.81813" lon="-0.81661">
        <ele>33.1</ele>
      </trkpt>
      <trkpt lat="45.81777" lon="-0.81626">
        <ele>33</ele>
      </trkpt>
      <trkpt lat="45.81736" lon="-0.8159">
        <ele>34.4</ele>
      </trkpt>
      <trkpt lat="45.817" lon="-0.81579">
        <ele>35</ele>
      </trkpt>
      <trkpt lat="45.8163" lon="-0.81531">
        <ele>36</ele>
      </trkpt>
      <trkpt lat="45.81535" lon="-0.81496">
        <ele>37</ele>
      </trkpt>
      <trkpt lat="45.81499" lon="-0.81473">
        <ele>37</ele>
      </trkpt>
      <trkpt lat="45.81497" lon="-0.81471">
        <ele>37</ele>
      </trkpt>
      <trkpt lat="45.81494" lon="-0.81467">
        <ele>37</ele>
      </trkpt>
      <trkpt lat="45.8146" lon="-0.81447">
        <ele>37</ele>
      </trkpt>
      <trkpt lat="45.81415" lon="-0.81417">
        <ele>37</ele>
      </trkpt>
      <trkpt lat="45.81342" lon="-0.81378">
        <ele>37</ele>
      </trkpt>
      <trkpt lat="45.81312" lon="-0.81366">
        <ele>37</ele>
      </trkpt>
      <trkpt lat="45.81234" lon="-0.81352">
        <ele>36</ele>
      </trkpt>
      <trkpt lat="45.81174" lon="-0.81345">
        <ele>35</ele>
      </trkpt>
      <trkpt lat="45.81138" lon="-0.81347">
        <ele>35</ele>
      </trkpt>
      <trkpt lat="45.81036" lon="-0.81358">
        <ele>37</ele>
      </trkpt>
      <trkpt lat="45.81019" lon="-0.81356">
        <ele>37</ele>
      </trkpt>
      <trkpt lat="45.80982" lon="-0.81341">
        <ele>37</ele>
      </trkpt>
      <trkpt lat="45.80973" lon="-0.81338">
        <ele>37</ele>
      </trkpt>
      <trkpt lat="45.80958" lon="-0.81335">
        <ele>37</ele>
      </trkpt>
      <trkpt lat="45.8092" lon="-0.81342">
        <ele>37</ele>
      </trkpt>
      <trkpt lat="45.80852" lon="-0.81367">
        <ele>36</ele>
      </trkpt>
      <trkpt lat="45.80723" lon="-0.81417">
        <ele>35</ele>
      </trkpt>
      <trkpt lat="45.80718" lon="-0.81421">
        <ele>34.7</ele>
      </trkpt>
      <trkpt lat="45.8072" lon="-0.81438">
        <ele>34.2</ele>
      </trkpt>
      <trkpt lat="45.8072" lon="-0.81456">
        <ele>34</ele>
      </trkpt>
      <trkpt lat="45.80716" lon="-0.81456">
        <ele>34</ele>
      </trkpt>
      <trkpt lat="45.80683" lon="-0.81501">
        <ele>33</ele>
      </trkpt>
      <trkpt lat="45.80674" lon="-0.81513">
        <ele>32.7</ele>
      </trkpt>
      <trkpt lat="45.80637" lon="-0.81468">
        <ele>32.9</ele>
      </trkpt>
      <trkpt lat="45.80625" lon="-0.81452">
        <ele>32.5</ele>
      </trkpt>
      <trkpt lat="45.80596" lon="-0.8143">
        <ele>32.2</ele>
      </trkpt>
      <trkpt lat="45.80583" lon="-0.81428">
        <ele>32</ele>
      </trkpt>
      <trkpt lat="45.80579" lon="-0.81428">
        <ele>31.9</ele>
      </trkpt>
      <trkpt lat="45.80559" lon="-0.81425">
        <ele>31.7</ele>
      </trkpt>
      <trkpt lat="45.80534" lon="-0.81412">
        <ele>32.2</ele>
      </trkpt>
      <trkpt lat="45.80523" lon="-0.81406">
        <ele>32.4</ele>
      </trkpt>
      <trkpt lat="45.80506" lon="-0.81402">
        <ele>32.5</ele>
      </trkpt>
      <trkpt lat="45.80492" lon="-0.81398">
        <ele>32.5</ele>
      </trkpt>
      <trkpt lat="45.80485" lon="-0.81397">
        <ele>32.3</ele>
      </trkpt>
      <trkpt lat="45.80433" lon="-0.81381">
        <ele>32.5</ele>
      </trkpt>
      <trkpt lat="45.80422" lon="-0.81378">
        <ele>32.5</ele>
      </trkpt>
      <trkpt lat="45.80405" lon="-0.81402">
        <ele>31.3</ele>
      </trkpt>
      <trkpt lat="45.80359" lon="-0.81467">
        <ele>27.5</ele>
      </trkpt>
      <trkpt lat="45.80336" lon="-0.81496">
        <ele>26.3</ele>
      </trkpt>
      <trkpt lat="45.80292" lon="-0.81567">
        <ele>26.4</ele>
      </trkpt>
      <trkpt lat="45.80253" lon="-0.81522">
        <ele>25</ele>
      </trkpt>
      <trkpt lat="45.80233" lon="-0.815">
        <ele>24.4</ele>
      </trkpt>
      <trkpt lat="45.80182" lon="-0.81466">
        <ele>24</ele>
      </trkpt>
      <trkpt lat="45.80143" lon="-0.81453">
        <ele>23.8</ele>
      </trkpt>
      <trkpt lat="45.80086" lon="-0.81444">
        <ele>23</ele>
      </trkpt>
      <trkpt lat="45.80036" lon="-0.81392">
        <ele>23.4</ele>
      </trkpt>
      <trkpt lat="45.79993" lon="-0.81363">
        <ele>23.4</ele>
      </trkpt>
      <trkpt lat="45.79925" lon="-0.81301">
        <ele>23</ele>
      </trkpt>
      <trkpt lat="45.79901" lon="-0.81271">
        <ele>24.1</ele>
      </trkpt>
      <trkpt lat="45.79896" lon="-0.81248">
        <ele>24.6</ele>
      </trkpt>
      <trkpt lat="45.79891" lon="-0.81233">
        <ele>24.8</ele>
      </trkpt>
      <trkpt lat="45.7988" lon="-0.81221">
        <ele>24.4</ele>
      </trkpt>
      <trkpt lat="45.79881" lon="-0.81199">
        <ele>25.3</ele>
      </trkpt>
      <trkpt lat="45.79863" lon="-0.8117">
        <ele>24.1</ele>
      </trkpt>
      <trkpt lat="45.79848" lon="-0.8116">
        <ele>22.9</ele>
      </trkpt>
      <trkpt lat="45.79844" lon="-0.81157">
        <ele>22.6</ele>
      </trkpt>
      <trkpt lat="45.79835" lon="-0.81148">
        <ele>21.5</ele>
      </trkpt>
      <trkpt lat="45.79809" lon="-0.81122">
        <ele>20.6</ele>
      </trkpt>
      <trkpt lat="45.79763" lon="-0.8108">
        <ele>24.1</ele>
      </trkpt>
      <trkpt lat="45.79693" lon="-0.80968">
        <ele>27</ele>
      </trkpt>
      <trkpt lat="45.79678" lon="-0.80947">
        <ele>27</ele>
      </trkpt>
      <trkpt lat="45.7967" lon="-0.80953">
        <ele>27</ele>
      </trkpt>
      <trkpt lat="45.79538" lon="-0.80999">
        <ele>25.4</ele>
      </trkpt>
      <trkpt lat="45.79512" lon="-0.81011">
        <ele>24.4</ele>
      </trkpt>
      <trkpt lat="45.79507" lon="-0.81016">
        <ele>24.3</ele>
      </trkpt>
      <trkpt lat="45.79458" lon="-0.80919">
        <ele>21.5</ele>
      </trkpt>
      <trkpt lat="45.79446" lon="-0.80883">
        <ele>22.2</ele>
      </trkpt>
      <trkpt lat="45.79435" lon="-0.80811">
        <ele>24.5</ele>
      </trkpt>
      <trkpt lat="45.79425" lon="-0.80732">
        <ele>26.3</ele>
      </trkpt>
      <trkpt lat="45.79418" lon="-0.80704">
        <ele>26.7</ele>
      </trkpt>
      <trkpt lat="45.7936" lon="-0.80601">
        <ele>26.3</ele>
      </trkpt>
      <trkpt lat="45.79343" lon="-0.80582">
        <ele>25.7</ele>
      </trkpt>
      <trkpt lat="45.79327" lon="-0.80576">
        <ele>25</ele>
      </trkpt>
      <trkpt lat="45.79303" lon="-0.80579">
        <ele>24.1</ele>
      </trkpt>
      <trkpt lat="45.79283" lon="-0.80577">
        <ele>24</ele>
      </trkpt>
      <trkpt lat="45.79188" lon="-0.80529">
        <ele>21</ele>
      </trkpt>
      <trkpt lat="45.79152" lon="-0.80538">
        <ele>20.6</ele>
      </trkpt>
      <trkpt lat="45.79137" lon="-0.80527">
        <ele>21.1</ele>
      </trkpt>
      <trkpt lat="45.79086" lon="-0.80411">
        <ele>24.3</ele>
      </trkpt>
      <trkpt lat="45.79077" lon="-0.80396">
        <ele>24.7</ele>
      </trkpt>
      <trkpt lat="45.79068" lon="-0.8039">
        <ele>25</ele>
      </trkpt>
      <trkpt lat="45.79058" lon="-0.80391">
        <ele>24.9</ele>
      </trkpt>
      <trkpt lat="45.79002" lon="-0.80421">
        <ele>24</ele>
      </trkpt>
      <trkpt lat="45.78982" lon="-0.80432">
        <ele>23.6</ele>
      </trkpt>
      <trkpt lat="45.78958" lon="-0.80438">
        <ele>22.2</ele>
      </trkpt>
      <trkpt lat="45.78919" lon="-0.80438">
        <ele>19.4</ele>
      </trkpt>
      <trkpt lat="45.78909" lon="-0.80432">
        <ele>19.2</ele>
      </trkpt>
      <trkpt lat="45.78905" lon="-0.80428">
        <ele>19.2</ele>
      </trkpt>
      <trkpt lat="45.789" lon="-0.80424">
        <ele>19.1</ele>
      </trkpt>
      <trkpt lat="45.78889" lon="-0.80413">
        <ele>19.1</ele>
      </trkpt>
      <trkpt lat="45.78867" lon="-0.80402">
        <ele>20.7</ele>
      </trkpt>
      <trkpt lat="45.78814" lon="-0.8039">
        <ele>23.7</ele>
      </trkpt>
      <trkpt lat="45.78804" lon="-0.80387">
        <ele>24</ele>
      </trkpt>
      <trkpt lat="45.78786" lon="-0.80367">
        <ele>23.9</ele>
      </trkpt>
      <trkpt lat="45.78772" lon="-0.80345">
        <ele>24.2</ele>
      </trkpt>
      <trkpt lat="45.78715" lon="-0.80239">
        <ele>23.7</ele>
      </trkpt>
      <trkpt lat="45.78675" lon="-0.80152">
        <ele>23.2</ele>
      </trkpt>
      <trkpt lat="45.78635" lon="-0.80067">
        <ele>21.6</ele>
      </trkpt>
      <trkpt lat="45.78579" lon="-0.79982">
        <ele>20.5</ele>
      </trkpt>
      <trkpt lat="45.78559" lon="-0.79948">
        <ele>20.1</ele>
      </trkpt>
      <trkpt lat="45.78528" lon="-0.79904">
        <ele>20.5</ele>
      </trkpt>
      <trkpt lat="45.78474" lon="-0.79862">
        <ele>20.1</ele>
      </trkpt>
      <trkpt lat="45.78434" lon="-0.79827">
        <ele>20.7</ele>
      </trkpt>
      <trkpt lat="45.78412" lon="-0.79801">
        <ele>20.7</ele>
      </trkpt>
      <trkpt lat="45.78398" lon="-0.79777">
        <ele>20.4</ele>
      </trkpt>
      <trkpt lat="45.78387" lon="-0.79748">
        <ele>21.9</ele>
      </trkpt>
      <trkpt lat="45.78371" lon="-0.79688">
        <ele>22.4</ele>
      </trkpt>
      <trkpt lat="45.78354" lon="-0.79632">
        <ele>22.7</ele>
      </trkpt>
      <trkpt lat="45.78321" lon="-0.79547">
        <ele>22.7</ele>
      </trkpt>
      <trkpt lat="45.78316" lon="-0.79531">
        <ele>22.9</ele>
      </trkpt>
      <trkpt lat="45.78302" lon="-0.79486">
        <ele>22.9</ele>
      </trkpt>
      <trkpt lat="45.78283" lon="-0.7941">
        <ele>22.2</ele>
      </trkpt>
      <trkpt lat="45.78245" lon="-0.79303">
        <ele>22.9</ele>
      </trkpt>
      <trkpt lat="45.78215" lon="-0.79239">
        <ele>22.9</ele>
      </trkpt>
      <trkpt lat="45.78198" lon="-0.79203">
        <ele>22.9</ele>
      </trkpt>
      <trkpt lat="45.78126" lon="-0.79051">
        <ele>22.6</ele>
      </trkpt>
      <trkpt lat="45.78124" lon="-0.79045">
        <ele>22.6</ele>
      </trkpt>
      <trkpt lat="45.7811" lon="-0.79028">
        <ele>22</ele>
      </trkpt>
      <trkpt lat="45.78083" lon="-0.79003">
        <ele>23</ele>
      </trkpt>
      <trkpt lat="45.78042" lon="-0.78964">
        <ele>24.5</ele>
      </trkpt>
      <trkpt lat="45.78031" lon="-0.78954">
        <ele>24.9</ele>
      </trkpt>
      <trkpt lat="45.77995" lon="-0.78918">
        <ele>25</ele>
      </trkpt>
      <trkpt lat="45.77972" lon="-0.78896">
        <ele>25.7</ele>
      </trkpt>
      <trkpt lat="45.77918" lon="-0.78842">
        <ele>26.7</ele>
      </trkpt>
      <trkpt lat="45.77891" lon="-0.78806">
        <ele>27</ele>
      </trkpt>
      <trkpt lat="45.77822" lon="-0.78681">
        <ele>28.7</ele>
      </trkpt>
      <trkpt lat="45.77813" lon="-0.78664">
        <ele>29</ele>
      </trkpt>
      <trkpt lat="45.77787" lon="-0.78629">
        <ele>29.7</ele>
      </trkpt>
      <trkpt lat="45.77749" lon="-0.78571">
        <ele>30</ele>
      </trkpt>
      <trkpt lat="45.77748" lon="-0.78565">
        <ele>30</ele>
      </trkpt>
      <trkpt lat="45.77747" lon="-0.78562">
        <ele>30</ele>
      </trkpt>
      <trkpt lat="45.77743" lon="-0.78554">
        <ele>30</ele>
      </trkpt>
      <trkpt lat="45.7772" lon="-0.78527">
        <ele>30</ele>
      </trkpt>
      <trkpt lat="45.77699" lon="-0.78487">
        <ele>29.6</ele>
      </trkpt>
      <trkpt lat="45.77696" lon="-0.78482">
        <ele>29.4</ele>
      </trkpt>
      <trkpt lat="45.77658" lon="-0.78395">
        <ele>27.8</ele>
      </trkpt>
      <trkpt lat="45.77636" lon="-0.78342">
        <ele>27</ele>
      </trkpt>
      <trkpt lat="45.7761" lon="-0.78289">
        <ele>26</ele>
      </trkpt>
      <trkpt lat="45.775" lon="-0.78159">
        <ele>23.7</ele>
      </trkpt>
      <trkpt lat="45.7749" lon="-0.7814">
        <ele>23</ele>
      </trkpt>
      <trkpt lat="45.77486" lon="-0.78127">
        <ele>23</ele>
      </trkpt>
      <trkpt lat="45.77484" lon="-0.78115">
        <ele>23</ele>
      </trkpt>
      <trkpt lat="45.77482" lon="-0.78101">
        <ele>23.1</ele>
      </trkpt>
      <trkpt lat="45.77482" lon="-0.78088">
        <ele>23.3</ele>
      </trkpt>
      <trkpt lat="45.77483" lon="-0.78037">
        <ele>23.4</ele>
      </trkpt>
      <trkpt lat="45.77483" lon="-0.78016">
        <ele>23.4</ele>
      </trkpt>
      <trkpt lat="45.77483" lon="-0.77993">
        <ele>23.4</ele>
      </trkpt>
      <trkpt lat="45.77481" lon="-0.77977">
        <ele>23.3</ele>
      </trkpt>
      <trkpt lat="45.77479" lon="-0.7796">
        <ele>23.2</ele>
      </trkpt>
      <trkpt lat="45.77471" lon="-0.77928">
        <ele>23</ele>
      </trkpt>
      <trkpt lat="45.77451" lon="-0.77869">
        <ele>23.7</ele>
      </trkpt>
      <trkpt lat="45.77443" lon="-0.77847">
        <ele>24.5</ele>
      </trkpt>
      <trkpt lat="45.77441" lon="-0.77842">
        <ele>24.7</ele>
      </trkpt>
      <trkpt lat="45.77403" lon="-0.77743">
        <ele>28.1</ele>
      </trkpt>
      <trkpt lat="45.77401" lon="-0.77738">
        <ele>28.2</ele>
      </trkpt>
      <trkpt lat="45.77381" lon="-0.77683">
        <ele>28.8</ele>
      </trkpt>
      <trkpt lat="45.77363" lon="-0.77633">
        <ele>29.3</ele>
      </trkpt>
      <trkpt lat="45.77326" lon="-0.77586">
        <ele>29.6</ele>
      </trkpt>
      <trkpt lat="45.77313" lon="-0.77574">
        <ele>29.3</ele>
      </trkpt>
      <trkpt lat="45.77278" lon="-0.7754">
        <ele>28</ele>
      </trkpt>
      <trkpt lat="45.77264" lon="-0.77498">
        <ele>28</ele>
      </trkpt>
      <trkpt lat="45.77248" lon="-0.7741">
        <ele>26.9</ele>
      </trkpt>
      <trkpt lat="45.7723" lon="-0.77376">
        <ele>26.6</ele>
      </trkpt>
      <trkpt lat="45.77088" lon="-0.77201">
        <ele>30.9</ele>
      </trkpt>
      <trkpt lat="45.76967" lon="-0.77053">
        <ele>29.6</ele>
      </trkpt>
      <trkpt lat="45.76948" lon="-0.77028">
        <ele>28.3</ele>
      </trkpt>
      <trkpt lat="45.76914" lon="-0.76995">
        <ele>26</ele>
      </trkpt>
      <trkpt lat="45.7691" lon="-0.76993">
        <ele>26</ele>
      </trkpt>
      <trkpt lat="45.76905" lon="-0.76991">
        <ele>26</ele>
      </trkpt>
      <trkpt lat="45.76898" lon="-0.76988">
        <ele>26</ele>
      </trkpt>
      <trkpt lat="45.76873" lon="-0.76978">
        <ele>26.6</ele>
      </trkpt>
      <trkpt lat="45.76859" lon="-0.76973">
        <ele>27.1</ele>
      </trkpt>
      <trkpt lat="45.76834" lon="-0.7696">
        <ele>29</ele>
      </trkpt>
      <trkpt lat="45.76828" lon="-0.76957">
        <ele>29.2</ele>
      </trkpt>
      <trkpt lat="45.76825" lon="-0.76954">
        <ele>29.3</ele>
      </trkpt>
      <trkpt lat="45.76791" lon="-0.7693">
        <ele>30.8</ele>
      </trkpt>
      <trkpt lat="45.76786" lon="-0.76926">
        <ele>30.9</ele>
      </trkpt>
      <trkpt lat="45.76784" lon="-0.76925">
        <ele>30.9</ele>
      </trkpt>
      <trkpt lat="45.76744" lon="-0.76908">
        <ele>32.5</ele>
      </trkpt>
      <trkpt lat="45.76689" lon="-0.76869">
        <ele>34.7</ele>
      </trkpt>
      <trkpt lat="45.76674" lon="-0.76845">
        <ele>35</ele>
      </trkpt>
      <trkpt lat="45.7665" lon="-0.7674">
        <ele>36.1</ele>
      </trkpt>
      <trkpt lat="45.76617" lon="-0.7658">
        <ele>37.2</ele>
      </trkpt>
      <trkpt lat="45.76567" lon="-0.76333">
        <ele>40</ele>
      </trkpt>
      <trkpt lat="45.76565" lon="-0.76326">
        <ele>40.1</ele>
      </trkpt>
      <trkpt lat="45.76548" lon="-0.76198">
        <ele>41</ele>
      </trkpt>
      <trkpt lat="45.76538" lon="-0.76153">
        <ele>41.4</ele>
      </trkpt>
      <trkpt lat="45.76519" lon="-0.76121">
        <ele>40.7</ele>
      </trkpt>
      <trkpt lat="45.76497" lon="-0.76093">
        <ele>39.8</ele>
      </trkpt>
      <trkpt lat="45.76481" lon="-0.76042">
        <ele>39</ele>
      </trkpt>
      <trkpt lat="45.76464" lon="-0.75971">
        <ele>38.7</ele>
      </trkpt>
      <trkpt lat="45.76447" lon="-0.75922">
        <ele>37.4</ele>
      </trkpt>
      <trkpt lat="45.7644" lon="-0.75907">
        <ele>36.9</ele>
      </trkpt>
      <trkpt lat="45.76427" lon="-0.7588">
        <ele>37.1</ele>
      </trkpt>
      <trkpt lat="45.76392" lon="-0.75839">
        <ele>38</ele>
      </trkpt>
      <trkpt lat="45.76382" lon="-0.75824">
        <ele>38.3</ele>
      </trkpt>
      <trkpt lat="45.76283" lon="-0.75707">
        <ele>40.6</ele>
      </trkpt>
      <trkpt lat="45.76274" lon="-0.75688">
        <ele>40.9</ele>
      </trkpt>
      <trkpt lat="45.76244" lon="-0.75622">
        <ele>40.2</ele>
      </trkpt>
      <trkpt lat="45.76223" lon="-0.75573">
        <ele>38.7</ele>
      </trkpt>
      <trkpt lat="45.7618" lon="-0.75461">
        <ele>33.4</ele>
      </trkpt>
      <trkpt lat="45.76172" lon="-0.75436">
        <ele>32.4</ele>
      </trkpt>
      <trkpt lat="45.76168" lon="-0.7542">
        <ele>32.9</ele>
      </trkpt>
      <trkpt lat="45.76166" lon="-0.75421">
        <ele>32.8</ele>
      </trkpt>
      <trkpt lat="45.7612" lon="-0.75404">
        <ele>33.3</ele>
      </trkpt>
      <trkpt lat="45.76083" lon="-0.75387">
        <ele>35.1</ele>
      </trkpt>
      <trkpt lat="45.76011" lon="-0.75362">
        <ele>38</ele>
      </trkpt>
      <trkpt lat="45.75958" lon="-0.75341">
        <ele>39.7</ele>
      </trkpt>
      <trkpt lat="45.75942" lon="-0.75329">
        <ele>40</ele>
      </trkpt>
      <trkpt lat="45.75896" lon="-0.75282">
        <ele>39.9</ele>
      </trkpt>
      <trkpt lat="45.75853" lon="-0.75244">
        <ele>38.4</ele>
      </trkpt>
      <trkpt lat="45.75822" lon="-0.75222">
        <ele>36.2</ele>
      </trkpt>
      <trkpt lat="45.7581" lon="-0.75215">
        <ele>35.6</ele>
      </trkpt>
      <trkpt lat="45.75766" lon="-0.7521">
        <ele>31.5</ele>
      </trkpt>
      <trkpt lat="45.7573" lon="-0.75192">
        <ele>28.6</ele>
      </trkpt>
      <trkpt lat="45.7565" lon="-0.75135">
        <ele>32.9</ele>
      </trkpt>
      <trkpt lat="45.75608" lon="-0.75111">
        <ele>36.1</ele>
      </trkpt>
      <trkpt lat="45.75573" lon="-0.75101">
        <ele>37.4</ele>
      </trkpt>
      <trkpt lat="45.75526" lon="-0.75092">
        <ele>38.3</ele>
      </trkpt>
      <trkpt lat="45.75508" lon="-0.75077">
        <ele>37.8</ele>
      </trkpt>
      <trkpt lat="45.7547" lon="-0.75025">
        <ele>38.2</ele>
      </trkpt>
      <trkpt lat="45.75462" lon="-0.75014">
        <ele>38.6</ele>
      </trkpt>
      <trkpt lat="45.75396" lon="-0.7496">
        <ele>39.9</ele>
      </trkpt>
      <trkpt lat="45.75353" lon="-0.7493">
        <ele>41</ele>
      </trkpt>
      <trkpt lat="45.75291" lon="-0.74891">
        <ele>42</ele>
      </trkpt>
      <trkpt lat="45.75262" lon="-0.74878">
        <ele>42.3</ele>
      </trkpt>
      <trkpt lat="45.75257" lon="-0.74874">
        <ele>42.3</ele>
      </trkpt>
      <trkpt lat="45.75251" lon="-0.7487">
        <ele>42.3</ele>
      </trkpt>
      <trkpt lat="45.75235" lon="-0.74856">
        <ele>42</ele>
      </trkpt>
      <trkpt lat="45.75233" lon="-0.74855">
        <ele>42</ele>
      </trkpt>
      <trkpt lat="45.75223" lon="-0.74873">
        <ele>42.4</ele>
      </trkpt>
      <trkpt lat="45.7521" lon="-0.74888">
        <ele>43.4</ele>
      </trkpt>
      <trkpt lat="45.75198" lon="-0.74879">
        <ele>43.5</ele>
      </trkpt>
      <trkpt lat="45.75176" lon="-0.74875">
        <ele>43.2</ele>
      </trkpt>
      <trkpt lat="45.75162" lon="-0.74909">
        <ele>43</ele>
      </trkpt>
      <trkpt lat="45.7514" lon="-0.74972">
        <ele>43</ele>
      </trkpt>
      <trkpt lat="45.7513" lon="-0.74982">
        <ele>42.7</ele>
      </trkpt>
      <trkpt lat="45.75101" lon="-0.74987">
        <ele>42</ele>
      </trkpt>
      <trkpt lat="45.75097" lon="-0.74989">
        <ele>42</ele>
      </trkpt>
      <trkpt lat="45.75092" lon="-0.74984">
        <ele>42</ele>
      </trkpt>
      <trkpt lat="45.74995" lon="-0.7491">
        <ele>42</ele>
      </trkpt>
      <trkpt lat="45.74981" lon="-0.74896">
        <ele>42</ele>
      </trkpt>
      <trkpt lat="45.74964" lon="-0.74877">
        <ele>42.1</ele>
      </trkpt>
      <trkpt lat="45.74915" lon="-0.748">
        <ele>43.1</ele>
      </trkpt>
      <trkpt lat="45.74849" lon="-0.74727">
        <ele>44</ele>
      </trkpt>
      <trkpt lat="45.74829" lon="-0.74713">
        <ele>44</ele>
      </trkpt>
      <trkpt lat="45.74764" lon="-0.74675">
        <ele>43.7</ele>
      </trkpt>
      <trkpt lat="45.74698" lon="-0.74642">
        <ele>42</ele>
      </trkpt>
      <trkpt lat="45.74686" lon="-0.74641">
        <ele>41.7</ele>
      </trkpt>
      <trkpt lat="45.74672" lon="-0.74649">
        <ele>41.2</ele>
      </trkpt>
      <trkpt lat="45.74656" lon="-0.74644">
        <ele>40.6</ele>
      </trkpt>
      <trkpt lat="45.74639" lon="-0.74638">
        <ele>40</ele>
      </trkpt>
      <trkpt lat="45.74618" lon="-0.7462">
        <ele>39.2</ele>
      </trkpt>
      <trkpt lat="45.74602" lon="-0.74598">
        <ele>38.4</ele>
      </trkpt>
      <trkpt lat="45.7458" lon="-0.74551">
        <ele>38.3</ele>
      </trkpt>
      <trkpt lat="45.74552" lon="-0.745">
        <ele>40.1</ele>
      </trkpt>
      <trkpt lat="45.74538" lon="-0.74479">
        <ele>40.9</ele>
      </trkpt>
      <trkpt lat="45.74528" lon="-0.74467">
        <ele>41.2</ele>
      </trkpt>
      <trkpt lat="45.74524" lon="-0.74463">
        <ele>41.4</ele>
      </trkpt>
      <trkpt lat="45.74501" lon="-0.74436">
        <ele>42.3</ele>
      </trkpt>
      <trkpt lat="45.74482" lon="-0.74404">
        <ele>43.3</ele>
      </trkpt>
      <trkpt lat="45.74401" lon="-0.74261">
        <ele>46</ele>
      </trkpt>
      <trkpt lat="45.74376" lon="-0.7424">
        <ele>46.2</ele>
      </trkpt>
      <trkpt lat="45.74342" lon="-0.74222">
        <ele>46</ele>
      </trkpt>
      <trkpt lat="45.74307" lon="-0.74207">
        <ele>46</ele>
      </trkpt>
      <trkpt lat="45.74283" lon="-0.74185">
        <ele>45.7</ele>
      </trkpt>
      <trkpt lat="45.74248" lon="-0.74138">
        <ele>44.9</ele>
      </trkpt>
      <trkpt lat="45.74221" lon="-0.74114">
        <ele>44</ele>
      </trkpt>
      <trkpt lat="45.74195" lon="-0.74087">
        <ele>43</ele>
      </trkpt>
      <trkpt lat="45.7416" lon="-0.74052">
        <ele>41.7</ele>
      </trkpt>
      <trkpt lat="45.74143" lon="-0.74032">
        <ele>40.4</ele>
      </trkpt>
      <trkpt lat="45.74129" lon="-0.73995">
        <ele>39.1</ele>
      </trkpt>
      <trkpt lat="45.74115" lon="-0.73965">
        <ele>37</ele>
      </trkpt>
      <trkpt lat="45.74082" lon="-0.73927">
        <ele>34.7</ele>
      </trkpt>
      <trkpt lat="45.74061" lon="-0.73874">
        <ele>37.3</ele>
      </trkpt>
      <trkpt lat="45.74047" lon="-0.73847">
        <ele>39.5</ele>
      </trkpt>
      <trkpt lat="45.7403" lon="-0.73822">
        <ele>41</ele>
      </trkpt>
      <trkpt lat="45.74007" lon="-0.73804">
        <ele>41.8</ele>
      </trkpt>
      <trkpt lat="45.73993" lon="-0.73797">
        <ele>42.3</ele>
      </trkpt>
      <trkpt lat="45.73987" lon="-0.73813">
        <ele>42</ele>
      </trkpt>
      <trkpt lat="45.73955" lon="-0.73797">
        <ele>42.3</ele>
      </trkpt>
      <trkpt lat="45.73923" lon="-0.7378">
        <ele>43</ele>
      </trkpt>
      <trkpt lat="45.73891" lon="-0.73766">
        <ele>43</ele>
      </trkpt>
      <trkpt lat="45.73874" lon="-0.73763">
        <ele>43</ele>
      </trkpt>
      <trkpt lat="45.73763" lon="-0.73706">
        <ele>42.1</ele>
      </trkpt>
      <trkpt lat="45.7371" lon="-0.73682">
        <ele>41.7</ele>
      </trkpt>
      <trkpt lat="45.73689" lon="-0.73677">
        <ele>42.1</ele>
      </trkpt>
      <trkpt lat="45.73657" lon="-0.73689">
        <ele>42.5</ele>
      </trkpt>
      <trkpt lat="45.73632" lon="-0.73691">
        <ele>43.3</ele>
      </trkpt>
      <trkpt lat="45.73559" lon="-0.73703">
        <ele>43.7</ele>
      </trkpt>
      <trkpt lat="45.7351" lon="-0.73708">
        <ele>44.8</ele>
      </trkpt>
      <trkpt lat="45.73424" lon="-0.73679">
        <ele>46</ele>
      </trkpt>
      <trkpt lat="45.7333" lon="-0.73631">
        <ele>46</ele>
      </trkpt>
      <trkpt lat="45.73302" lon="-0.73626">
        <ele>46</ele>
      </trkpt>
      <trkpt lat="45.73286" lon="-0.73622">
        <ele>46</ele>
      </trkpt>
      <trkpt lat="45.73214" lon="-0.73604">
        <ele>44.7</ele>
      </trkpt>
      <trkpt lat="45.73184" lon="-0.73587">
        <ele>44</ele>
      </trkpt>
      <trkpt lat="45.73112" lon="-0.7351">
        <ele>42</ele>
      </trkpt>
      <trkpt lat="45.73095" lon="-0.73484">
        <ele>41.4</ele>
      </trkpt>
      <trkpt lat="45.7304" lon="-0.73435">
        <ele>41.4</ele>
      </trkpt>
      <trkpt lat="45.73016" lon="-0.73422">
        <ele>41.5</ele>
      </trkpt>
      <trkpt lat="45.72933" lon="-0.73384">
        <ele>41.8</ele>
      </trkpt>
      <trkpt lat="45.72909" lon="-0.73373">
        <ele>41.4</ele>
      </trkpt>
      <trkpt lat="45.72852" lon="-0.73334">
        <ele>41</ele>
      </trkpt>
      <trkpt lat="45.7278" lon="-0.73305">
        <ele>39.1</ele>
      </trkpt>
      <trkpt lat="45.72733" lon="-0.73261">
        <ele>36.6</ele>
      </trkpt>
      <trkpt lat="45.72707" lon="-0.73254">
        <ele>36.1</ele>
      </trkpt>
      <trkpt lat="45.72693" lon="-0.73253">
        <ele>36</ele>
      </trkpt>
      <trkpt lat="45.72677" lon="-0.73252">
        <ele>36</ele>
      </trkpt>
      <trkpt lat="45.72663" lon="-0.73259">
        <ele>36</ele>
      </trkpt>
      <trkpt lat="45.72635" lon="-0.7328">
        <ele>37</ele>
      </trkpt>
      <trkpt lat="45.72625" lon="-0.73283">
        <ele>37.1</ele>
      </trkpt>
      <trkpt lat="45.72608" lon="-0.73282">
        <ele>37.2</ele>
      </trkpt>
      <trkpt lat="45.72598" lon="-0.73283">
        <ele>37.6</ele>
      </trkpt>
      <trkpt lat="45.72564" lon="-0.73276">
        <ele>38</ele>
      </trkpt>
      <trkpt lat="45.72531" lon="-0.73239">
        <ele>37.6</ele>
      </trkpt>
      <trkpt lat="45.72387" lon="-0.73224">
        <ele>33.9</ele>
      </trkpt>
      <trkpt lat="45.72328" lon="-0.73218">
        <ele>29.7</ele>
      </trkpt>
      <trkpt lat="45.72281" lon="-0.73212">
        <ele>29.9</ele>
      </trkpt>
      <trkpt lat="45.72258" lon="-0.7321">
        <ele>29.3</ele>
      </trkpt>
      <trkpt lat="45.72271" lon="-0.73177">
        <ele>29.8</ele>
      </trkpt>
      <trkpt lat="45.72255" lon="-0.73166">
        <ele>29.2</ele>
      </trkpt>
      <trkpt lat="45.72237" lon="-0.73158">
        <ele>29.8</ele>
      </trkpt>
      <trkpt lat="45.72164" lon="-0.73168">
        <ele>30.9</ele>
      </trkpt>
      <trkpt lat="45.72143" lon="-0.73169">
        <ele>30.8</ele>
      </trkpt>
      <trkpt lat="45.72123" lon="-0.73165">
        <ele>30</ele>
      </trkpt>
      <trkpt lat="45.72046" lon="-0.73137">
        <ele>29.1</ele>
      </trkpt>
      <trkpt lat="45.72044" lon="-0.73143">
        <ele>28.9</ele>
      </trkpt>
      <trkpt lat="45.71982" lon="-0.7319">
        <ele>29.3</ele>
      </trkpt>
      <trkpt lat="45.71935" lon="-0.73231">
        <ele>28.6</ele>
      </trkpt>
      <trkpt lat="45.71907" lon="-0.7325">
        <ele>29.7</ele>
      </trkpt>
      <trkpt lat="45.71894" lon="-0.73268">
        <ele>30</ele>
      </trkpt>
      <trkpt lat="45.71884" lon="-0.73289">
        <ele>29.9</ele>
      </trkpt>
      <trkpt lat="45.7187" lon="-0.73308">
        <ele>29.7</ele>
      </trkpt>
      <trkpt lat="45.71861" lon="-0.73303">
        <ele>30.2</ele>
      </trkpt>
      <trkpt lat="45.71826" lon="-0.73279">
        <ele>33</ele>
      </trkpt>
      <trkpt lat="45.71762" lon="-0.73225">
        <ele>34.4</ele>
      </trkpt>
      <trkpt lat="45.71742" lon="-0.73218">
        <ele>34.1</ele>
      </trkpt>
      <trkpt lat="45.71711" lon="-0.73215">
        <ele>33.7</ele>
      </trkpt>
      <trkpt lat="45.71674" lon="-0.73208">
        <ele>32.4</ele>
      </trkpt>
      <trkpt lat="45.71639" lon="-0.73195">
        <ele>30</ele>
      </trkpt>
      <trkpt lat="45.71605" lon="-0.73182">
        <ele>27.9</ele>
      </trkpt>
      <trkpt lat="45.71601" lon="-0.7318">
        <ele>27.8</ele>
      </trkpt>
      <trkpt lat="45.71567" lon="-0.73169">
        <ele>28.6</ele>
      </trkpt>
      <trkpt lat="45.71494" lon="-0.73159">
        <ele>31.1</ele>
      </trkpt>
      <trkpt lat="45.71483" lon="-0.73155">
        <ele>31.3</ele>
      </trkpt>
      <trkpt lat="45.71465" lon="-0.73143">
        <ele>31.6</ele>
      </trkpt>
      <trkpt lat="45.71452" lon="-0.7313">
        <ele>31.5</ele>
      </trkpt>
      <trkpt lat="45.71424" lon="-0.73108">
        <ele>31.3</ele>
      </trkpt>
      <trkpt lat="45.71416" lon="-0.73102">
        <ele>31.3</ele>
      </trkpt>
      <trkpt lat="45.71405" lon="-0.73104">
        <ele>31.3</ele>
      </trkpt>
      <trkpt lat="45.7139" lon="-0.73119">
        <ele>31</ele>
      </trkpt>
      <trkpt lat="45.7137" lon="-0.73094">
        <ele>30.9</ele>
      </trkpt>
      <trkpt lat="45.71355" lon="-0.73081">
        <ele>30.6</ele>
      </trkpt>
      <trkpt lat="45.7133" lon="-0.7307">
        <ele>29.2</ele>
      </trkpt>
      <trkpt lat="45.71319" lon="-0.73063">
        <ele>28.7</ele>
      </trkpt>
      <trkpt lat="45.71307" lon="-0.7305">
        <ele>28.3</ele>
      </trkpt>
      <trkpt lat="45.7129" lon="-0.73019">
        <ele>28.2</ele>
      </trkpt>
      <trkpt lat="45.71262" lon="-0.72978">
        <ele>28.2</ele>
      </trkpt>
      <trkpt lat="45.71253" lon="-0.72968">
        <ele>28.1</ele>
      </trkpt>
      <trkpt lat="45.71243" lon="-0.72958">
        <ele>28</ele>
      </trkpt>
      <trkpt lat="45.7123" lon="-0.72968">
        <ele>28</ele>
      </trkpt>
      <trkpt lat="45.71222" lon="-0.72971">
        <ele>28</ele>
      </trkpt>
      <trkpt lat="45.71214" lon="-0.72969">
        <ele>28.3</ele>
      </trkpt>
      <trkpt lat="45.71205" lon="-0.7296">
        <ele>28.6</ele>
      </trkpt>
      <trkpt lat="45.71198" lon="-0.72947">
        <ele>28.9</ele>
      </trkpt>
      <trkpt lat="45.71174" lon="-0.72875">
        <ele>30.4</ele>
      </trkpt>
      <trkpt lat="45.71163" lon="-0.72849">
        <ele>30.1</ele>
      </trkpt>
      <trkpt lat="45.71155" lon="-0.7286">
        <ele>30.4</ele>
      </trkpt>
      <trkpt lat="45.71144" lon="-0.72868">
        <ele>30.9</ele>
      </trkpt>
      <trkpt lat="45.7111" lon="-0.72885">
        <ele>31</ele>
      </trkpt>
      <trkpt lat="45.71087" lon="-0.72896">
        <ele>31</ele>
      </trkpt>
      <trkpt lat="45.71014" lon="-0.72931">
        <ele>32.8</ele>
      </trkpt>
      <trkpt lat="45.71004" lon="-0.72936">
        <ele>33</ele>
      </trkpt>
      <trkpt lat="45.70956" lon="-0.7296">
        <ele>33.7</ele>
      </trkpt>
      <trkpt lat="45.70888" lon="-0.72993">
        <ele>32.3</ele>
      </trkpt>
      <trkpt lat="45.70867" lon="-0.73009">
        <ele>32</ele>
      </trkpt>
      <trkpt lat="45.70856" lon="-0.73023">
        <ele>32</ele>
      </trkpt>
      <trkpt lat="45.70854" lon="-0.73024">
        <ele>32</ele>
      </trkpt>
      <trkpt lat="45.70818" lon="-0.73066">
        <ele>31.8</ele>
      </trkpt>
      <trkpt lat="45.70802" lon="-0.73082">
        <ele>32.1</ele>
      </trkpt>
      <trkpt lat="45.70773" lon="-0.73111">
        <ele>32.2</ele>
      </trkpt>
      <trkpt lat="45.7077" lon="-0.73114">
        <ele>32.4</ele>
      </trkpt>
      <trkpt lat="45.70742" lon="-0.7314">
        <ele>33.3</ele>
      </trkpt>
      <trkpt lat="45.70734" lon="-0.73148">
        <ele>33.7</ele>
      </trkpt>
      <trkpt lat="45.70705" lon="-0.73178">
        <ele>34.8</ele>
      </trkpt>
      <trkpt lat="45.7069" lon="-0.73202">
        <ele>35.2</ele>
      </trkpt>
      <trkpt lat="45.70695" lon="-0.73207">
        <ele>35</ele>
      </trkpt>
      <trkpt lat="45.7072" lon="-0.73237">
        <ele>35</ele>
      </trkpt>
      <trkpt lat="45.70722" lon="-0.73244">
        <ele>35</ele>
      </trkpt>
      <trkpt lat="45.70722" lon="-0.73249">
        <ele>35</ele>
      </trkpt>
      <trkpt lat="45.70688" lon="-0.73306">
        <ele>35</ele>
      </trkpt>
      <trkpt lat="45.7069" lon="-0.73309">
        <ele>35</ele>
      </trkpt>
      <trkpt lat="45.7071" lon="-0.73334">
        <ele>34.4</ele>
        <extensions>
          <visugpx:TrkExtension xmlns:visugpx="https://www.visugpx.com/editgpx/">
            <visugpx:node>2</visugpx:node>
            </visugpx:TrkExtension>
        </extensions>
      </trkpt>
      <trkpt lat="45.7069" lon="-0.73309">
        <ele>35</ele>
      </trkpt>
      <trkpt lat="45.70688" lon="-0.73306">
        <ele>35</ele>
      </trkpt>
      <trkpt lat="45.70658" lon="-0.73355">
        <ele>34.2</ele>
      </trkpt>
      <trkpt lat="45.70646" lon="-0.73377">
        <ele>34</ele>
      </trkpt>
      <trkpt lat="45.70636" lon="-0.73387">
        <ele>33.9</ele>
      </trkpt>
      <trkpt lat="45.7063" lon="-0.73385">
        <ele>33.7</ele>
      </trkpt>
      <trkpt lat="45.70621" lon="-0.73373">
        <ele>33.7</ele>
      </trkpt>
      <trkpt lat="45.70613" lon="-0.73354">
        <ele>34</ele>
      </trkpt>
      <trkpt lat="45.70612" lon="-0.73348">
        <ele>34</ele>
      </trkpt>
      <trkpt lat="45.70608" lon="-0.73333">
        <ele>33.9</ele>
      </trkpt>
      <trkpt lat="45.70602" lon="-0.73344">
        <ele>33.7</ele>
      </trkpt>
      <trkpt lat="45.70591" lon="-0.73364">
        <ele>33.2</ele>
      </trkpt>
      <trkpt lat="45.7058" lon="-0.73399">
        <ele>32.6</ele>
      </trkpt>
      <trkpt lat="45.70577" lon="-0.73412">
        <ele>32.1</ele>
      </trkpt>
      <trkpt lat="45.70577" lon="-0.73436">
        <ele>32</ele>
      </trkpt>
      <trkpt lat="45.70578" lon="-0.73478">
        <ele>31.8</ele>
      </trkpt>
      <trkpt lat="45.70577" lon="-0.73487">
        <ele>31.5</ele>
      </trkpt>
      <trkpt lat="45.70575" lon="-0.73495">
        <ele>31.2</ele>
      </trkpt>
      <trkpt lat="45.70559" lon="-0.73516">
        <ele>30.9</ele>
      </trkpt>
      <trkpt lat="45.70552" lon="-0.73523">
        <ele>30.9</ele>
      </trkpt>
      <trkpt lat="45.70551" lon="-0.73524">
        <ele>30.9</ele>
      </trkpt>
      <trkpt lat="45.70545" lon="-0.73526">
        <ele>30.6</ele>
      </trkpt>
      <trkpt lat="45.70502" lon="-0.73521">
        <ele>30</ele>
      </trkpt>
      <trkpt lat="45.70489" lon="-0.73521">
        <ele>29.6</ele>
      </trkpt>
      <trkpt lat="45.70473" lon="-0.73524">
        <ele>29</ele>
      </trkpt>
      <trkpt lat="45.70421" lon="-0.73535">
        <ele>26</ele>
      </trkpt>
      <trkpt lat="45.70396" lon="-0.73539">
        <ele>25.6</ele>
      </trkpt>
      <trkpt lat="45.70356" lon="-0.73546">
        <ele>28.1</ele>
      </trkpt>
      <trkpt lat="45.70311" lon="-0.73562">
        <ele>33</ele>
      </trkpt>
      <trkpt lat="45.70306" lon="-0.73563">
        <ele>33.5</ele>
      </trkpt>
      <trkpt lat="45.70303" lon="-0.73563">
        <ele>33.8</ele>
      </trkpt>
      <trkpt lat="45.70277" lon="-0.7355">
        <ele>35.8</ele>
      </trkpt>
      <trkpt lat="45.70268" lon="-0.73546">
        <ele>36</ele>
      </trkpt>
      <trkpt lat="45.70259" lon="-0.73543">
        <ele>36.2</ele>
      </trkpt>
      <trkpt lat="45.70245" lon="-0.73532">
        <ele>36.5</ele>
      </trkpt>
      <trkpt lat="45.70236" lon="-0.73528">
        <ele>37</ele>
      </trkpt>
      <trkpt lat="45.70229" lon="-0.73527">
        <ele>37.5</ele>
      </trkpt>
      <trkpt lat="45.70219" lon="-0.7353">
        <ele>38.2</ele>
      </trkpt>
      <trkpt lat="45.70213" lon="-0.73538">
        <ele>38.6</ele>
      </trkpt>
      <trkpt lat="45.70193" lon="-0.73586">
        <ele>40.1</ele>
      </trkpt>
      <trkpt lat="45.70184" lon="-0.73603">
        <ele>40.8</ele>
      </trkpt>
      <trkpt lat="45.70178" lon="-0.7361">
        <ele>41</ele>
      </trkpt>
      <trkpt lat="45.70167" lon="-0.73614">
        <ele>41.1</ele>
      </trkpt>
      <trkpt lat="45.70162" lon="-0.73613">
        <ele>40.5</ele>
      </trkpt>
      <trkpt lat="45.70151" lon="-0.73609">
        <ele>39.4</ele>
      </trkpt>
      <trkpt lat="45.70133" lon="-0.73601">
        <ele>39.5</ele>
      </trkpt>
      <trkpt lat="45.70122" lon="-0.73596">
        <ele>40.5</ele>
      </trkpt>
      <trkpt lat="45.70099" lon="-0.73587">
        <ele>41</ele>
      </trkpt>
      <trkpt lat="45.70081" lon="-0.73581">
        <ele>40.8</ele>
      </trkpt>
      <trkpt lat="45.70051" lon="-0.73577">
        <ele>40</ele>
      </trkpt>
      <trkpt lat="45.70021" lon="-0.73578">
        <ele>39.8</ele>
      </trkpt>
      <trkpt lat="45.70007" lon="-0.73581">
        <ele>39.3</ele>
      </trkpt>
      <trkpt lat="45.69995" lon="-0.73587">
        <ele>39</ele>
      </trkpt>
      <trkpt lat="45.69984" lon="-0.73599">
        <ele>38.7</ele>
      </trkpt>
      <trkpt lat="45.69972" lon="-0.73616">
        <ele>38</ele>
      </trkpt>
      <trkpt lat="45.69863" lon="-0.73782">
        <ele>34.5</ele>
      </trkpt>
      <trkpt lat="45.69826" lon="-0.73834">
        <ele>35.6</ele>
      </trkpt>
      <trkpt lat="45.69782" lon="-0.73902">
        <ele>36.8</ele>
      </trkpt>
      <trkpt lat="45.69768" lon="-0.73921">
        <ele>36.6</ele>
      </trkpt>
      <trkpt lat="45.69738" lon="-0.73957">
        <ele>34.9</ele>
      </trkpt>
      <trkpt lat="45.69719" lon="-0.73979">
        <ele>38.2</ele>
      </trkpt>
      <trkpt lat="45.69699" lon="-0.73999">
        <ele>37.4</ele>
      </trkpt>
      <trkpt lat="45.69669" lon="-0.74025">
        <ele>36.2</ele>
      </trkpt>
      <trkpt lat="45.6963" lon="-0.74054">
        <ele>34.5</ele>
      </trkpt>
      <trkpt lat="45.69584" lon="-0.74084">
        <ele>34</ele>
      </trkpt>
      <trkpt lat="45.69542" lon="-0.74112">
        <ele>35.5</ele>
      </trkpt>
      <trkpt lat="45.69456" lon="-0.74179">
        <ele>37.1</ele>
      </trkpt>
      <trkpt lat="45.69439" lon="-0.74191">
        <ele>37.3</ele>
      </trkpt>
      <trkpt lat="45.69423" lon="-0.74202">
        <ele>37.8</ele>
      </trkpt>
      <trkpt lat="45.69387" lon="-0.74216">
        <ele>38.2</ele>
      </trkpt>
      <trkpt lat="45.69302" lon="-0.74298">
        <ele>37.2</ele>
      </trkpt>
      <trkpt lat="45.69297" lon="-0.74301">
        <ele>37.1</ele>
      </trkpt>
      <trkpt lat="45.69286" lon="-0.74304">
        <ele>37</ele>
      </trkpt>
      <trkpt lat="45.69273" lon="-0.74301">
        <ele>36.9</ele>
      </trkpt>
      <trkpt lat="45.69267" lon="-0.74298">
        <ele>36.7</ele>
      </trkpt>
      <trkpt lat="45.69092" lon="-0.74193">
        <ele>37</ele>
      </trkpt>
      <trkpt lat="45.69081" lon="-0.74183">
        <ele>37</ele>
      </trkpt>
      <trkpt lat="45.69072" lon="-0.74175">
        <ele>37.3</ele>
      </trkpt>
      <trkpt lat="45.69057" lon="-0.74153">
        <ele>38</ele>
      </trkpt>
      <trkpt lat="45.69048" lon="-0.74133">
        <ele>38</ele>
      </trkpt>
      <trkpt lat="45.69041" lon="-0.74114">
        <ele>38</ele>
      </trkpt>
      <trkpt lat="45.69016" lon="-0.74028">
        <ele>38.6</ele>
      </trkpt>
      <trkpt lat="45.69006" lon="-0.74002">
        <ele>38.9</ele>
      </trkpt>
      <trkpt lat="45.69" lon="-0.73992">
        <ele>39</ele>
      </trkpt>
      <trkpt lat="45.68993" lon="-0.73988">
        <ele>38.7</ele>
      </trkpt>
      <trkpt lat="45.68992" lon="-0.73975">
        <ele>38.7</ele>
      </trkpt>
      <trkpt lat="45.68986" lon="-0.73959">
        <ele>38.5</ele>
      </trkpt>
      <trkpt lat="45.6896" lon="-0.73922">
        <ele>38.4</ele>
      </trkpt>
      <trkpt lat="45.68873" lon="-0.73811">
        <ele>37.9</ele>
      </trkpt>
      <trkpt lat="45.68826" lon="-0.73753">
        <ele>37.7</ele>
      </trkpt>
      <trkpt lat="45.68792" lon="-0.73706">
        <ele>37.8</ele>
      </trkpt>
      <trkpt lat="45.6877" lon="-0.73675">
        <ele>38</ele>
      </trkpt>
      <trkpt lat="45.6876" lon="-0.73661">
        <ele>38.1</ele>
      </trkpt>
      <trkpt lat="45.68737" lon="-0.73622">
        <ele>38.6</ele>
      </trkpt>
      <trkpt lat="45.68735" lon="-0.73616">
        <ele>38.8</ele>
      </trkpt>
      <trkpt lat="45.68715" lon="-0.73563">
        <ele>39.2</ele>
      </trkpt>
      <trkpt lat="45.68691" lon="-0.73506">
        <ele>40</ele>
      </trkpt>
      <trkpt lat="45.68661" lon="-0.73457">
        <ele>40</ele>
      </trkpt>
      <trkpt lat="45.68607" lon="-0.73368">
        <ele>40</ele>
      </trkpt>
      <trkpt lat="45.68604" lon="-0.73363">
        <ele>40</ele>
      </trkpt>
      <trkpt lat="45.68568" lon="-0.73312">
        <ele>39</ele>
      </trkpt>
      <trkpt lat="45.68551" lon="-0.73294">
        <ele>38.6</ele>
      </trkpt>
      <trkpt lat="45.68526" lon="-0.7328">
        <ele>38</ele>
      </trkpt>
      <trkpt lat="45.68491" lon="-0.73267">
        <ele>36.3</ele>
      </trkpt>
      <trkpt lat="45.68407" lon="-0.73242">
        <ele>33.5</ele>
      </trkpt>
      <trkpt lat="45.68382" lon="-0.73226">
        <ele>33</ele>
      </trkpt>
      <trkpt lat="45.68366" lon="-0.7322">
        <ele>33</ele>
      </trkpt>
      <trkpt lat="45.68324" lon="-0.7319">
        <ele>35.3</ele>
      </trkpt>
      <trkpt lat="45.6831" lon="-0.73178">
        <ele>35.8</ele>
      </trkpt>
      <trkpt lat="45.68294" lon="-0.73158">
        <ele>36.1</ele>
      </trkpt>
      <trkpt lat="45.68278" lon="-0.73135">
        <ele>36</ele>
      </trkpt>
      <trkpt lat="45.68266" lon="-0.73123">
        <ele>36.4</ele>
      </trkpt>
      <trkpt lat="45.68257" lon="-0.7312">
        <ele>36.7</ele>
      </trkpt>
      <trkpt lat="45.68245" lon="-0.73117">
        <ele>37</ele>
      </trkpt>
      <trkpt lat="45.68211" lon="-0.73101">
        <ele>36.7</ele>
      </trkpt>
      <trkpt lat="45.68189" lon="-0.73087">
        <ele>36.4</ele>
      </trkpt>
      <trkpt lat="45.68182" lon="-0.73081">
        <ele>36.4</ele>
      </trkpt>
      <trkpt lat="45.68179" lon="-0.73079">
        <ele>36.4</ele>
      </trkpt>
      <trkpt lat="45.68171" lon="-0.73067">
        <ele>36.3</ele>
      </trkpt>
      <trkpt lat="45.68148" lon="-0.73013">
        <ele>34.5</ele>
      </trkpt>
      <trkpt lat="45.68133" lon="-0.72978">
        <ele>33.4</ele>
      </trkpt>
      <trkpt lat="45.68119" lon="-0.72956">
        <ele>33.1</ele>
      </trkpt>
      <trkpt lat="45.6809" lon="-0.72922">
        <ele>32</ele>
      </trkpt>
      <trkpt lat="45.68076" lon="-0.729">
        <ele>32</ele>
      </trkpt>
      <trkpt lat="45.68066" lon="-0.72881">
        <ele>31.9</ele>
      </trkpt>
      <trkpt lat="45.68031" lon="-0.72806">
        <ele>32.9</ele>
      </trkpt>
      <trkpt lat="45.67998" lon="-0.72741">
        <ele>35.1</ele>
      </trkpt>
      <trkpt lat="45.67987" lon="-0.72715">
        <ele>35.3</ele>
      </trkpt>
      <trkpt lat="45.67985" lon="-0.72711">
        <ele>35.3</ele>
      </trkpt>
      <trkpt lat="45.67981" lon="-0.72716">
        <ele>35.5</ele>
      </trkpt>
      <trkpt lat="45.67975" lon="-0.72721">
        <ele>35.9</ele>
      </trkpt>
      <trkpt lat="45.67903" lon="-0.72763">
        <ele>37.2</ele>
      </trkpt>
      <trkpt lat="45.67885" lon="-0.72772">
        <ele>37.8</ele>
      </trkpt>
      <trkpt lat="45.67862" lon="-0.72784">
        <ele>38</ele>
      </trkpt>
      <trkpt lat="45.67843" lon="-0.72793">
        <ele>38</ele>
      </trkpt>
      <trkpt lat="45.67815" lon="-0.72809">
        <ele>38.7</ele>
      </trkpt>
      <trkpt lat="45.67809" lon="-0.72809">
        <ele>38.9</ele>
      </trkpt>
      <trkpt lat="45.67803" lon="-0.72806">
        <ele>39</ele>
      </trkpt>
      <trkpt lat="45.67786" lon="-0.72789">
        <ele>38.4</ele>
      </trkpt>
      <trkpt lat="45.67762" lon="-0.72763">
        <ele>37.8</ele>
      </trkpt>
      <trkpt lat="45.6775" lon="-0.72751">
        <ele>38</ele>
      </trkpt>
      <trkpt lat="45.67732" lon="-0.72737">
        <ele>37.5</ele>
      </trkpt>
      <trkpt lat="45.67727" lon="-0.72738">
        <ele>37.6</ele>
      </trkpt>
      <trkpt lat="45.67723" lon="-0.72744">
        <ele>37.8</ele>
      </trkpt>
      <trkpt lat="45.67712" lon="-0.72761">
        <ele>38.1</ele>
      </trkpt>
      <trkpt lat="45.67697" lon="-0.72786">
        <ele>38.9</ele>
      </trkpt>
      <trkpt lat="45.67693" lon="-0.72794">
        <ele>39</ele>
      </trkpt>
      <trkpt lat="45.67689" lon="-0.72806">
        <ele>39</ele>
      </trkpt>
      <trkpt lat="45.67686" lon="-0.72805">
        <ele>39</ele>
      </trkpt>
      <trkpt lat="45.67678" lon="-0.72813">
        <ele>39.2</ele>
      </trkpt>
      <trkpt lat="45.67674" lon="-0.72818">
        <ele>39.3</ele>
      </trkpt>
      <trkpt lat="45.67608" lon="-0.72917">
        <ele>42</ele>
      </trkpt>
      <trkpt lat="45.67592" lon="-0.72937">
        <ele>42.5</ele>
      </trkpt>
      <trkpt lat="45.67578" lon="-0.72941">
        <ele>43.1</ele>
      </trkpt>
      <trkpt lat="45.67579" lon="-0.72961">
        <ele>43.2</ele>
      </trkpt>
      <trkpt lat="45.67585" lon="-0.72977">
        <ele>42.9</ele>
      </trkpt>
      <trkpt lat="45.67602" lon="-0.72995">
        <ele>42.3</ele>
      </trkpt>
      <trkpt lat="45.67637" lon="-0.73019">
        <ele>41.3</ele>
      </trkpt>
      <trkpt lat="45.67628" lon="-0.73036">
        <ele>40.9</ele>
      </trkpt>
      <trkpt lat="45.67595" lon="-0.73084">
        <ele>39</ele>
      </trkpt>
      <trkpt lat="45.67586" lon="-0.73099">
        <ele>38.4</ele>
      </trkpt>
      <trkpt lat="45.67579" lon="-0.73113">
        <ele>38</ele>
      </trkpt>
      <trkpt lat="45.67573" lon="-0.73132">
        <ele>38.3</ele>
      </trkpt>
      <trkpt lat="45.67563" lon="-0.73188">
        <ele>39</ele>
      </trkpt>
      <trkpt lat="45.67553" lon="-0.73227">
        <ele>39.3</ele>
      </trkpt>
      <trkpt lat="45.67548" lon="-0.73242">
        <ele>40</ele>
      </trkpt>
      <trkpt lat="45.67542" lon="-0.73253">
        <ele>40.5</ele>
      </trkpt>
      <trkpt lat="45.6754" lon="-0.73256">
        <ele>40.6</ele>
        <extensions>
          <visugpx:TrkExtension xmlns:visugpx="https://www.visugpx.com/editgpx/">
            <visugpx:node>4</visugpx:node>
            </visugpx:TrkExtension>
        </extensions>
      </trkpt>
    </trkseg>
  </trk>
</gpx>